<?xml version="1.0" encoding="UTF-8" standalone="no" ?>
<gpx xmlns="http://www.topografix.com/GPX/1/1" xmlns:xsi="http://www.w3.org/2001/XMLSchema-instance" xsi:schemaLocation="http://www.topografix.com/GPX/1/1 http://www.topografix.com/GPX/1/1/gpx.xsd" version="1.1" creator="VisuGPX - https://www.visugpx.com">
  <metadata>
    <name>Trail des Marcaires 2022  Defi de Muhlbach sur TraceDeTrail.fr</name>
  </metadata>
  <trk>
    <name><![CDATA[Trail des Marcaires 2022  Defi de Muhlbach sur TraceDeTrail.fr]]></name>
    <trkseg>
      <trkpt lat="48.02168" lon="7.08518">
        <ele>476</ele>
        <time>2000-01-01T00:25:42.000Z</time>
      </trkpt>
      <trkpt lat="48.02159" lon="7.08498">
        <ele>466.6</ele>
        <time>2000-01-01T00:25:52.000Z</time>
      </trkpt>
      <trkpt lat="48.02152" lon="7.0848">
        <ele>478</ele>
        <time>2000-01-01T00:26:02.000Z</time>
      </trkpt>
      <trkpt lat="48.02146" lon="7.08462">
        <ele>465.2</ele>
        <time>2000-01-01T00:26:12.000Z</time>
      </trkpt>
      <trkpt lat="48.02141" lon="7.0844">
        <ele>468</ele>
        <time>2000-01-01T00:26:22.000Z</time>
      </trkpt>
      <trkpt lat="48.02137" lon="7.08416">
        <ele>464.7</ele>
        <time>2000-01-01T00:26:32.000Z</time>
      </trkpt>
      <trkpt lat="48.02135" lon="7.08394">
        <ele>466</ele>
        <time>2000-01-01T00:26:42.000Z</time>
      </trkpt>
      <trkpt lat="48.02139" lon="7.08375">
        <ele>463.5</ele>
        <time>2000-01-01T00:26:52.000Z</time>
      </trkpt>
      <trkpt lat="48.02155" lon="7.08347">
        <ele>467</ele>
        <time>2000-01-01T00:27:02.000Z</time>
      </trkpt>
      <trkpt lat="48.02178" lon="7.08299">
        <ele>467</ele>
        <time>2000-01-01T00:27:12.000Z</time>
      </trkpt>
      <trkpt lat="48.02192" lon="7.08279">
        <ele>460</ele>
        <time>2000-01-01T00:27:22.000Z</time>
      </trkpt>
      <trkpt lat="48.02203" lon="7.08271">
        <ele>455.3</ele>
        <time>2000-01-01T00:27:32.000Z</time>
      </trkpt>
      <trkpt lat="48.02215" lon="7.08266">
        <ele>454</ele>
        <time>2000-01-01T00:27:42.000Z</time>
      </trkpt>
      <trkpt lat="48.02227" lon="7.0828">
        <ele>456.9</ele>
        <time>2000-01-01T00:27:52.000Z</time>
      </trkpt>
      <trkpt lat="48.02242" lon="7.08293">
        <ele>457</ele>
        <time>2000-01-01T00:28:02.000Z</time>
      </trkpt>
      <trkpt lat="48.02257" lon="7.08296">
        <ele>457.3</ele>
        <time>2000-01-01T00:28:12.000Z</time>
      </trkpt>
      <trkpt lat="48.0228" lon="7.08291">
        <ele>458</ele>
        <time>2000-01-01T00:28:22.000Z</time>
      </trkpt>
      <trkpt lat="48.023" lon="7.08278">
        <ele>458</ele>
        <time>2000-01-01T00:28:32.000Z</time>
      </trkpt>
      <trkpt lat="48.02308" lon="7.08262">
        <ele>460.7</ele>
        <time>2000-01-01T00:28:42.000Z</time>
      </trkpt>
      <trkpt lat="48.0231" lon="7.08231">
        <ele>459</ele>
        <time>2000-01-01T00:28:52.000Z</time>
      </trkpt>
      <trkpt lat="48.02303" lon="7.08194">
        <ele>459</ele>
        <time>2000-01-01T00:29:02.000Z</time>
      </trkpt>
      <trkpt lat="48.02287" lon="7.08155">
        <ele>463</ele>
        <time>2000-01-01T00:29:12.000Z</time>
      </trkpt>
      <trkpt lat="48.02268" lon="7.08119">
        <ele>469</ele>
        <time>2000-01-01T00:29:22.000Z</time>
      </trkpt>
      <trkpt lat="48.02255" lon="7.08089">
        <ele>468</ele>
        <time>2000-01-01T00:29:32.000Z</time>
      </trkpt>
      <trkpt lat="48.0224" lon="7.08057">
        <ele>469</ele>
        <time>2000-01-01T00:29:42.000Z</time>
      </trkpt>
      <trkpt lat="48.02226" lon="7.08025">
        <ele>467</ele>
        <time>2000-01-01T00:29:52.000Z</time>
      </trkpt>
      <trkpt lat="48.02207" lon="7.07983">
        <ele>468</ele>
        <time>2000-01-01T00:30:02.000Z</time>
      </trkpt>
      <trkpt lat="48.0219" lon="7.07956">
        <ele>470</ele>
        <time>2000-01-01T00:30:12.000Z</time>
      </trkpt>
      <trkpt lat="48.02172" lon="7.07925">
        <ele>472</ele>
        <time>2000-01-01T00:30:22.000Z</time>
      </trkpt>
      <trkpt lat="48.02151" lon="7.07901">
        <ele>472</ele>
        <time>2000-01-01T00:30:32.000Z</time>
      </trkpt>
      <trkpt lat="48.02123" lon="7.07868">
        <ele>470</ele>
        <time>2000-01-01T00:30:42.000Z</time>
      </trkpt>
      <trkpt lat="48.02097" lon="7.07852">
        <ele>477</ele>
        <time>2000-01-01T00:30:52.000Z</time>
      </trkpt>
      <trkpt lat="48.02076" lon="7.07839">
        <ele>481</ele>
        <time>2000-01-01T00:31:02.000Z</time>
      </trkpt>
      <trkpt lat="48.02054" lon="7.07826">
        <ele>474</ele>
        <time>2000-01-01T00:31:12.000Z</time>
      </trkpt>
      <trkpt lat="48.02022" lon="7.07811">
        <ele>483</ele>
        <time>2000-01-01T00:31:22.000Z</time>
      </trkpt>
      <trkpt lat="48.01991" lon="7.07796">
        <ele>480</ele>
        <time>2000-01-01T00:31:32.000Z</time>
      </trkpt>
      <trkpt lat="48.01967" lon="7.07785">
        <ele>479</ele>
        <time>2000-01-01T00:31:42.000Z</time>
      </trkpt>
      <trkpt lat="48.01936" lon="7.0777">
        <ele>478</ele>
        <time>2000-01-01T00:31:52.000Z</time>
      </trkpt>
      <trkpt lat="48.01913" lon="7.07758">
        <ele>478</ele>
        <time>2000-01-01T00:32:02.000Z</time>
      </trkpt>
      <trkpt lat="48.01885" lon="7.07744">
        <ele>475</ele>
        <time>2000-01-01T00:32:12.000Z</time>
      </trkpt>
      <trkpt lat="48.01856" lon="7.07728">
        <ele>475</ele>
        <time>2000-01-01T00:32:22.000Z</time>
      </trkpt>
      <trkpt lat="48.01831" lon="7.0771">
        <ele>476</ele>
        <time>2000-01-01T00:32:32.000Z</time>
      </trkpt>
      <trkpt lat="48.01808" lon="7.07686">
        <ele>477</ele>
        <time>2000-01-01T00:32:42.000Z</time>
      </trkpt>
      <trkpt lat="48.01784" lon="7.07651">
        <ele>477</ele>
        <time>2000-01-01T00:32:52.000Z</time>
      </trkpt>
      <trkpt lat="48.01763" lon="7.07616">
        <ele>481</ele>
        <time>2000-01-01T00:33:02.000Z</time>
      </trkpt>
      <trkpt lat="48.01741" lon="7.07581">
        <ele>483</ele>
        <time>2000-01-01T00:33:12.000Z</time>
      </trkpt>
      <trkpt lat="48.01712" lon="7.07532">
        <ele>486</ele>
        <time>2000-01-01T00:33:22.000Z</time>
      </trkpt>
      <trkpt lat="48.01686" lon="7.07479">
        <ele>487</ele>
        <time>2000-01-01T00:33:32.000Z</time>
      </trkpt>
      <trkpt lat="48.01665" lon="7.07453">
        <ele>487</ele>
        <time>2000-01-01T00:33:42.000Z</time>
      </trkpt>
      <trkpt lat="48.01631" lon="7.07424">
        <ele>482</ele>
        <time>2000-01-01T00:33:52.000Z</time>
      </trkpt>
      <trkpt lat="48.01612" lon="7.07411">
        <ele>481</ele>
        <time>2000-01-01T00:34:02.000Z</time>
      </trkpt>
      <trkpt lat="48.01597" lon="7.07398">
        <ele>480.7</ele>
        <time>2000-01-01T00:34:12.000Z</time>
      </trkpt>
      <trkpt lat="48.01582" lon="7.07373">
        <ele>491</ele>
        <time>2000-01-01T00:34:22.000Z</time>
      </trkpt>
      <trkpt lat="48.01577" lon="7.07349">
        <ele>482.8</ele>
        <time>2000-01-01T00:34:32.000Z</time>
      </trkpt>
      <trkpt lat="48.01582" lon="7.07315">
        <ele>493</ele>
        <time>2000-01-01T00:34:42.000Z</time>
      </trkpt>
      <trkpt lat="48.01589" lon="7.07298">
        <ele>485.3</ele>
        <time>2000-01-01T00:34:52.000Z</time>
      </trkpt>
      <trkpt lat="48.01623" lon="7.07246">
        <ele>482</ele>
        <time>2000-01-01T00:35:02.000Z</time>
      </trkpt>
      <trkpt lat="48.01646" lon="7.07216">
        <ele>481</ele>
        <time>2000-01-01T00:35:12.000Z</time>
      </trkpt>
      <trkpt lat="48.01655" lon="7.07199">
        <ele>488.4</ele>
        <time>2000-01-01T00:35:22.000Z</time>
      </trkpt>
      <trkpt lat="48.01659" lon="7.07182">
        <ele>484</ele>
        <time>2000-01-01T00:35:32.000Z</time>
      </trkpt>
      <trkpt lat="48.01656" lon="7.07169">
        <ele>490.7</ele>
        <time>2000-01-01T00:35:42.000Z</time>
      </trkpt>
      <trkpt lat="48.01648" lon="7.07159">
        <ele>490</ele>
        <time>2000-01-01T00:35:52.000Z</time>
      </trkpt>
      <trkpt lat="48.01639" lon="7.07151">
        <ele>490.1</ele>
        <time>2000-01-01T00:36:02.000Z</time>
      </trkpt>
      <trkpt lat="48.01633" lon="7.0714">
        <ele>490</ele>
        <time>2000-01-01T00:36:12.000Z</time>
      </trkpt>
      <trkpt lat="48.0163" lon="7.07125">
        <ele>492</ele>
        <time>2000-01-01T00:36:22.000Z</time>
      </trkpt>
      <trkpt lat="48.01626" lon="7.0711">
        <ele>488</ele>
        <time>2000-01-01T00:36:32.000Z</time>
      </trkpt>
      <trkpt lat="48.01621" lon="7.07096">
        <ele>492.7</ele>
        <time>2000-01-01T00:36:42.000Z</time>
      </trkpt>
      <trkpt lat="48.01617" lon="7.0708">
        <ele>491</ele>
        <time>2000-01-01T00:36:52.000Z</time>
      </trkpt>
      <trkpt lat="48.01619" lon="7.07067">
        <ele>493.8</ele>
        <time>2000-01-01T00:37:02.000Z</time>
      </trkpt>
      <trkpt lat="48.01622" lon="7.07061">
        <ele>494.6</ele>
        <time>2000-01-01T00:37:12.000Z</time>
      </trkpt>
      <trkpt lat="48.01617" lon="7.07041">
        <ele>494</ele>
        <time>2000-01-01T00:37:22.000Z</time>
      </trkpt>
      <trkpt lat="48.01615" lon="7.07024">
        <ele>496</ele>
        <time>2000-01-01T00:37:32.000Z</time>
      </trkpt>
      <trkpt lat="48.01614" lon="7.07005">
        <ele>495</ele>
        <time>2000-01-01T00:37:42.000Z</time>
      </trkpt>
      <trkpt lat="48.01612" lon="7.06986">
        <ele>496.3</ele>
        <time>2000-01-01T00:37:52.000Z</time>
      </trkpt>
      <trkpt lat="48.01613" lon="7.06972">
        <ele>495</ele>
        <time>2000-01-01T00:38:02.000Z</time>
      </trkpt>
      <trkpt lat="48.01621" lon="7.06963">
        <ele>500.1</ele>
        <time>2000-01-01T00:38:12.000Z</time>
      </trkpt>
      <trkpt lat="48.01626" lon="7.0695">
        <ele>494</ele>
        <time>2000-01-01T00:38:22.000Z</time>
      </trkpt>
      <trkpt lat="48.01627" lon="7.06938">
        <ele>504.2</ele>
        <time>2000-01-01T00:38:32.000Z</time>
      </trkpt>
      <trkpt lat="48.01632" lon="7.06911">
        <ele>512</ele>
        <time>2000-01-01T00:38:42.000Z</time>
      </trkpt>
      <trkpt lat="48.01635" lon="7.06902">
        <ele>510.1</ele>
        <time>2000-01-01T00:38:52.000Z</time>
      </trkpt>
      <trkpt lat="48.01637" lon="7.06892">
        <ele>511.8</ele>
        <time>2000-01-01T00:39:02.000Z</time>
      </trkpt>
      <trkpt lat="48.01645" lon="7.06864">
        <ele>514</ele>
        <time>2000-01-01T00:39:12.000Z</time>
      </trkpt>
      <trkpt lat="48.01648" lon="7.06849">
        <ele>517.9</ele>
        <time>2000-01-01T00:39:22.000Z</time>
      </trkpt>
      <trkpt lat="48.01652" lon="7.06824">
        <ele>513</ele>
        <time>2000-01-01T00:39:32.000Z</time>
      </trkpt>
      <trkpt lat="48.01658" lon="7.0681">
        <ele>522.9</ele>
        <time>2000-01-01T00:39:42.000Z</time>
      </trkpt>
      <trkpt lat="48.01666" lon="7.06794">
        <ele>530</ele>
        <time>2000-01-01T00:39:52.000Z</time>
      </trkpt>
      <trkpt lat="48.01669" lon="7.0678">
        <ele>526.4</ele>
        <time>2000-01-01T00:40:02.000Z</time>
      </trkpt>
      <trkpt lat="48.01673" lon="7.06771">
        <ele>528.4</ele>
        <time>2000-01-01T00:40:12.000Z</time>
      </trkpt>
      <trkpt lat="48.01678" lon="7.06745">
        <ele>529</ele>
        <time>2000-01-01T00:40:22.000Z</time>
      </trkpt>
      <trkpt lat="48.0168" lon="7.06705">
        <ele>531</ele>
        <time>2000-01-01T00:40:32.000Z</time>
      </trkpt>
      <trkpt lat="48.01681" lon="7.06699">
        <ele>534.5</ele>
        <time>2000-01-01T00:40:42.000Z</time>
      </trkpt>
      <trkpt lat="48.01681" lon="7.06686">
        <ele>535.3</ele>
        <time>2000-01-01T00:40:52.000Z</time>
      </trkpt>
      <trkpt lat="48.0168" lon="7.06671">
        <ele>534</ele>
        <time>2000-01-01T00:41:02.000Z</time>
      </trkpt>
      <trkpt lat="48.01676" lon="7.06648">
        <ele>535.8</ele>
        <time>2000-01-01T00:41:12.000Z</time>
      </trkpt>
      <trkpt lat="48.01671" lon="7.06628">
        <ele>539</ele>
        <time>2000-01-01T00:41:22.000Z</time>
      </trkpt>
      <trkpt lat="48.01666" lon="7.06605">
        <ele>534</ele>
        <time>2000-01-01T00:41:32.000Z</time>
      </trkpt>
      <trkpt lat="48.01658" lon="7.06574">
        <ele>528</ele>
        <time>2000-01-01T00:41:42.000Z</time>
      </trkpt>
      <trkpt lat="48.01654" lon="7.06549">
        <ele>529.5</ele>
        <time>2000-01-01T00:41:52.000Z</time>
      </trkpt>
      <trkpt lat="48.01653" lon="7.06528">
        <ele>524</ele>
        <time>2000-01-01T00:42:02.000Z</time>
      </trkpt>
      <trkpt lat="48.01649" lon="7.06505">
        <ele>527.5</ele>
        <time>2000-01-01T00:42:12.000Z</time>
      </trkpt>
      <trkpt lat="48.01648" lon="7.06493">
        <ele>522</ele>
        <time>2000-01-01T00:42:22.000Z</time>
      </trkpt>
      <trkpt lat="48.01646" lon="7.06481">
        <ele>526.1</ele>
        <time>2000-01-01T00:42:32.000Z</time>
      </trkpt>
      <trkpt lat="48.01643" lon="7.06468">
        <ele>524.6</ele>
        <time>2000-01-01T00:42:42.000Z</time>
      </trkpt>
      <trkpt lat="48.01641" lon="7.0645">
        <ele>524</ele>
        <time>2000-01-01T00:42:52.000Z</time>
      </trkpt>
      <trkpt lat="48.01642" lon="7.06435">
        <ele>524.5</ele>
        <time>2000-01-01T00:43:02.000Z</time>
      </trkpt>
      <trkpt lat="48.01645" lon="7.06419">
        <ele>523</ele>
        <time>2000-01-01T00:43:12.000Z</time>
      </trkpt>
      <trkpt lat="48.01647" lon="7.064">
        <ele>526.9</ele>
        <time>2000-01-01T00:43:22.000Z</time>
      </trkpt>
      <trkpt lat="48.01653" lon="7.06362">
        <ele>519</ele>
        <time>2000-01-01T00:43:32.000Z</time>
      </trkpt>
      <trkpt lat="48.01658" lon="7.06351">
        <ele>531.3</ele>
        <time>2000-01-01T00:43:42.000Z</time>
      </trkpt>
      <trkpt lat="48.01661" lon="7.0634">
        <ele>532</ele>
        <time>2000-01-01T00:43:52.000Z</time>
      </trkpt>
      <trkpt lat="48.01672" lon="7.06316">
        <ele>526</ele>
        <time>2000-01-01T00:44:02.000Z</time>
      </trkpt>
      <trkpt lat="48.01677" lon="7.06306">
        <ele>538.2</ele>
        <time>2000-01-01T00:44:12.000Z</time>
      </trkpt>
      <trkpt lat="48.01685" lon="7.06292">
        <ele>526</ele>
        <time>2000-01-01T00:44:22.000Z</time>
      </trkpt>
      <trkpt lat="48.01693" lon="7.06268">
        <ele>545.2</ele>
        <time>2000-01-01T00:44:32.000Z</time>
      </trkpt>
      <trkpt lat="48.01706" lon="7.06243">
        <ele>538</ele>
        <time>2000-01-01T00:44:42.000Z</time>
      </trkpt>
      <trkpt lat="48.01715" lon="7.06233">
        <ele>552.1</ele>
        <time>2000-01-01T00:44:52.000Z</time>
      </trkpt>
      <trkpt lat="48.01732" lon="7.06208">
        <ele>545</ele>
        <time>2000-01-01T00:45:02.000Z</time>
      </trkpt>
      <trkpt lat="48.01738" lon="7.06201">
        <ele>555.3</ele>
        <time>2000-01-01T00:45:12.000Z</time>
      </trkpt>
      <trkpt lat="48.01745" lon="7.06197">
        <ele>556.3</ele>
        <time>2000-01-01T00:45:22.000Z</time>
      </trkpt>
      <trkpt lat="48.01767" lon="7.06176">
        <ele>557</ele>
        <time>2000-01-01T00:45:32.000Z</time>
      </trkpt>
      <trkpt lat="48.01771" lon="7.0616">
        <ele>554.8</ele>
        <time>2000-01-01T00:45:42.000Z</time>
      </trkpt>
      <trkpt lat="48.01781" lon="7.06143">
        <ele>568</ele>
        <time>2000-01-01T00:45:52.000Z</time>
      </trkpt>
      <trkpt lat="48.01781" lon="7.06136">
        <ele>556</ele>
        <time>2000-01-01T00:46:02.000Z</time>
      </trkpt>
      <trkpt lat="48.01766" lon="7.06117">
        <ele>564</ele>
        <time>2000-01-01T00:46:12.000Z</time>
      </trkpt>
      <trkpt lat="48.01762" lon="7.06104">
        <ele>560.8</ele>
        <time>2000-01-01T00:46:22.000Z</time>
      </trkpt>
      <trkpt lat="48.01764" lon="7.06087">
        <ele>568</ele>
        <time>2000-01-01T00:46:32.000Z</time>
      </trkpt>
      <trkpt lat="48.01764" lon="7.06068">
        <ele>571</ele>
        <time>2000-01-01T00:46:42.000Z</time>
      </trkpt>
      <trkpt lat="48.01762" lon="7.06052">
        <ele>574</ele>
        <time>2000-01-01T00:46:52.000Z</time>
      </trkpt>
      <trkpt lat="48.01762" lon="7.06037">
        <ele>574.2</ele>
        <time>2000-01-01T00:47:02.000Z</time>
      </trkpt>
      <trkpt lat="48.0176" lon="7.06023">
        <ele>579</ele>
        <time>2000-01-01T00:47:12.000Z</time>
      </trkpt>
      <trkpt lat="48.01753" lon="7.06015">
        <ele>574.2</ele>
        <time>2000-01-01T00:47:22.000Z</time>
      </trkpt>
      <trkpt lat="48.01747" lon="7.06013">
        <ele>572.6</ele>
        <time>2000-01-01T00:47:32.000Z</time>
      </trkpt>
      <trkpt lat="48.01744" lon="7.0601">
        <ele>585</ele>
        <time>2000-01-01T00:47:42.000Z</time>
      </trkpt>
      <trkpt lat="48.01735" lon="7.0601">
        <ele>568.9</ele>
        <time>2000-01-01T00:47:52.000Z</time>
      </trkpt>
      <trkpt lat="48.01726" lon="7.06006">
        <ele>575</ele>
        <time>2000-01-01T00:48:02.000Z</time>
      </trkpt>
      <trkpt lat="48.01712" lon="7.05995">
        <ele>563.3</ele>
        <time>2000-01-01T00:48:12.000Z</time>
      </trkpt>
      <trkpt lat="48.01705" lon="7.0599">
        <ele>573</ele>
        <time>2000-01-01T00:48:22.000Z</time>
      </trkpt>
      <trkpt lat="48.01701" lon="7.05988">
        <ele>560.5</ele>
        <time>2000-01-01T00:48:32.000Z</time>
      </trkpt>
      <trkpt lat="48.01697" lon="7.05976">
        <ele>560.5</ele>
        <time>2000-01-01T00:48:42.000Z</time>
      </trkpt>
      <trkpt lat="48.01696" lon="7.0597">
        <ele>561</ele>
        <time>2000-01-01T00:48:52.000Z</time>
      </trkpt>
      <trkpt lat="48.01697" lon="7.0596">
        <ele>581</ele>
        <time>2000-01-01T00:49:02.000Z</time>
      </trkpt>
      <trkpt lat="48.0168" lon="7.05936">
        <ele>568</ele>
        <time>2000-01-01T00:49:12.000Z</time>
      </trkpt>
      <trkpt lat="48.01669" lon="7.05923">
        <ele>556.3</ele>
        <time>2000-01-01T00:49:22.000Z</time>
      </trkpt>
      <trkpt lat="48.01664" lon="7.05913">
        <ele>568</ele>
        <time>2000-01-01T00:49:32.000Z</time>
      </trkpt>
      <trkpt lat="48.0166" lon="7.05909">
        <ele>553.7</ele>
        <time>2000-01-01T00:49:42.000Z</time>
      </trkpt>
      <trkpt lat="48.01655" lon="7.05901">
        <ele>552.4</ele>
        <time>2000-01-01T00:49:52.000Z</time>
      </trkpt>
      <trkpt lat="48.01654" lon="7.05893">
        <ele>553</ele>
        <time>2000-01-01T00:50:02.000Z</time>
      </trkpt>
      <trkpt lat="48.01658" lon="7.05888">
        <ele>557</ele>
        <time>2000-01-01T00:50:12.000Z</time>
      </trkpt>
      <trkpt lat="48.01658" lon="7.05868">
        <ele>558.6</ele>
        <time>2000-01-01T00:50:22.000Z</time>
      </trkpt>
      <trkpt lat="48.01657" lon="7.05851">
        <ele>561</ele>
        <time>2000-01-01T00:50:32.000Z</time>
      </trkpt>
      <trkpt lat="48.0166" lon="7.05834">
        <ele>564.8</ele>
        <time>2000-01-01T00:50:42.000Z</time>
      </trkpt>
      <trkpt lat="48.01662" lon="7.05816">
        <ele>583</ele>
        <time>2000-01-01T00:50:52.000Z</time>
      </trkpt>
      <trkpt lat="48.01666" lon="7.058">
        <ele>573.3</ele>
        <time>2000-01-01T00:51:02.000Z</time>
      </trkpt>
      <trkpt lat="48.01665" lon="7.05788">
        <ele>584</ele>
        <time>2000-01-01T00:51:12.000Z</time>
      </trkpt>
      <trkpt lat="48.01661" lon="7.05771">
        <ele>574.1</ele>
        <time>2000-01-01T00:51:22.000Z</time>
      </trkpt>
      <trkpt lat="48.01661" lon="7.05764">
        <ele>575</ele>
        <time>2000-01-01T00:51:32.000Z</time>
      </trkpt>
      <trkpt lat="48.01665" lon="7.05755">
        <ele>593</ele>
        <time>2000-01-01T00:51:42.000Z</time>
      </trkpt>
      <trkpt lat="48.01665" lon="7.05742">
        <ele>579.4</ele>
        <time>2000-01-01T00:51:52.000Z</time>
      </trkpt>
      <trkpt lat="48.01666" lon="7.05735">
        <ele>580.2</ele>
        <time>2000-01-01T00:52:02.000Z</time>
      </trkpt>
      <trkpt lat="48.01662" lon="7.05722">
        <ele>597</ele>
        <time>2000-01-01T00:52:12.000Z</time>
      </trkpt>
      <trkpt lat="48.01662" lon="7.05715">
        <ele>580.2</ele>
        <time>2000-01-01T00:52:22.000Z</time>
      </trkpt>
      <trkpt lat="48.0166" lon="7.05704">
        <ele>581.6</ele>
        <time>2000-01-01T00:52:32.000Z</time>
      </trkpt>
      <trkpt lat="48.0166" lon="7.05698">
        <ele>582.9</ele>
        <time>2000-01-01T00:52:42.000Z</time>
      </trkpt>
      <trkpt lat="48.01653" lon="7.05683">
        <ele>609</ele>
        <time>2000-01-01T00:52:52.000Z</time>
      </trkpt>
      <trkpt lat="48.01649" lon="7.05679">
        <ele>583</ele>
        <time>2000-01-01T00:53:02.000Z</time>
      </trkpt>
      <trkpt lat="48.01623" lon="7.05673">
        <ele>602</ele>
        <time>2000-01-01T00:53:12.000Z</time>
      </trkpt>
      <trkpt lat="48.0159" lon="7.05653">
        <ele>609</ele>
        <time>2000-01-01T00:53:22.000Z</time>
      </trkpt>
      <trkpt lat="48.01566" lon="7.05631">
        <ele>603</ele>
        <time>2000-01-01T00:53:32.000Z</time>
      </trkpt>
      <trkpt lat="48.01548" lon="7.05613">
        <ele>609</ele>
        <time>2000-01-01T00:53:42.000Z</time>
      </trkpt>
      <trkpt lat="48.01536" lon="7.05604">
        <ele>573.2</ele>
        <time>2000-01-01T00:53:52.000Z</time>
      </trkpt>
      <trkpt lat="48.01508" lon="7.05578">
        <ele>595</ele>
        <time>2000-01-01T00:54:02.000Z</time>
      </trkpt>
      <trkpt lat="48.01492" lon="7.05565">
        <ele>601</ele>
        <time>2000-01-01T00:54:12.000Z</time>
      </trkpt>
      <trkpt lat="48.01455" lon="7.05529">
        <ele>592</ele>
        <time>2000-01-01T00:54:22.000Z</time>
      </trkpt>
      <trkpt lat="48.01428" lon="7.05495">
        <ele>586</ele>
        <time>2000-01-01T00:54:32.000Z</time>
      </trkpt>
      <trkpt lat="48.01424" lon="7.05489">
        <ele>560.8</ele>
        <time>2000-01-01T00:54:42.000Z</time>
      </trkpt>
      <trkpt lat="48.01415" lon="7.0548">
        <ele>558.2</ele>
        <time>2000-01-01T00:54:52.000Z</time>
      </trkpt>
      <trkpt lat="48.01399" lon="7.05468">
        <ele>574</ele>
        <time>2000-01-01T00:55:02.000Z</time>
      </trkpt>
      <trkpt lat="48.01386" lon="7.05452">
        <ele>552.3</ele>
        <time>2000-01-01T00:55:12.000Z</time>
      </trkpt>
      <trkpt lat="48.01381" lon="7.05444">
        <ele>582</ele>
        <time>2000-01-01T00:55:22.000Z</time>
      </trkpt>
      <trkpt lat="48.01375" lon="7.05437">
        <ele>551</ele>
        <time>2000-01-01T00:55:32.000Z</time>
      </trkpt>
      <trkpt lat="48.0137" lon="7.05428">
        <ele>550.8</ele>
        <time>2000-01-01T00:55:42.000Z</time>
      </trkpt>
      <trkpt lat="48.0136" lon="7.05415">
        <ele>576</ele>
        <time>2000-01-01T00:55:52.000Z</time>
      </trkpt>
      <trkpt lat="48.01346" lon="7.05403">
        <ele>546.4</ele>
        <time>2000-01-01T00:56:02.000Z</time>
      </trkpt>
      <trkpt lat="48.01328" lon="7.05389">
        <ele>577</ele>
        <time>2000-01-01T00:56:12.000Z</time>
      </trkpt>
      <trkpt lat="48.01322" lon="7.05383">
        <ele>542.1</ele>
        <time>2000-01-01T00:56:22.000Z</time>
      </trkpt>
      <trkpt lat="48.01309" lon="7.05375">
        <ele>582</ele>
        <time>2000-01-01T00:56:32.000Z</time>
      </trkpt>
      <trkpt lat="48.01287" lon="7.05357">
        <ele>556</ele>
        <time>2000-01-01T00:56:42.000Z</time>
      </trkpt>
      <trkpt lat="48.01261" lon="7.05334">
        <ele>545</ele>
        <time>2000-01-01T00:56:52.000Z</time>
      </trkpt>
      <trkpt lat="48.01245" lon="7.05327">
        <ele>532.8</ele>
        <time>2000-01-01T00:57:02.000Z</time>
      </trkpt>
      <trkpt lat="48.01235" lon="7.05325">
        <ele>535</ele>
        <time>2000-01-01T00:57:12.000Z</time>
      </trkpt>
      <trkpt lat="48.01218" lon="7.05319">
        <ele>527.9</ele>
        <time>2000-01-01T00:57:22.000Z</time>
      </trkpt>
      <trkpt lat="48.01197" lon="7.05308">
        <ele>532</ele>
        <time>2000-01-01T00:57:32.000Z</time>
      </trkpt>
      <trkpt lat="48.01189" lon="7.05301">
        <ele>524.7</ele>
        <time>2000-01-01T00:57:42.000Z</time>
      </trkpt>
      <trkpt lat="48.01181" lon="7.05292">
        <ele>529</ele>
        <time>2000-01-01T00:57:52.000Z</time>
      </trkpt>
      <trkpt lat="48.01167" lon="7.05266">
        <ele>534</ele>
        <time>2000-01-01T00:58:02.000Z</time>
      </trkpt>
      <trkpt lat="48.01163" lon="7.05261">
        <ele>521</ele>
        <time>2000-01-01T00:58:12.000Z</time>
      </trkpt>
      <trkpt lat="48.01152" lon="7.05244">
        <ele>526</ele>
        <time>2000-01-01T00:58:22.000Z</time>
      </trkpt>
      <trkpt lat="48.01128" lon="7.05209">
        <ele>524</ele>
        <time>2000-01-01T00:58:32.000Z</time>
      </trkpt>
      <trkpt lat="48.01113" lon="7.05184">
        <ele>529</ele>
        <time>2000-01-01T00:58:42.000Z</time>
      </trkpt>
      <trkpt lat="48.01106" lon="7.05168">
        <ele>513</ele>
        <time>2000-01-01T00:58:52.000Z</time>
      </trkpt>
      <trkpt lat="48.01096" lon="7.05149">
        <ele>522</ele>
        <time>2000-01-01T00:59:02.000Z</time>
      </trkpt>
      <trkpt lat="48.01089" lon="7.05126">
        <ele>511.4</ele>
        <time>2000-01-01T00:59:12.000Z</time>
      </trkpt>
      <trkpt lat="48.01076" lon="7.05108">
        <ele>524</ele>
        <time>2000-01-01T00:59:22.000Z</time>
      </trkpt>
      <trkpt lat="48.01071" lon="7.05103">
        <ele>508</ele>
        <time>2000-01-01T00:59:32.000Z</time>
      </trkpt>
      <trkpt lat="48.01058" lon="7.05092">
        <ele>513</ele>
        <time>2000-01-01T00:59:42.000Z</time>
      </trkpt>
      <trkpt lat="48.01055" lon="7.05087">
        <ele>504.8</ele>
        <time>2000-01-01T00:59:52.000Z</time>
      </trkpt>
      <trkpt lat="48.0105" lon="7.05084">
        <ele>504.4</ele>
        <time>2000-01-01T01:00:02.000Z</time>
      </trkpt>
      <trkpt lat="48.01041" lon="7.0507">
        <ele>507</ele>
        <time>2000-01-01T01:00:12.000Z</time>
      </trkpt>
      <trkpt lat="48.01036" lon="7.05042">
        <ele>506</ele>
        <time>2000-01-01T01:00:22.000Z</time>
      </trkpt>
      <trkpt lat="48.01029" lon="7.05014">
        <ele>507</ele>
        <time>2000-01-01T01:00:32.000Z</time>
      </trkpt>
      <trkpt lat="48.01026" lon="7.04999">
        <ele>505.7</ele>
        <time>2000-01-01T01:00:42.000Z</time>
      </trkpt>
      <trkpt lat="48.01018" lon="7.04977">
        <ele>503</ele>
        <time>2000-01-01T01:00:52.000Z</time>
      </trkpt>
      <trkpt lat="48.01011" lon="7.04955">
        <ele>504.3</ele>
        <time>2000-01-01T01:01:02.000Z</time>
      </trkpt>
      <trkpt lat="48.00994" lon="7.04906">
        <ele>516</ele>
        <time>2000-01-01T01:01:12.000Z</time>
      </trkpt>
      <trkpt lat="48.00986" lon="7.04885">
        <ele>504.5</ele>
        <time>2000-01-01T01:01:22.000Z</time>
      </trkpt>
      <trkpt lat="48.0098" lon="7.04867">
        <ele>512</ele>
        <time>2000-01-01T01:01:32.000Z</time>
      </trkpt>
      <trkpt lat="48.00974" lon="7.04843">
        <ele>504.4</ele>
        <time>2000-01-01T01:01:42.000Z</time>
      </trkpt>
      <trkpt lat="48.00966" lon="7.04817">
        <ele>520</ele>
        <time>2000-01-01T01:01:52.000Z</time>
      </trkpt>
      <trkpt lat="48.00957" lon="7.04791">
        <ele>514</ele>
        <time>2000-01-01T01:02:02.000Z</time>
      </trkpt>
      <trkpt lat="48.0095" lon="7.04774">
        <ele>504.9</ele>
        <time>2000-01-01T01:02:12.000Z</time>
      </trkpt>
      <trkpt lat="48.00944" lon="7.04753">
        <ele>517</ele>
        <time>2000-01-01T01:02:22.000Z</time>
      </trkpt>
      <trkpt lat="48.0094" lon="7.04729">
        <ele>504.6</ele>
        <time>2000-01-01T01:02:32.000Z</time>
      </trkpt>
      <trkpt lat="48.00939" lon="7.04704">
        <ele>516</ele>
        <time>2000-01-01T01:02:42.000Z</time>
      </trkpt>
      <trkpt lat="48.00937" lon="7.04682">
        <ele>506.4</ele>
        <time>2000-01-01T01:02:52.000Z</time>
      </trkpt>
      <trkpt lat="48.00924" lon="7.04631">
        <ele>514</ele>
        <time>2000-01-01T01:03:02.000Z</time>
      </trkpt>
      <trkpt lat="48.00914" lon="7.04599">
        <ele>521</ele>
        <time>2000-01-01T01:03:12.000Z</time>
      </trkpt>
      <trkpt lat="48.00913" lon="7.04584">
        <ele>510.3</ele>
        <time>2000-01-01T01:03:22.000Z</time>
      </trkpt>
      <trkpt lat="48.00909" lon="7.04569">
        <ele>514</ele>
        <time>2000-01-01T01:03:32.000Z</time>
      </trkpt>
      <trkpt lat="48.00908" lon="7.04554">
        <ele>513.1</ele>
        <time>2000-01-01T01:03:42.000Z</time>
      </trkpt>
      <trkpt lat="48.00906" lon="7.04537">
        <ele>517</ele>
        <time>2000-01-01T01:03:52.000Z</time>
      </trkpt>
      <trkpt lat="48.00905" lon="7.04514">
        <ele>516.6</ele>
        <time>2000-01-01T01:04:02.000Z</time>
      </trkpt>
      <trkpt lat="48.00901" lon="7.04479">
        <ele>522</ele>
        <time>2000-01-01T01:04:12.000Z</time>
      </trkpt>
      <trkpt lat="48.00899" lon="7.04456">
        <ele>519.5</ele>
        <time>2000-01-01T01:04:22.000Z</time>
      </trkpt>
      <trkpt lat="48.00896" lon="7.0443">
        <ele>524</ele>
        <time>2000-01-01T01:04:32.000Z</time>
      </trkpt>
      <trkpt lat="48.00892" lon="7.0441">
        <ele>519.3</ele>
        <time>2000-01-01T01:04:42.000Z</time>
      </trkpt>
      <trkpt lat="48.00888" lon="7.04347">
        <ele>527</ele>
        <time>2000-01-01T01:04:52.000Z</time>
      </trkpt>
      <trkpt lat="48.00884" lon="7.04329">
        <ele>521.3</ele>
        <time>2000-01-01T01:05:02.000Z</time>
      </trkpt>
      <trkpt lat="48.00883" lon="7.04322">
        <ele>521.6</ele>
        <time>2000-01-01T01:05:12.000Z</time>
      </trkpt>
      <trkpt lat="48.00885" lon="7.0431">
        <ele>529</ele>
        <time>2000-01-01T01:05:22.000Z</time>
      </trkpt>
      <trkpt lat="48.00884" lon="7.04295">
        <ele>524.2</ele>
        <time>2000-01-01T01:05:32.000Z</time>
      </trkpt>
      <trkpt lat="48.00884" lon="7.04278">
        <ele>531</ele>
        <time>2000-01-01T01:05:42.000Z</time>
      </trkpt>
      <trkpt lat="48.0088" lon="7.04264">
        <ele>525.2</ele>
        <time>2000-01-01T01:05:52.000Z</time>
      </trkpt>
      <trkpt lat="48.00861" lon="7.04249">
        <ele>523</ele>
        <time>2000-01-01T01:06:02.000Z</time>
      </trkpt>
      <trkpt lat="48.00835" lon="7.04234">
        <ele>522</ele>
        <time>2000-01-01T01:06:12.000Z</time>
      </trkpt>
      <trkpt lat="48.0082" lon="7.04206">
        <ele>524</ele>
        <time>2000-01-01T01:06:22.000Z</time>
      </trkpt>
      <trkpt lat="48.00812" lon="7.04188">
        <ele>519.4</ele>
        <time>2000-01-01T01:06:32.000Z</time>
      </trkpt>
      <trkpt lat="48.008" lon="7.04168">
        <ele>529</ele>
        <time>2000-01-01T01:06:42.000Z</time>
      </trkpt>
      <trkpt lat="48.00786" lon="7.04131">
        <ele>531</ele>
        <time>2000-01-01T01:06:52.000Z</time>
      </trkpt>
      <trkpt lat="48.00773" lon="7.04107">
        <ele>531</ele>
        <time>2000-01-01T01:07:02.000Z</time>
      </trkpt>
      <trkpt lat="48.00762" lon="7.04082">
        <ele>530</ele>
        <time>2000-01-01T01:07:12.000Z</time>
      </trkpt>
      <trkpt lat="48.0075" lon="7.04046">
        <ele>530</ele>
        <time>2000-01-01T01:07:22.000Z</time>
      </trkpt>
      <trkpt lat="48.00742" lon="7.04015">
        <ele>526</ele>
        <time>2000-01-01T01:07:32.000Z</time>
      </trkpt>
      <trkpt lat="48.00735" lon="7.03996">
        <ele>525.1</ele>
        <time>2000-01-01T01:07:42.000Z</time>
      </trkpt>
      <trkpt lat="48.00726" lon="7.03957">
        <ele>529</ele>
        <time>2000-01-01T01:07:52.000Z</time>
      </trkpt>
      <trkpt lat="48.00717" lon="7.03928">
        <ele>532</ele>
        <time>2000-01-01T01:08:02.000Z</time>
      </trkpt>
      <trkpt lat="48.00717" lon="7.03879">
        <ele>529</ele>
        <time>2000-01-01T01:08:12.000Z</time>
      </trkpt>
      <trkpt lat="48.00726" lon="7.03858">
        <ele>529.2</ele>
        <time>2000-01-01T01:08:22.000Z</time>
      </trkpt>
      <trkpt lat="48.0075" lon="7.03819">
        <ele>539</ele>
        <time>2000-01-01T01:08:32.000Z</time>
      </trkpt>
      <trkpt lat="48.00772" lon="7.03781">
        <ele>543</ele>
        <time>2000-01-01T01:08:42.000Z</time>
      </trkpt>
      <trkpt lat="48.00789" lon="7.03771">
        <ele>543</ele>
        <time>2000-01-01T01:08:52.000Z</time>
      </trkpt>
      <trkpt lat="48.00806" lon="7.03769">
        <ele>542.6</ele>
        <time>2000-01-01T01:09:02.000Z</time>
      </trkpt>
      <trkpt lat="48.00843" lon="7.03769">
        <ele>560</ele>
        <time>2000-01-01T01:09:12.000Z</time>
      </trkpt>
      <trkpt lat="48.00872" lon="7.03776">
        <ele>548</ele>
        <time>2000-01-01T01:09:22.000Z</time>
      </trkpt>
      <trkpt lat="48.00896" lon="7.0377">
        <ele>573</ele>
        <time>2000-01-01T01:09:32.000Z</time>
      </trkpt>
      <trkpt lat="48.00915" lon="7.03763">
        <ele>575</ele>
        <time>2000-01-01T01:09:42.000Z</time>
      </trkpt>
      <trkpt lat="48.00945" lon="7.03755">
        <ele>575</ele>
        <time>2000-01-01T01:09:52.000Z</time>
      </trkpt>
      <trkpt lat="48.00968" lon="7.03743">
        <ele>575</ele>
        <time>2000-01-01T01:10:02.000Z</time>
      </trkpt>
      <trkpt lat="48.00985" lon="7.03736">
        <ele>563.9</ele>
        <time>2000-01-01T01:10:12.000Z</time>
      </trkpt>
      <trkpt lat="48.01007" lon="7.0373">
        <ele>588</ele>
        <time>2000-01-01T01:10:22.000Z</time>
      </trkpt>
      <trkpt lat="48.01031" lon="7.03737">
        <ele>568</ele>
        <time>2000-01-01T01:10:32.000Z</time>
      </trkpt>
      <trkpt lat="48.01051" lon="7.03738">
        <ele>564</ele>
        <time>2000-01-01T01:10:42.000Z</time>
      </trkpt>
      <trkpt lat="48.01068" lon="7.03716">
        <ele>564</ele>
        <time>2000-01-01T01:10:52.000Z</time>
      </trkpt>
      <trkpt lat="48.01095" lon="7.03706">
        <ele>575</ele>
        <time>2000-01-01T01:11:02.000Z</time>
      </trkpt>
      <trkpt lat="48.01116" lon="7.03703">
        <ele>569</ele>
        <time>2000-01-01T01:11:12.000Z</time>
      </trkpt>
      <trkpt lat="48.01134" lon="7.03703">
        <ele>554.9</ele>
        <time>2000-01-01T01:11:22.000Z</time>
      </trkpt>
      <trkpt lat="48.01154" lon="7.03687">
        <ele>570</ele>
        <time>2000-01-01T01:11:32.000Z</time>
      </trkpt>
      <trkpt lat="48.01174" lon="7.03675">
        <ele>566</ele>
        <time>2000-01-01T01:11:42.000Z</time>
      </trkpt>
      <trkpt lat="48.01192" lon="7.03655">
        <ele>572</ele>
        <time>2000-01-01T01:11:52.000Z</time>
      </trkpt>
      <trkpt lat="48.01202" lon="7.03646">
        <ele>561</ele>
        <time>2000-01-01T01:12:02.000Z</time>
      </trkpt>
      <trkpt lat="48.01211" lon="7.03628">
        <ele>566</ele>
        <time>2000-01-01T01:12:12.000Z</time>
      </trkpt>
      <trkpt lat="48.01216" lon="7.03611">
        <ele>563.7</ele>
        <time>2000-01-01T01:12:22.000Z</time>
      </trkpt>
      <trkpt lat="48.01225" lon="7.03593">
        <ele>572</ele>
        <time>2000-01-01T01:12:32.000Z</time>
      </trkpt>
      <trkpt lat="48.01235" lon="7.03578">
        <ele>564.8</ele>
        <time>2000-01-01T01:12:42.000Z</time>
      </trkpt>
      <trkpt lat="48.01244" lon="7.03559">
        <ele>560</ele>
        <time>2000-01-01T01:12:52.000Z</time>
      </trkpt>
      <trkpt lat="48.01251" lon="7.03549">
        <ele>565.2</ele>
        <time>2000-01-01T01:13:02.000Z</time>
      </trkpt>
      <trkpt lat="48.0126" lon="7.03531">
        <ele>567</ele>
        <time>2000-01-01T01:13:12.000Z</time>
      </trkpt>
      <trkpt lat="48.01265" lon="7.03523">
        <ele>566.3</ele>
        <time>2000-01-01T01:13:22.000Z</time>
      </trkpt>
      <trkpt lat="48.01278" lon="7.03507">
        <ele>558</ele>
        <time>2000-01-01T01:13:32.000Z</time>
      </trkpt>
      <trkpt lat="48.01291" lon="7.03489">
        <ele>569.2</ele>
        <time>2000-01-01T01:13:42.000Z</time>
      </trkpt>
      <trkpt lat="48.01303" lon="7.03469">
        <ele>560</ele>
        <time>2000-01-01T01:13:52.000Z</time>
      </trkpt>
      <trkpt lat="48.01314" lon="7.03456">
        <ele>573.2</ele>
        <time>2000-01-01T01:14:02.000Z</time>
      </trkpt>
      <trkpt lat="48.01337" lon="7.0344">
        <ele>577</ele>
        <time>2000-01-01T01:14:12.000Z</time>
      </trkpt>
      <trkpt lat="48.01347" lon="7.03426">
        <ele>576.2</ele>
        <time>2000-01-01T01:14:22.000Z</time>
      </trkpt>
      <trkpt lat="48.01366" lon="7.03386">
        <ele>574</ele>
        <time>2000-01-01T01:14:32.000Z</time>
      </trkpt>
      <trkpt lat="48.01375" lon="7.03372">
        <ele>579.9</ele>
        <time>2000-01-01T01:14:42.000Z</time>
      </trkpt>
      <trkpt lat="48.01383" lon="7.03317">
        <ele>599</ele>
        <time>2000-01-01T01:14:52.000Z</time>
      </trkpt>
      <trkpt lat="48.01382" lon="7.03303">
        <ele>585.1</ele>
        <time>2000-01-01T01:15:02.000Z</time>
      </trkpt>
      <trkpt lat="48.01385" lon="7.03286">
        <ele>610</ele>
        <time>2000-01-01T01:15:12.000Z</time>
      </trkpt>
      <trkpt lat="48.01393" lon="7.03275">
        <ele>587.2</ele>
        <time>2000-01-01T01:15:22.000Z</time>
      </trkpt>
      <trkpt lat="48.01404" lon="7.03267">
        <ele>618</ele>
        <time>2000-01-01T01:15:32.000Z</time>
      </trkpt>
      <trkpt lat="48.01416" lon="7.03253">
        <ele>590.2</ele>
        <time>2000-01-01T01:15:42.000Z</time>
      </trkpt>
      <trkpt lat="48.01424" lon="7.03238">
        <ele>619</ele>
        <time>2000-01-01T01:15:52.000Z</time>
      </trkpt>
      <trkpt lat="48.01429" lon="7.03227">
        <ele>593</ele>
        <time>2000-01-01T01:16:02.000Z</time>
      </trkpt>
      <trkpt lat="48.0143" lon="7.03221">
        <ele>594</ele>
        <time>2000-01-01T01:16:12.000Z</time>
      </trkpt>
      <trkpt lat="48.0144" lon="7.03206">
        <ele>626</ele>
        <time>2000-01-01T01:16:22.000Z</time>
      </trkpt>
      <trkpt lat="48.01448" lon="7.03192">
        <ele>594</ele>
        <time>2000-01-01T01:16:32.000Z</time>
      </trkpt>
      <trkpt lat="48.0145" lon="7.03187">
        <ele>594.4</ele>
        <time>2000-01-01T01:16:42.000Z</time>
      </trkpt>
      <trkpt lat="48.01456" lon="7.03176">
        <ele>608</ele>
        <time>2000-01-01T01:16:52.000Z</time>
      </trkpt>
      <trkpt lat="48.01478" lon="7.03148">
        <ele>605</ele>
        <time>2000-01-01T01:17:02.000Z</time>
      </trkpt>
      <trkpt lat="48.01482" lon="7.03147">
        <ele>597.9</ele>
        <time>2000-01-01T01:17:12.000Z</time>
      </trkpt>
      <trkpt lat="48.0149" lon="7.03126">
        <ele>637</ele>
        <time>2000-01-01T01:17:22.000Z</time>
      </trkpt>
      <trkpt lat="48.015" lon="7.03112">
        <ele>604.6</ele>
        <time>2000-01-01T01:17:32.000Z</time>
      </trkpt>
      <trkpt lat="48.01507" lon="7.03103">
        <ele>613</ele>
        <time>2000-01-01T01:17:42.000Z</time>
      </trkpt>
      <trkpt lat="48.01514" lon="7.031">
        <ele>608.4</ele>
        <time>2000-01-01T01:17:52.000Z</time>
      </trkpt>
      <trkpt lat="48.01525" lon="7.03091">
        <ele>620</ele>
        <time>2000-01-01T01:18:02.000Z</time>
      </trkpt>
      <trkpt lat="48.01533" lon="7.03076">
        <ele>613.7</ele>
        <time>2000-01-01T01:18:12.000Z</time>
      </trkpt>
      <trkpt lat="48.01549" lon="7.03061">
        <ele>641</ele>
        <time>2000-01-01T01:18:22.000Z</time>
      </trkpt>
      <trkpt lat="48.01554" lon="7.03058">
        <ele>614.5</ele>
        <time>2000-01-01T01:18:32.000Z</time>
      </trkpt>
      <trkpt lat="48.01557" lon="7.03052">
        <ele>616.2</ele>
        <time>2000-01-01T01:18:42.000Z</time>
      </trkpt>
      <trkpt lat="48.01565" lon="7.03047">
        <ele>641</ele>
        <time>2000-01-01T01:18:52.000Z</time>
      </trkpt>
      <trkpt lat="48.01575" lon="7.03042">
        <ele>617.2</ele>
        <time>2000-01-01T01:19:02.000Z</time>
      </trkpt>
      <trkpt lat="48.01583" lon="7.0304">
        <ele>634</ele>
        <time>2000-01-01T01:19:12.000Z</time>
      </trkpt>
      <trkpt lat="48.01597" lon="7.03029">
        <ele>621</ele>
        <time>2000-01-01T01:19:22.000Z</time>
      </trkpt>
      <trkpt lat="48.01604" lon="7.03026">
        <ele>629</ele>
        <time>2000-01-01T01:19:32.000Z</time>
      </trkpt>
      <trkpt lat="48.01608" lon="7.03027">
        <ele>621.4</ele>
        <time>2000-01-01T01:19:42.000Z</time>
      </trkpt>
      <trkpt lat="48.01615" lon="7.03022">
        <ele>622.9</ele>
        <time>2000-01-01T01:19:52.000Z</time>
      </trkpt>
      <trkpt lat="48.01624" lon="7.03019">
        <ele>639</ele>
        <time>2000-01-01T01:20:02.000Z</time>
      </trkpt>
      <trkpt lat="48.01637" lon="7.0301">
        <ele>624.4</ele>
        <time>2000-01-01T01:20:12.000Z</time>
      </trkpt>
      <trkpt lat="48.01642" lon="7.03008">
        <ele>641</ele>
        <time>2000-01-01T01:20:22.000Z</time>
      </trkpt>
      <trkpt lat="48.01659" lon="7.03004">
        <ele>626.4</ele>
        <time>2000-01-01T01:20:32.000Z</time>
      </trkpt>
      <trkpt lat="48.01673" lon="7.02999">
        <ele>635</ele>
        <time>2000-01-01T01:20:42.000Z</time>
      </trkpt>
      <trkpt lat="48.01689" lon="7.02983">
        <ele>645</ele>
        <time>2000-01-01T01:20:52.000Z</time>
      </trkpt>
      <trkpt lat="48.017" lon="7.02969">
        <ele>632.8</ele>
        <time>2000-01-01T01:21:02.000Z</time>
      </trkpt>
      <trkpt lat="48.01716" lon="7.0296">
        <ele>649</ele>
        <time>2000-01-01T01:21:12.000Z</time>
      </trkpt>
      <trkpt lat="48.01727" lon="7.02958">
        <ele>631.2</ele>
        <time>2000-01-01T01:21:22.000Z</time>
      </trkpt>
      <trkpt lat="48.01731" lon="7.02956">
        <ele>631.8</ele>
        <time>2000-01-01T01:21:32.000Z</time>
      </trkpt>
      <trkpt lat="48.01734" lon="7.02952">
        <ele>649</ele>
        <time>2000-01-01T01:21:42.000Z</time>
      </trkpt>
      <trkpt lat="48.01743" lon="7.02948">
        <ele>634.2</ele>
        <time>2000-01-01T01:21:52.000Z</time>
      </trkpt>
      <trkpt lat="48.01754" lon="7.02946">
        <ele>642</ele>
        <time>2000-01-01T01:22:02.000Z</time>
      </trkpt>
      <trkpt lat="48.01758" lon="7.02947">
        <ele>634.8</ele>
        <time>2000-01-01T01:22:12.000Z</time>
      </trkpt>
      <trkpt lat="48.01771" lon="7.02942">
        <ele>638.4</ele>
        <time>2000-01-01T01:22:22.000Z</time>
      </trkpt>
      <trkpt lat="48.01781" lon="7.02936">
        <ele>667</ele>
        <time>2000-01-01T01:22:32.000Z</time>
      </trkpt>
      <trkpt lat="48.01788" lon="7.0293">
        <ele>643.9</ele>
        <time>2000-01-01T01:22:42.000Z</time>
      </trkpt>
      <trkpt lat="48.01795" lon="7.02923">
        <ele>646.3</ele>
        <time>2000-01-01T01:22:52.000Z</time>
      </trkpt>
      <trkpt lat="48.01801" lon="7.02915">
        <ele>677</ele>
        <time>2000-01-01T01:23:02.000Z</time>
      </trkpt>
      <trkpt lat="48.01815" lon="7.02908">
        <ele>648.5</ele>
        <time>2000-01-01T01:23:12.000Z</time>
      </trkpt>
      <trkpt lat="48.01832" lon="7.02904">
        <ele>692</ele>
        <time>2000-01-01T01:23:22.000Z</time>
      </trkpt>
      <trkpt lat="48.01841" lon="7.02903">
        <ele>647.2</ele>
        <time>2000-01-01T01:23:32.000Z</time>
      </trkpt>
      <trkpt lat="48.0185" lon="7.02901">
        <ele>692</ele>
        <time>2000-01-01T01:23:42.000Z</time>
      </trkpt>
      <trkpt lat="48.01863" lon="7.02897">
        <ele>652</ele>
        <time>2000-01-01T01:23:52.000Z</time>
      </trkpt>
      <trkpt lat="48.01867" lon="7.02897">
        <ele>652.3</ele>
        <time>2000-01-01T01:24:02.000Z</time>
      </trkpt>
      <trkpt lat="48.01875" lon="7.02899">
        <ele>685</ele>
        <time>2000-01-01T01:24:12.000Z</time>
      </trkpt>
      <trkpt lat="48.01901" lon="7.02893">
        <ele>681</ele>
        <time>2000-01-01T01:24:22.000Z</time>
      </trkpt>
      <trkpt lat="48.01909" lon="7.02888">
        <ele>660.5</ele>
        <time>2000-01-01T01:24:32.000Z</time>
      </trkpt>
      <trkpt lat="48.01914" lon="7.02884">
        <ele>662.6</ele>
        <time>2000-01-01T01:24:42.000Z</time>
      </trkpt>
      <trkpt lat="48.01917" lon="7.02877">
        <ele>700</ele>
        <time>2000-01-01T01:24:52.000Z</time>
      </trkpt>
      <trkpt lat="48.01927" lon="7.02874">
        <ele>666.6</ele>
        <time>2000-01-01T01:25:02.000Z</time>
      </trkpt>
      <trkpt lat="48.01938" lon="7.02868">
        <ele>700</ele>
        <time>2000-01-01T01:25:12.000Z</time>
      </trkpt>
      <trkpt lat="48.01947" lon="7.02865">
        <ele>670.4</ele>
        <time>2000-01-01T01:25:22.000Z</time>
      </trkpt>
      <trkpt lat="48.01967" lon="7.02853">
        <ele>696</ele>
        <time>2000-01-01T01:25:32.000Z</time>
      </trkpt>
      <trkpt lat="48.01973" lon="7.02851">
        <ele>674.7</ele>
        <time>2000-01-01T01:25:42.000Z</time>
      </trkpt>
      <trkpt lat="48.01978" lon="7.02854">
        <ele>671.5</ele>
        <time>2000-01-01T01:25:52.000Z</time>
      </trkpt>
      <trkpt lat="48.01988" lon="7.02851">
        <ele>696</ele>
        <time>2000-01-01T01:26:02.000Z</time>
      </trkpt>
      <trkpt lat="48.01991" lon="7.02848">
        <ele>672.9</ele>
        <time>2000-01-01T01:26:12.000Z</time>
      </trkpt>
      <trkpt lat="48.02002" lon="7.02847">
        <ele>671.7</ele>
        <time>2000-01-01T01:26:22.000Z</time>
      </trkpt>
      <trkpt lat="48.02016" lon="7.02841">
        <ele>709</ele>
        <time>2000-01-01T01:26:32.000Z</time>
      </trkpt>
      <trkpt lat="48.0203" lon="7.02836">
        <ele>678.6</ele>
        <time>2000-01-01T01:26:42.000Z</time>
      </trkpt>
      <trkpt lat="48.02036" lon="7.02832">
        <ele>711</ele>
        <time>2000-01-01T01:26:52.000Z</time>
      </trkpt>
      <trkpt lat="48.02044" lon="7.02825">
        <ele>684.8</ele>
        <time>2000-01-01T01:27:02.000Z</time>
      </trkpt>
      <trkpt lat="48.02048" lon="7.02823">
        <ele>685.7</ele>
        <time>2000-01-01T01:27:12.000Z</time>
      </trkpt>
      <trkpt lat="48.02044" lon="7.02822">
        <ele>686.6</ele>
        <time>2000-01-01T01:27:22.000Z</time>
      </trkpt>
      <trkpt lat="48.02041" lon="7.02819">
        <ele>722</ele>
        <time>2000-01-01T01:27:32.000Z</time>
      </trkpt>
      <trkpt lat="48.02044" lon="7.02816">
        <ele>690</ele>
        <time>2000-01-01T01:27:42.000Z</time>
      </trkpt>
      <trkpt lat="48.0205" lon="7.02816">
        <ele>689.4</ele>
        <time>2000-01-01T01:27:52.000Z</time>
      </trkpt>
      <trkpt lat="48.02055" lon="7.02813">
        <ele>690.3</ele>
        <time>2000-01-01T01:28:02.000Z</time>
      </trkpt>
      <trkpt lat="48.02046" lon="7.02811">
        <ele>722</ele>
        <time>2000-01-01T01:28:12.000Z</time>
      </trkpt>
      <trkpt lat="48.02044" lon="7.02807">
        <ele>695.2</ele>
        <time>2000-01-01T01:28:22.000Z</time>
      </trkpt>
      <trkpt lat="48.02054" lon="7.02803">
        <ele>695.8</ele>
        <time>2000-01-01T01:28:32.000Z</time>
      </trkpt>
      <trkpt lat="48.02061" lon="7.02799">
        <ele>738</ele>
        <time>2000-01-01T01:28:42.000Z</time>
      </trkpt>
      <trkpt lat="48.02064" lon="7.02802">
        <ele>699.1</ele>
        <time>2000-01-01T01:28:52.000Z</time>
      </trkpt>
      <trkpt lat="48.02075" lon="7.02805">
        <ele>701.3</ele>
        <time>2000-01-01T01:29:02.000Z</time>
      </trkpt>
      <trkpt lat="48.02084" lon="7.02811">
        <ele>723</ele>
        <time>2000-01-01T01:29:12.000Z</time>
      </trkpt>
      <trkpt lat="48.02091" lon="7.02808">
        <ele>702.7</ele>
        <time>2000-01-01T01:29:22.000Z</time>
      </trkpt>
      <trkpt lat="48.02105" lon="7.02805">
        <ele>734</ele>
        <time>2000-01-01T01:29:32.000Z</time>
      </trkpt>
      <trkpt lat="48.02109" lon="7.02805">
        <ele>706.2</ele>
        <time>2000-01-01T01:29:42.000Z</time>
      </trkpt>
      <trkpt lat="48.0212" lon="7.02799">
        <ele>711</ele>
        <time>2000-01-01T01:29:52.000Z</time>
      </trkpt>
      <trkpt lat="48.02132" lon="7.028">
        <ele>757</ele>
        <time>2000-01-01T01:30:02.000Z</time>
      </trkpt>
      <trkpt lat="48.02142" lon="7.02802">
        <ele>711.2</ele>
        <time>2000-01-01T01:30:12.000Z</time>
      </trkpt>
      <trkpt lat="48.02146" lon="7.02802">
        <ele>712.1</ele>
        <time>2000-01-01T01:30:22.000Z</time>
      </trkpt>
      <trkpt lat="48.02153" lon="7.02807">
        <ele>748</ele>
        <time>2000-01-01T01:30:32.000Z</time>
      </trkpt>
      <trkpt lat="48.02158" lon="7.02823">
        <ele>707.9</ele>
        <time>2000-01-01T01:30:42.000Z</time>
      </trkpt>
      <trkpt lat="48.02167" lon="7.02835">
        <ele>738</ele>
        <time>2000-01-01T01:30:52.000Z</time>
      </trkpt>
      <trkpt lat="48.02174" lon="7.02837">
        <ele>712.3</ele>
        <time>2000-01-01T01:31:02.000Z</time>
      </trkpt>
      <trkpt lat="48.02177" lon="7.02841">
        <ele>713.2</ele>
        <time>2000-01-01T01:31:12.000Z</time>
      </trkpt>
      <trkpt lat="48.02176" lon="7.02849">
        <ele>712.2</ele>
        <time>2000-01-01T01:31:22.000Z</time>
      </trkpt>
      <trkpt lat="48.02173" lon="7.02853">
        <ele>733</ele>
        <time>2000-01-01T01:31:32.000Z</time>
      </trkpt>
      <trkpt lat="48.02181" lon="7.02853">
        <ele>714.5</ele>
        <time>2000-01-01T01:31:42.000Z</time>
      </trkpt>
      <trkpt lat="48.02186" lon="7.02849">
        <ele>717.1</ele>
        <time>2000-01-01T01:31:52.000Z</time>
      </trkpt>
      <trkpt lat="48.02194" lon="7.02838">
        <ele>745</ele>
        <time>2000-01-01T01:32:02.000Z</time>
      </trkpt>
      <trkpt lat="48.02199" lon="7.02827">
        <ele>723.9</ele>
        <time>2000-01-01T01:32:12.000Z</time>
      </trkpt>
      <trkpt lat="48.02196" lon="7.02811">
        <ele>749</ele>
        <time>2000-01-01T01:32:22.000Z</time>
      </trkpt>
      <trkpt lat="48.02195" lon="7.02803">
        <ele>729.5</ele>
        <time>2000-01-01T01:32:32.000Z</time>
      </trkpt>
      <trkpt lat="48.02196" lon="7.02794">
        <ele>730.9</ele>
        <time>2000-01-01T01:32:42.000Z</time>
      </trkpt>
      <trkpt lat="48.02199" lon="7.0279">
        <ele>732</ele>
        <time>2000-01-01T01:32:52.000Z</time>
      </trkpt>
      <trkpt lat="48.02204" lon="7.02793">
        <ele>758</ele>
        <time>2000-01-01T01:33:02.000Z</time>
      </trkpt>
      <trkpt lat="48.02216" lon="7.02795">
        <ele>734.1</ele>
        <time>2000-01-01T01:33:12.000Z</time>
      </trkpt>
      <trkpt lat="48.0222" lon="7.02794">
        <ele>734.9</ele>
        <time>2000-01-01T01:33:22.000Z</time>
      </trkpt>
      <trkpt lat="48.02225" lon="7.02805">
        <ele>762</ele>
        <time>2000-01-01T01:33:32.000Z</time>
      </trkpt>
      <trkpt lat="48.02226" lon="7.02816">
        <ele>735.2</ele>
        <time>2000-01-01T01:33:42.000Z</time>
      </trkpt>
      <trkpt lat="48.02229" lon="7.02819">
        <ele>736.4</ele>
        <time>2000-01-01T01:33:52.000Z</time>
      </trkpt>
      <trkpt lat="48.02233" lon="7.02812">
        <ele>737.8</ele>
        <time>2000-01-01T01:34:02.000Z</time>
      </trkpt>
      <trkpt lat="48.02236" lon="7.028">
        <ele>761</ele>
        <time>2000-01-01T01:34:12.000Z</time>
      </trkpt>
      <trkpt lat="48.02242" lon="7.02784">
        <ele>742.7</ele>
        <time>2000-01-01T01:34:22.000Z</time>
      </trkpt>
      <trkpt lat="48.02249" lon="7.02785">
        <ele>769</ele>
        <time>2000-01-01T01:34:32.000Z</time>
      </trkpt>
      <trkpt lat="48.02253" lon="7.02791">
        <ele>745.9</ele>
        <time>2000-01-01T01:34:42.000Z</time>
      </trkpt>
      <trkpt lat="48.02258" lon="7.02791">
        <ele>748</ele>
        <time>2000-01-01T01:34:52.000Z</time>
      </trkpt>
      <trkpt lat="48.02261" lon="7.02787">
        <ele>749.6</ele>
        <time>2000-01-01T01:35:02.000Z</time>
      </trkpt>
      <trkpt lat="48.02261" lon="7.02781">
        <ele>769</ele>
        <time>2000-01-01T01:35:12.000Z</time>
      </trkpt>
      <trkpt lat="48.02267" lon="7.02764">
        <ele>754.5</ele>
        <time>2000-01-01T01:35:22.000Z</time>
      </trkpt>
      <trkpt lat="48.02267" lon="7.02754">
        <ele>771</ele>
        <time>2000-01-01T01:35:32.000Z</time>
      </trkpt>
      <trkpt lat="48.02271" lon="7.02733">
        <ele>758.8</ele>
        <time>2000-01-01T01:35:42.000Z</time>
      </trkpt>
      <trkpt lat="48.0227" lon="7.02727">
        <ele>772</ele>
        <time>2000-01-01T01:35:52.000Z</time>
      </trkpt>
      <trkpt lat="48.02286" lon="7.02684">
        <ele>780</ele>
        <time>2000-01-01T01:36:02.000Z</time>
      </trkpt>
      <trkpt lat="48.0229" lon="7.02681">
        <ele>763.5</ele>
        <time>2000-01-01T01:36:12.000Z</time>
      </trkpt>
      <trkpt lat="48.02296" lon="7.02681">
        <ele>764.5</ele>
        <time>2000-01-01T01:36:22.000Z</time>
      </trkpt>
      <trkpt lat="48.02301" lon="7.02688">
        <ele>765.7</ele>
        <time>2000-01-01T01:36:32.000Z</time>
      </trkpt>
      <trkpt lat="48.0231" lon="7.02681">
        <ele>783</ele>
        <time>2000-01-01T01:36:42.000Z</time>
      </trkpt>
      <trkpt lat="48.02317" lon="7.0267">
        <ele>767.6</ele>
        <time>2000-01-01T01:36:52.000Z</time>
      </trkpt>
      <trkpt lat="48.02324" lon="7.02665">
        <ele>768.9</ele>
        <time>2000-01-01T01:37:02.000Z</time>
      </trkpt>
      <trkpt lat="48.02331" lon="7.02657">
        <ele>784</ele>
        <time>2000-01-01T01:37:12.000Z</time>
      </trkpt>
      <trkpt lat="48.0234" lon="7.02641">
        <ele>772.7</ele>
        <time>2000-01-01T01:37:22.000Z</time>
      </trkpt>
      <trkpt lat="48.02346" lon="7.02625">
        <ele>784</ele>
        <time>2000-01-01T01:37:32.000Z</time>
      </trkpt>
      <trkpt lat="48.0235" lon="7.02616">
        <ele>775.9</ele>
        <time>2000-01-01T01:37:42.000Z</time>
      </trkpt>
      <trkpt lat="48.02355" lon="7.02596">
        <ele>809</ele>
        <time>2000-01-01T01:37:52.000Z</time>
      </trkpt>
      <trkpt lat="48.02357" lon="7.02565">
        <ele>808</ele>
        <time>2000-01-01T01:38:02.000Z</time>
      </trkpt>
      <trkpt lat="48.02355" lon="7.02552">
        <ele>777.5</ele>
        <time>2000-01-01T01:38:12.000Z</time>
      </trkpt>
      <trkpt lat="48.02349" lon="7.02497">
        <ele>804</ele>
        <time>2000-01-01T01:38:22.000Z</time>
      </trkpt>
      <trkpt lat="48.0235" lon="7.02483">
        <ele>784.4</ele>
        <time>2000-01-01T01:38:32.000Z</time>
      </trkpt>
      <trkpt lat="48.0235" lon="7.02452">
        <ele>805</ele>
        <time>2000-01-01T01:38:42.000Z</time>
      </trkpt>
      <trkpt lat="48.02347" lon="7.02427">
        <ele>790.5</ele>
        <time>2000-01-01T01:38:52.000Z</time>
      </trkpt>
      <trkpt lat="48.02342" lon="7.02409">
        <ele>798</ele>
        <time>2000-01-01T01:39:02.000Z</time>
      </trkpt>
      <trkpt lat="48.0234" lon="7.02397">
        <ele>794</ele>
        <time>2000-01-01T01:39:12.000Z</time>
      </trkpt>
      <trkpt lat="48.02342" lon="7.02391">
        <ele>795.3</ele>
        <time>2000-01-01T01:39:22.000Z</time>
      </trkpt>
      <trkpt lat="48.0235" lon="7.0239">
        <ele>798</ele>
        <time>2000-01-01T01:39:32.000Z</time>
      </trkpt>
      <trkpt lat="48.02354" lon="7.02388">
        <ele>796.5</ele>
        <time>2000-01-01T01:39:42.000Z</time>
      </trkpt>
      <trkpt lat="48.0236" lon="7.02393">
        <ele>796.6</ele>
        <time>2000-01-01T01:39:52.000Z</time>
      </trkpt>
      <trkpt lat="48.02364" lon="7.02394">
        <ele>797.4</ele>
        <time>2000-01-01T01:40:02.000Z</time>
      </trkpt>
      <trkpt lat="48.02369" lon="7.02405">
        <ele>798</ele>
        <time>2000-01-01T01:40:12.000Z</time>
      </trkpt>
      <trkpt lat="48.02378" lon="7.02419">
        <ele>799.1</ele>
        <time>2000-01-01T01:40:22.000Z</time>
      </trkpt>
      <trkpt lat="48.02382" lon="7.0243">
        <ele>818</ele>
        <time>2000-01-01T01:40:32.000Z</time>
      </trkpt>
      <trkpt lat="48.02388" lon="7.02444">
        <ele>801.7</ele>
        <time>2000-01-01T01:40:42.000Z</time>
      </trkpt>
      <trkpt lat="48.02391" lon="7.02458">
        <ele>818</ele>
        <time>2000-01-01T01:40:52.000Z</time>
      </trkpt>
      <trkpt lat="48.02392" lon="7.02465">
        <ele>802.7</ele>
        <time>2000-01-01T01:41:02.000Z</time>
      </trkpt>
      <trkpt lat="48.02395" lon="7.02469">
        <ele>803.8</ele>
        <time>2000-01-01T01:41:12.000Z</time>
      </trkpt>
      <trkpt lat="48.02401" lon="7.02472">
        <ele>806.2</ele>
        <time>2000-01-01T01:41:22.000Z</time>
      </trkpt>
      <trkpt lat="48.02406" lon="7.0249">
        <ele>823</ele>
        <time>2000-01-01T01:41:32.000Z</time>
      </trkpt>
      <trkpt lat="48.0241" lon="7.02496">
        <ele>806.9</ele>
        <time>2000-01-01T01:41:42.000Z</time>
      </trkpt>
      <trkpt lat="48.02411" lon="7.02503">
        <ele>806.5</ele>
        <time>2000-01-01T01:41:52.000Z</time>
      </trkpt>
      <trkpt lat="48.02418" lon="7.02515">
        <ele>833</ele>
        <time>2000-01-01T01:42:02.000Z</time>
      </trkpt>
      <trkpt lat="48.02426" lon="7.02513">
        <ele>813.3</ele>
        <time>2000-01-01T01:42:12.000Z</time>
      </trkpt>
      <trkpt lat="48.02432" lon="7.02519">
        <ele>816.1</ele>
        <time>2000-01-01T01:42:22.000Z</time>
      </trkpt>
      <trkpt lat="48.02436" lon="7.02535">
        <ele>834</ele>
        <time>2000-01-01T01:42:32.000Z</time>
      </trkpt>
      <trkpt lat="48.02439" lon="7.02559">
        <ele>819.6</ele>
        <time>2000-01-01T01:42:42.000Z</time>
      </trkpt>
      <trkpt lat="48.02443" lon="7.02584">
        <ele>847</ele>
        <time>2000-01-01T01:42:52.000Z</time>
      </trkpt>
      <trkpt lat="48.02444" lon="7.02597">
        <ele>824.2</ele>
        <time>2000-01-01T01:43:02.000Z</time>
      </trkpt>
      <trkpt lat="48.02448" lon="7.02605">
        <ele>826.8</ele>
        <time>2000-01-01T01:43:12.000Z</time>
      </trkpt>
      <trkpt lat="48.02453" lon="7.026">
        <ele>847</ele>
        <time>2000-01-01T01:43:22.000Z</time>
      </trkpt>
      <trkpt lat="48.02455" lon="7.02594">
        <ele>832</ele>
        <time>2000-01-01T01:43:32.000Z</time>
      </trkpt>
      <trkpt lat="48.02459" lon="7.02585">
        <ele>834.9</ele>
        <time>2000-01-01T01:43:42.000Z</time>
      </trkpt>
      <trkpt lat="48.0246" lon="7.02574">
        <ele>847</ele>
        <time>2000-01-01T01:43:52.000Z</time>
      </trkpt>
      <trkpt lat="48.02462" lon="7.02569">
        <ele>836.3</ele>
        <time>2000-01-01T01:44:02.000Z</time>
      </trkpt>
      <trkpt lat="48.02466" lon="7.02571">
        <ele>839.2</ele>
        <time>2000-01-01T01:44:12.000Z</time>
      </trkpt>
      <trkpt lat="48.02468" lon="7.02582">
        <ele>841.1</ele>
        <time>2000-01-01T01:44:22.000Z</time>
      </trkpt>
      <trkpt lat="48.02475" lon="7.02584">
        <ele>864</ele>
        <time>2000-01-01T01:44:32.000Z</time>
      </trkpt>
      <trkpt lat="48.02478" lon="7.02573">
        <ele>848.1</ele>
        <time>2000-01-01T01:44:42.000Z</time>
      </trkpt>
      <trkpt lat="48.02479" lon="7.02562">
        <ele>848.5</ele>
        <time>2000-01-01T01:44:52.000Z</time>
      </trkpt>
      <trkpt lat="48.02478" lon="7.02553">
        <ele>865</ele>
        <time>2000-01-01T01:45:02.000Z</time>
      </trkpt>
      <trkpt lat="48.02481" lon="7.02543">
        <ele>849.4</ele>
        <time>2000-01-01T01:45:12.000Z</time>
      </trkpt>
      <trkpt lat="48.02484" lon="7.02545">
        <ele>851.8</ele>
        <time>2000-01-01T01:45:22.000Z</time>
      </trkpt>
      <trkpt lat="48.02488" lon="7.02559">
        <ele>865</ele>
        <time>2000-01-01T01:45:32.000Z</time>
      </trkpt>
      <trkpt lat="48.02491" lon="7.0258">
        <ele>858.2</ele>
        <time>2000-01-01T01:45:42.000Z</time>
      </trkpt>
      <trkpt lat="48.02498" lon="7.02573">
        <ele>875</ele>
        <time>2000-01-01T01:45:52.000Z</time>
      </trkpt>
      <trkpt lat="48.02499" lon="7.02563">
        <ele>864.2</ele>
        <time>2000-01-01T01:46:02.000Z</time>
      </trkpt>
      <trkpt lat="48.02502" lon="7.02568">
        <ele>865.9</ele>
        <time>2000-01-01T01:46:12.000Z</time>
      </trkpt>
      <trkpt lat="48.02507" lon="7.02599">
        <ele>875</ele>
        <time>2000-01-01T01:46:22.000Z</time>
      </trkpt>
      <trkpt lat="48.02509" lon="7.02607">
        <ele>868.6</ele>
        <time>2000-01-01T01:46:32.000Z</time>
      </trkpt>
      <trkpt lat="48.02521" lon="7.02621">
        <ele>877</ele>
        <time>2000-01-01T01:46:42.000Z</time>
      </trkpt>
      <trkpt lat="48.02533" lon="7.02632">
        <ele>872.8</ele>
        <time>2000-01-01T01:46:52.000Z</time>
      </trkpt>
      <trkpt lat="48.02548" lon="7.02647">
        <ele>878</ele>
        <time>2000-01-01T01:47:02.000Z</time>
      </trkpt>
      <trkpt lat="48.02551" lon="7.02651">
        <ele>878.2</ele>
        <time>2000-01-01T01:47:12.000Z</time>
      </trkpt>
      <trkpt lat="48.02567" lon="7.02661">
        <ele>881</ele>
        <time>2000-01-01T01:47:22.000Z</time>
      </trkpt>
      <trkpt lat="48.02577" lon="7.02658">
        <ele>881</ele>
        <time>2000-01-01T01:47:32.000Z</time>
      </trkpt>
      <trkpt lat="48.02588" lon="7.02656">
        <ele>887</ele>
        <time>2000-01-01T01:47:42.000Z</time>
      </trkpt>
      <trkpt lat="48.02603" lon="7.02647">
        <ele>884.5</ele>
        <time>2000-01-01T01:47:52.000Z</time>
      </trkpt>
      <trkpt lat="48.02612" lon="7.02638">
        <ele>886</ele>
        <time>2000-01-01T01:48:02.000Z</time>
      </trkpt>
      <trkpt lat="48.02623" lon="7.02646">
        <ele>885.8</ele>
        <time>2000-01-01T01:48:12.000Z</time>
      </trkpt>
      <trkpt lat="48.02632" lon="7.02656">
        <ele>898</ele>
        <time>2000-01-01T01:48:22.000Z</time>
      </trkpt>
      <trkpt lat="48.0264" lon="7.02666">
        <ele>885.3</ele>
        <time>2000-01-01T01:48:32.000Z</time>
      </trkpt>
      <trkpt lat="48.02646" lon="7.02671">
        <ele>886.3</ele>
        <time>2000-01-01T01:48:42.000Z</time>
      </trkpt>
      <trkpt lat="48.02657" lon="7.02671">
        <ele>895</ele>
        <time>2000-01-01T01:48:52.000Z</time>
      </trkpt>
      <trkpt lat="48.02663" lon="7.02668">
        <ele>889.3</ele>
        <time>2000-01-01T01:49:02.000Z</time>
      </trkpt>
      <trkpt lat="48.02675" lon="7.02672">
        <ele>903</ele>
        <time>2000-01-01T01:49:12.000Z</time>
      </trkpt>
      <trkpt lat="48.02684" lon="7.02682">
        <ele>892.1</ele>
        <time>2000-01-01T01:49:22.000Z</time>
      </trkpt>
      <trkpt lat="48.02688" lon="7.02684">
        <ele>892.4</ele>
        <time>2000-01-01T01:49:32.000Z</time>
      </trkpt>
      <trkpt lat="48.02696" lon="7.02684">
        <ele>910</ele>
        <time>2000-01-01T01:49:42.000Z</time>
      </trkpt>
      <trkpt lat="48.02712" lon="7.02679">
        <ele>897.3</ele>
        <time>2000-01-01T01:49:52.000Z</time>
      </trkpt>
      <trkpt lat="48.02716" lon="7.02679">
        <ele>912</ele>
        <time>2000-01-01T01:50:02.000Z</time>
      </trkpt>
      <trkpt lat="48.02724" lon="7.02682">
        <ele>898.9</ele>
        <time>2000-01-01T01:50:12.000Z</time>
      </trkpt>
      <trkpt lat="48.02733" lon="7.02682">
        <ele>900.2</ele>
        <time>2000-01-01T01:50:22.000Z</time>
      </trkpt>
      <trkpt lat="48.02741" lon="7.02683">
        <ele>919</ele>
        <time>2000-01-01T01:50:32.000Z</time>
      </trkpt>
      <trkpt lat="48.02755" lon="7.02688">
        <ele>901.5</ele>
        <time>2000-01-01T01:50:42.000Z</time>
      </trkpt>
      <trkpt lat="48.0276" lon="7.02689">
        <ele>919</ele>
        <time>2000-01-01T01:50:52.000Z</time>
      </trkpt>
      <trkpt lat="48.02783" lon="7.02677">
        <ele>923</ele>
        <time>2000-01-01T01:51:02.000Z</time>
      </trkpt>
      <trkpt lat="48.02793" lon="7.02673">
        <ele>908.1</ele>
        <time>2000-01-01T01:51:12.000Z</time>
      </trkpt>
      <trkpt lat="48.02798" lon="7.02669">
        <ele>908.3</ele>
        <time>2000-01-01T01:51:22.000Z</time>
      </trkpt>
      <trkpt lat="48.02807" lon="7.0266">
        <ele>931</ele>
        <time>2000-01-01T01:51:32.000Z</time>
      </trkpt>
      <trkpt lat="48.02814" lon="7.02656">
        <ele>911.3</ele>
        <time>2000-01-01T01:51:42.000Z</time>
      </trkpt>
      <trkpt lat="48.02819" lon="7.02649">
        <ele>912.7</ele>
        <time>2000-01-01T01:51:52.000Z</time>
      </trkpt>
      <trkpt lat="48.02816" lon="7.02646">
        <ele>913.4</ele>
        <time>2000-01-01T01:52:02.000Z</time>
      </trkpt>
      <trkpt lat="48.02804" lon="7.02644">
        <ele>931</ele>
        <time>2000-01-01T01:52:12.000Z</time>
      </trkpt>
      <trkpt lat="48.02802" lon="7.0264">
        <ele>915.7</ele>
        <time>2000-01-01T01:52:22.000Z</time>
      </trkpt>
      <trkpt lat="48.02815" lon="7.02626">
        <ele>934</ele>
        <time>2000-01-01T01:52:32.000Z</time>
      </trkpt>
      <trkpt lat="48.02822" lon="7.0262">
        <ele>919.7</ele>
        <time>2000-01-01T01:52:42.000Z</time>
      </trkpt>
      <trkpt lat="48.02831" lon="7.026">
        <ele>934</ele>
        <time>2000-01-01T01:52:52.000Z</time>
      </trkpt>
      <trkpt lat="48.02841" lon="7.02566">
        <ele>933</ele>
        <time>2000-01-01T01:53:02.000Z</time>
      </trkpt>
      <trkpt lat="48.02844" lon="7.02552">
        <ele>930.1</ele>
        <time>2000-01-01T01:53:12.000Z</time>
      </trkpt>
      <trkpt lat="48.02847" lon="7.02548">
        <ele>930.3</ele>
        <time>2000-01-01T01:53:22.000Z</time>
      </trkpt>
      <trkpt lat="48.02857" lon="7.02559">
        <ele>925</ele>
        <time>2000-01-01T01:53:32.000Z</time>
      </trkpt>
      <trkpt lat="48.02863" lon="7.02575">
        <ele>928.3</ele>
        <time>2000-01-01T01:53:42.000Z</time>
      </trkpt>
      <trkpt lat="48.02869" lon="7.02595">
        <ele>926</ele>
        <time>2000-01-01T01:53:52.000Z</time>
      </trkpt>
      <trkpt lat="48.02874" lon="7.02609">
        <ele>925</ele>
        <time>2000-01-01T01:54:02.000Z</time>
      </trkpt>
      <trkpt lat="48.02879" lon="7.02617">
        <ele>925.7</ele>
        <time>2000-01-01T01:54:12.000Z</time>
      </trkpt>
      <trkpt lat="48.029" lon="7.02659">
        <ele>925</ele>
        <time>2000-01-01T01:54:22.000Z</time>
      </trkpt>
      <trkpt lat="48.0291" lon="7.02674">
        <ele>927.7</ele>
        <time>2000-01-01T01:54:32.000Z</time>
      </trkpt>
      <trkpt lat="48.02921" lon="7.02689">
        <ele>923</ele>
        <time>2000-01-01T01:54:42.000Z</time>
      </trkpt>
      <trkpt lat="48.02931" lon="7.027">
        <ele>931.3</ele>
        <time>2000-01-01T01:54:52.000Z</time>
      </trkpt>
      <trkpt lat="48.02938" lon="7.02723">
        <ele>924</ele>
        <time>2000-01-01T01:55:02.000Z</time>
      </trkpt>
      <trkpt lat="48.02927" lon="7.02744">
        <ele>935.1</ele>
        <time>2000-01-01T01:55:12.000Z</time>
      </trkpt>
      <trkpt lat="48.02925" lon="7.02749">
        <ele>926</ele>
        <time>2000-01-01T01:55:22.000Z</time>
      </trkpt>
      <trkpt lat="48.02928" lon="7.02753">
        <ele>937.1</ele>
        <time>2000-01-01T01:55:32.000Z</time>
      </trkpt>
      <trkpt lat="48.02933" lon="7.02746">
        <ele>937</ele>
        <time>2000-01-01T01:55:42.000Z</time>
      </trkpt>
      <trkpt lat="48.02937" lon="7.02746">
        <ele>938.1</ele>
        <time>2000-01-01T01:55:52.000Z</time>
      </trkpt>
      <trkpt lat="48.02941" lon="7.02748">
        <ele>930</ele>
        <time>2000-01-01T01:56:02.000Z</time>
      </trkpt>
      <trkpt lat="48.02949" lon="7.02747">
        <ele>941.6</ele>
        <time>2000-01-01T01:56:12.000Z</time>
      </trkpt>
      <trkpt lat="48.02958" lon="7.0275">
        <ele>944.4</ele>
        <time>2000-01-01T01:56:22.000Z</time>
      </trkpt>
      <trkpt lat="48.02966" lon="7.0275">
        <ele>942</ele>
        <time>2000-01-01T01:56:32.000Z</time>
      </trkpt>
      <trkpt lat="48.02971" lon="7.02749">
        <ele>947.6</ele>
        <time>2000-01-01T01:56:42.000Z</time>
      </trkpt>
      <trkpt lat="48.02971" lon="7.02738">
        <ele>947.2</ele>
        <time>2000-01-01T01:56:52.000Z</time>
      </trkpt>
      <trkpt lat="48.02975" lon="7.02727">
        <ele>922</ele>
        <time>2000-01-01T01:57:02.000Z</time>
      </trkpt>
      <trkpt lat="48.02983" lon="7.02726">
        <ele>950.7</ele>
        <time>2000-01-01T01:57:12.000Z</time>
      </trkpt>
      <trkpt lat="48.02987" lon="7.02729">
        <ele>952.3</ele>
        <time>2000-01-01T01:57:22.000Z</time>
      </trkpt>
      <trkpt lat="48.02998" lon="7.02733">
        <ele>941</ele>
        <time>2000-01-01T01:57:32.000Z</time>
      </trkpt>
      <trkpt lat="48.03008" lon="7.02741">
        <ele>960.5</ele>
        <time>2000-01-01T01:57:42.000Z</time>
      </trkpt>
      <trkpt lat="48.03017" lon="7.02745">
        <ele>957</ele>
        <time>2000-01-01T01:57:52.000Z</time>
      </trkpt>
      <trkpt lat="48.03024" lon="7.02747">
        <ele>966.4</ele>
        <time>2000-01-01T01:58:02.000Z</time>
      </trkpt>
      <trkpt lat="48.03039" lon="7.02744">
        <ele>962</ele>
        <time>2000-01-01T01:58:12.000Z</time>
      </trkpt>
      <trkpt lat="48.0305" lon="7.02743">
        <ele>971.8</ele>
        <time>2000-01-01T01:58:22.000Z</time>
      </trkpt>
      <trkpt lat="48.03054" lon="7.02742">
        <ele>972.4</ele>
        <time>2000-01-01T01:58:32.000Z</time>
      </trkpt>
      <trkpt lat="48.03064" lon="7.02738">
        <ele>965</ele>
        <time>2000-01-01T01:58:42.000Z</time>
      </trkpt>
      <trkpt lat="48.03076" lon="7.02731">
        <ele>974.6</ele>
        <time>2000-01-01T01:58:52.000Z</time>
      </trkpt>
      <trkpt lat="48.03081" lon="7.0273">
        <ele>975.5</ele>
        <time>2000-01-01T01:59:02.000Z</time>
      </trkpt>
      <trkpt lat="48.03082" lon="7.02738">
        <ele>984</ele>
        <time>2000-01-01T01:59:12.000Z</time>
      </trkpt>
      <trkpt lat="48.03079" lon="7.02744">
        <ele>980.3</ele>
        <time>2000-01-01T01:59:22.000Z</time>
      </trkpt>
      <trkpt lat="48.03071" lon="7.02745">
        <ele>978.3</ele>
        <time>2000-01-01T01:59:32.000Z</time>
      </trkpt>
      <trkpt lat="48.03068" lon="7.02757">
        <ele>977</ele>
        <time>2000-01-01T01:59:42.000Z</time>
      </trkpt>
      <trkpt lat="48.03065" lon="7.0276">
        <ele>981.7</ele>
        <time>2000-01-01T01:59:52.000Z</time>
      </trkpt>
      <trkpt lat="48.03056" lon="7.02781">
        <ele>989</ele>
        <time>2000-01-01T02:00:02.000Z</time>
      </trkpt>
      <trkpt lat="48.03048" lon="7.02787">
        <ele>986.2</ele>
        <time>2000-01-01T02:00:12.000Z</time>
      </trkpt>
      <trkpt lat="48.03036" lon="7.0279">
        <ele>976</ele>
        <time>2000-01-01T02:00:22.000Z</time>
      </trkpt>
      <trkpt lat="48.03023" lon="7.02798">
        <ele>986.4</ele>
        <time>2000-01-01T02:00:32.000Z</time>
      </trkpt>
      <trkpt lat="48.03019" lon="7.02802">
        <ele>981</ele>
        <time>2000-01-01T02:00:42.000Z</time>
      </trkpt>
      <trkpt lat="48.03016" lon="7.02811">
        <ele>990.8</ele>
        <time>2000-01-01T02:00:52.000Z</time>
      </trkpt>
      <trkpt lat="48.03013" lon="7.02814">
        <ele>991.4</ele>
        <time>2000-01-01T02:01:02.000Z</time>
      </trkpt>
      <trkpt lat="48.03009" lon="7.02814">
        <ele>990.5</ele>
        <time>2000-01-01T02:01:12.000Z</time>
      </trkpt>
      <trkpt lat="48.03003" lon="7.02822">
        <ele>995</ele>
        <time>2000-01-01T02:01:22.000Z</time>
      </trkpt>
      <trkpt lat="48.0299" lon="7.02852">
        <ele>997</ele>
        <time>2000-01-01T02:01:32.000Z</time>
      </trkpt>
      <trkpt lat="48.02978" lon="7.02871">
        <ele>998.3</ele>
        <time>2000-01-01T02:01:42.000Z</time>
      </trkpt>
      <trkpt lat="48.02982" lon="7.02873">
        <ele>997</ele>
        <time>2000-01-01T02:01:52.000Z</time>
      </trkpt>
      <trkpt lat="48.02993" lon="7.02867">
        <ele>1003.8</ele>
        <time>2000-01-01T02:02:02.000Z</time>
      </trkpt>
      <trkpt lat="48.02998" lon="7.02863">
        <ele>1004.7</ele>
        <time>2000-01-01T02:02:12.000Z</time>
      </trkpt>
      <trkpt lat="48.03004" lon="7.02856">
        <ele>1011</ele>
        <time>2000-01-01T02:02:22.000Z</time>
      </trkpt>
      <trkpt lat="48.03022" lon="7.02851">
        <ele>1010</ele>
        <time>2000-01-01T02:02:32.000Z</time>
      </trkpt>
      <trkpt lat="48.03026" lon="7.02851">
        <ele>1011</ele>
        <time>2000-01-01T02:02:42.000Z</time>
      </trkpt>
      <trkpt lat="48.03024" lon="7.02856">
        <ele>1012.4</ele>
        <time>2000-01-01T02:02:52.000Z</time>
      </trkpt>
      <trkpt lat="48.03018" lon="7.02864">
        <ele>1013.2</ele>
        <time>2000-01-01T02:03:02.000Z</time>
      </trkpt>
      <trkpt lat="48.03019" lon="7.0287">
        <ele>1011</ele>
        <time>2000-01-01T02:03:12.000Z</time>
      </trkpt>
      <trkpt lat="48.03027" lon="7.02875">
        <ele>1020.7</ele>
        <time>2000-01-01T02:03:22.000Z</time>
      </trkpt>
      <trkpt lat="48.03035" lon="7.02871">
        <ele>1019.9</ele>
        <time>2000-01-01T02:03:32.000Z</time>
      </trkpt>
      <trkpt lat="48.03049" lon="7.02872">
        <ele>1010</ele>
        <time>2000-01-01T02:03:42.000Z</time>
      </trkpt>
      <trkpt lat="48.03058" lon="7.02876">
        <ele>1023.9</ele>
        <time>2000-01-01T02:03:52.000Z</time>
      </trkpt>
      <trkpt lat="48.03071" lon="7.02878">
        <ele>1029</ele>
        <time>2000-01-01T02:04:02.000Z</time>
      </trkpt>
      <trkpt lat="48.03076" lon="7.02878">
        <ele>1027.6</ele>
        <time>2000-01-01T02:04:12.000Z</time>
      </trkpt>
      <trkpt lat="48.03066" lon="7.02885">
        <ele>1029.3</ele>
        <time>2000-01-01T02:04:22.000Z</time>
      </trkpt>
      <trkpt lat="48.03062" lon="7.02886">
        <ele>1029</ele>
        <time>2000-01-01T02:04:32.000Z</time>
      </trkpt>
      <trkpt lat="48.03058" lon="7.02884">
        <ele>1027.8</ele>
        <time>2000-01-01T02:04:42.000Z</time>
      </trkpt>
      <trkpt lat="48.03049" lon="7.02889">
        <ele>1029.1</ele>
        <time>2000-01-01T02:04:52.000Z</time>
      </trkpt>
      <trkpt lat="48.03041" lon="7.02904">
        <ele>1026</ele>
        <time>2000-01-01T02:05:02.000Z</time>
      </trkpt>
      <trkpt lat="48.03028" lon="7.02923">
        <ele>1041</ele>
        <time>2000-01-01T02:05:12.000Z</time>
      </trkpt>
      <trkpt lat="48.03029" lon="7.02928">
        <ele>1040.8</ele>
        <time>2000-01-01T02:05:22.000Z</time>
      </trkpt>
      <trkpt lat="48.03036" lon="7.02927">
        <ele>1042.4</ele>
        <time>2000-01-01T02:05:32.000Z</time>
      </trkpt>
      <trkpt lat="48.03047" lon="7.02923">
        <ele>1041</ele>
        <time>2000-01-01T02:05:42.000Z</time>
      </trkpt>
      <trkpt lat="48.03067" lon="7.0292">
        <ele>1039</ele>
        <time>2000-01-01T02:05:52.000Z</time>
      </trkpt>
      <trkpt lat="48.03084" lon="7.02925">
        <ele>1048.8</ele>
        <time>2000-01-01T02:06:02.000Z</time>
      </trkpt>
      <trkpt lat="48.03088" lon="7.02924">
        <ele>1052</ele>
        <time>2000-01-01T02:06:12.000Z</time>
      </trkpt>
      <trkpt lat="48.03093" lon="7.02921">
        <ele>1050.1</ele>
        <time>2000-01-01T02:06:22.000Z</time>
      </trkpt>
      <trkpt lat="48.03097" lon="7.02927">
        <ele>1054.1</ele>
        <time>2000-01-01T02:06:32.000Z</time>
      </trkpt>
      <trkpt lat="48.03081" lon="7.02952">
        <ele>1060</ele>
        <time>2000-01-01T02:06:42.000Z</time>
      </trkpt>
      <trkpt lat="48.03074" lon="7.02957">
        <ele>1062.2</ele>
        <time>2000-01-01T02:06:52.000Z</time>
      </trkpt>
      <trkpt lat="48.03071" lon="7.02961">
        <ele>1063.8</ele>
        <time>2000-01-01T02:07:02.000Z</time>
      </trkpt>
      <trkpt lat="48.03053" lon="7.0297">
        <ele>1055</ele>
        <time>2000-01-01T02:07:12.000Z</time>
      </trkpt>
      <trkpt lat="48.03035" lon="7.02987">
        <ele>1051</ele>
        <time>2000-01-01T02:07:22.000Z</time>
      </trkpt>
      <trkpt lat="48.03022" lon="7.03004">
        <ele>1068.4</ele>
        <time>2000-01-01T02:07:32.000Z</time>
      </trkpt>
      <trkpt lat="48.0302" lon="7.03009">
        <ele>1048</ele>
        <time>2000-01-01T02:07:42.000Z</time>
      </trkpt>
      <trkpt lat="48.03021" lon="7.03015">
        <ele>1072</ele>
        <time>2000-01-01T02:07:52.000Z</time>
      </trkpt>
      <trkpt lat="48.0303" lon="7.03017">
        <ele>1075.8</ele>
        <time>2000-01-01T02:08:02.000Z</time>
      </trkpt>
      <trkpt lat="48.03034" lon="7.03014">
        <ele>1075.8</ele>
        <time>2000-01-01T02:08:12.000Z</time>
      </trkpt>
      <trkpt lat="48.03042" lon="7.03013">
        <ele>1054</ele>
        <time>2000-01-01T02:08:22.000Z</time>
      </trkpt>
      <trkpt lat="48.03053" lon="7.03008">
        <ele>1079.1</ele>
        <time>2000-01-01T02:08:32.000Z</time>
      </trkpt>
      <trkpt lat="48.03059" lon="7.03008">
        <ele>1080.5</ele>
        <time>2000-01-01T02:08:42.000Z</time>
      </trkpt>
      <trkpt lat="48.03072" lon="7.03004">
        <ele>1076</ele>
        <time>2000-01-01T02:08:52.000Z</time>
      </trkpt>
      <trkpt lat="48.03079" lon="7.03003">
        <ele>1082.4</ele>
        <time>2000-01-01T02:09:02.000Z</time>
      </trkpt>
      <trkpt lat="48.03076" lon="7.03007">
        <ele>1083.4</ele>
        <time>2000-01-01T02:09:12.000Z</time>
      </trkpt>
      <trkpt lat="48.03072" lon="7.03008">
        <ele>1083</ele>
        <time>2000-01-01T02:09:22.000Z</time>
      </trkpt>
      <trkpt lat="48.03063" lon="7.03023">
        <ele>1074</ele>
        <time>2000-01-01T02:09:32.000Z</time>
      </trkpt>
      <trkpt lat="48.03059" lon="7.03034">
        <ele>1090</ele>
        <time>2000-01-01T02:09:42.000Z</time>
      </trkpt>
      <trkpt lat="48.03054" lon="7.03044">
        <ele>1092.4</ele>
        <time>2000-01-01T02:09:52.000Z</time>
      </trkpt>
      <trkpt lat="48.0305" lon="7.03054">
        <ele>1076</ele>
        <time>2000-01-01T02:10:02.000Z</time>
      </trkpt>
      <trkpt lat="48.03045" lon="7.03062">
        <ele>1096.4</ele>
        <time>2000-01-01T02:10:12.000Z</time>
      </trkpt>
      <trkpt lat="48.03043" lon="7.03067">
        <ele>1097.5</ele>
        <time>2000-01-01T02:10:22.000Z</time>
      </trkpt>
      <trkpt lat="48.03049" lon="7.03068">
        <ele>1099.4</ele>
        <time>2000-01-01T02:10:32.000Z</time>
      </trkpt>
      <trkpt lat="48.03045" lon="7.03088">
        <ele>1084</ele>
        <time>2000-01-01T02:10:42.000Z</time>
      </trkpt>
      <trkpt lat="48.03041" lon="7.03103">
        <ele>1108.7</ele>
        <time>2000-01-01T02:10:52.000Z</time>
      </trkpt>
      <trkpt lat="48.03036" lon="7.03114">
        <ele>1090</ele>
        <time>2000-01-01T02:11:02.000Z</time>
      </trkpt>
      <trkpt lat="48.03029" lon="7.03124">
        <ele>1112.5</ele>
        <time>2000-01-01T02:11:12.000Z</time>
      </trkpt>
      <trkpt lat="48.03025" lon="7.03127">
        <ele>1112.5</ele>
        <time>2000-01-01T02:11:22.000Z</time>
      </trkpt>
      <trkpt lat="48.03015" lon="7.03139">
        <ele>1094</ele>
        <time>2000-01-01T02:11:32.000Z</time>
      </trkpt>
      <trkpt lat="48.03008" lon="7.03149">
        <ele>1116.3</ele>
        <time>2000-01-01T02:11:42.000Z</time>
      </trkpt>
      <trkpt lat="48.02999" lon="7.03157">
        <ele>1094</ele>
        <time>2000-01-01T02:11:52.000Z</time>
      </trkpt>
      <trkpt lat="48.02996" lon="7.03161">
        <ele>1118.1</ele>
        <time>2000-01-01T02:12:02.000Z</time>
      </trkpt>
      <trkpt lat="48.02988" lon="7.03168">
        <ele>1118.8</ele>
        <time>2000-01-01T02:12:12.000Z</time>
      </trkpt>
      <trkpt lat="48.02985" lon="7.03172">
        <ele>1119.5</ele>
        <time>2000-01-01T02:12:22.000Z</time>
      </trkpt>
      <trkpt lat="48.02979" lon="7.03182">
        <ele>1099</ele>
        <time>2000-01-01T02:12:32.000Z</time>
      </trkpt>
      <trkpt lat="48.0297" lon="7.03191">
        <ele>1123.4</ele>
        <time>2000-01-01T02:12:42.000Z</time>
      </trkpt>
      <trkpt lat="48.02953" lon="7.03205">
        <ele>1107</ele>
        <time>2000-01-01T02:12:52.000Z</time>
      </trkpt>
      <trkpt lat="48.02946" lon="7.03212">
        <ele>1126.9</ele>
        <time>2000-01-01T02:13:02.000Z</time>
      </trkpt>
      <trkpt lat="48.02939" lon="7.03228">
        <ele>1114</ele>
        <time>2000-01-01T02:13:12.000Z</time>
      </trkpt>
      <trkpt lat="48.0293" lon="7.03241">
        <ele>1130.9</ele>
        <time>2000-01-01T02:13:22.000Z</time>
      </trkpt>
      <trkpt lat="48.02928" lon="7.03248">
        <ele>1132</ele>
        <time>2000-01-01T02:13:32.000Z</time>
      </trkpt>
      <trkpt lat="48.02921" lon="7.03259">
        <ele>1121</ele>
        <time>2000-01-01T02:13:42.000Z</time>
      </trkpt>
      <trkpt lat="48.0291" lon="7.03272">
        <ele>1132.3</ele>
        <time>2000-01-01T02:13:52.000Z</time>
      </trkpt>
      <trkpt lat="48.02908" lon="7.03277">
        <ele>1132.7</ele>
        <time>2000-01-01T02:14:02.000Z</time>
      </trkpt>
      <trkpt lat="48.02915" lon="7.03292">
        <ele>1126</ele>
        <time>2000-01-01T02:14:12.000Z</time>
      </trkpt>
      <trkpt lat="48.02925" lon="7.03303">
        <ele>1137.4</ele>
        <time>2000-01-01T02:14:22.000Z</time>
      </trkpt>
      <trkpt lat="48.0293" lon="7.03307">
        <ele>1129</ele>
        <time>2000-01-01T02:14:32.000Z</time>
      </trkpt>
      <trkpt lat="48.02936" lon="7.03318">
        <ele>1139.9</ele>
        <time>2000-01-01T02:14:42.000Z</time>
      </trkpt>
      <trkpt lat="48.02941" lon="7.03322">
        <ele>1141</ele>
        <time>2000-01-01T02:14:52.000Z</time>
      </trkpt>
      <trkpt lat="48.02946" lon="7.03323">
        <ele>1134</ele>
        <time>2000-01-01T02:15:02.000Z</time>
      </trkpt>
      <trkpt lat="48.02946" lon="7.03346">
        <ele>1141.8</ele>
        <time>2000-01-01T02:15:12.000Z</time>
      </trkpt>
      <trkpt lat="48.02964" lon="7.0337">
        <ele>1136</ele>
        <time>2000-01-01T02:15:22.000Z</time>
      </trkpt>
      <trkpt lat="48.02975" lon="7.03419">
        <ele>1137</ele>
        <time>2000-01-01T02:15:32.000Z</time>
      </trkpt>
      <trkpt lat="48.02998" lon="7.03471">
        <ele>1138</ele>
        <time>2000-01-01T02:15:42.000Z</time>
      </trkpt>
      <trkpt lat="48.03023" lon="7.03507">
        <ele>1141</ele>
        <time>2000-01-01T02:15:52.000Z</time>
      </trkpt>
      <trkpt lat="48.03049" lon="7.03542">
        <ele>1139</ele>
        <time>2000-01-01T02:16:02.000Z</time>
      </trkpt>
      <trkpt lat="48.03067" lon="7.03568">
        <ele>1141</ele>
        <time>2000-01-01T02:16:12.000Z</time>
      </trkpt>
      <trkpt lat="48.03091" lon="7.03602">
        <ele>1140</ele>
        <time>2000-01-01T02:16:22.000Z</time>
      </trkpt>
      <trkpt lat="48.0311" lon="7.03628">
        <ele>1146</ele>
        <time>2000-01-01T02:16:32.000Z</time>
      </trkpt>
      <trkpt lat="48.03131" lon="7.03654">
        <ele>1144</ele>
        <time>2000-01-01T02:16:42.000Z</time>
      </trkpt>
      <trkpt lat="48.03164" lon="7.03696">
        <ele>1140</ele>
        <time>2000-01-01T02:16:52.000Z</time>
      </trkpt>
      <trkpt lat="48.0318" lon="7.03724">
        <ele>1136</ele>
        <time>2000-01-01T02:17:02.000Z</time>
      </trkpt>
      <trkpt lat="48.03198" lon="7.03756">
        <ele>1139</ele>
        <time>2000-01-01T02:17:12.000Z</time>
      </trkpt>
      <trkpt lat="48.03208" lon="7.0379">
        <ele>1136</ele>
        <time>2000-01-01T02:17:22.000Z</time>
      </trkpt>
      <trkpt lat="48.03221" lon="7.03829">
        <ele>1137</ele>
        <time>2000-01-01T02:17:32.000Z</time>
      </trkpt>
      <trkpt lat="48.03243" lon="7.03877">
        <ele>1147</ele>
        <time>2000-01-01T02:17:42.000Z</time>
      </trkpt>
      <trkpt lat="48.03261" lon="7.03898">
        <ele>1143</ele>
        <time>2000-01-01T02:17:52.000Z</time>
      </trkpt>
      <trkpt lat="48.03281" lon="7.0392">
        <ele>1145</ele>
        <time>2000-01-01T02:18:02.000Z</time>
      </trkpt>
      <trkpt lat="48.03302" lon="7.03934">
        <ele>1147</ele>
        <time>2000-01-01T02:18:12.000Z</time>
      </trkpt>
      <trkpt lat="48.03324" lon="7.0395">
        <ele>1146</ele>
        <time>2000-01-01T02:18:22.000Z</time>
      </trkpt>
      <trkpt lat="48.0335" lon="7.03966">
        <ele>1135</ele>
        <time>2000-01-01T02:18:32.000Z</time>
      </trkpt>
      <trkpt lat="48.03371" lon="7.03979">
        <ele>1138</ele>
        <time>2000-01-01T02:18:42.000Z</time>
      </trkpt>
      <trkpt lat="48.03393" lon="7.03992">
        <ele>1129</ele>
        <time>2000-01-01T02:18:52.000Z</time>
      </trkpt>
      <trkpt lat="48.03429" lon="7.0401">
        <ele>1138</ele>
        <time>2000-01-01T02:19:02.000Z</time>
      </trkpt>
      <trkpt lat="48.03459" lon="7.04023">
        <ele>1131</ele>
        <time>2000-01-01T02:19:12.000Z</time>
      </trkpt>
      <trkpt lat="48.03464" lon="7.03975">
        <ele>1150</ele>
        <time>2000-01-01T02:19:22.000Z</time>
      </trkpt>
      <trkpt lat="48.0348" lon="7.03917">
        <ele>1170</ele>
        <time>2000-01-01T02:19:32.000Z</time>
      </trkpt>
      <trkpt lat="48.03486" lon="7.03855">
        <ele>1193</ele>
        <time>2000-01-01T02:19:42.000Z</time>
      </trkpt>
      <trkpt lat="48.03486" lon="7.03819">
        <ele>1206</ele>
        <time>2000-01-01T02:19:52.000Z</time>
      </trkpt>
      <trkpt lat="48.03486" lon="7.03778">
        <ele>1212</ele>
        <time>2000-01-01T02:20:02.000Z</time>
      </trkpt>
      <trkpt lat="48.03492" lon="7.03745">
        <ele>1219</ele>
        <time>2000-01-01T02:20:12.000Z</time>
      </trkpt>
      <trkpt lat="48.03499" lon="7.03709">
        <ele>1234</ele>
        <time>2000-01-01T02:20:22.000Z</time>
      </trkpt>
      <trkpt lat="48.03515" lon="7.03649">
        <ele>1250</ele>
        <time>2000-01-01T02:20:32.000Z</time>
      </trkpt>
      <trkpt lat="48.0352" lon="7.03619">
        <ele>1257</ele>
        <time>2000-01-01T02:20:42.000Z</time>
      </trkpt>
      <trkpt lat="48.03522" lon="7.03591">
        <ele>1264</ele>
        <time>2000-01-01T02:20:52.000Z</time>
      </trkpt>
      <trkpt lat="48.03526" lon="7.03565">
        <ele>1268.2</ele>
        <time>2000-01-01T02:21:02.000Z</time>
      </trkpt>
      <trkpt lat="48.03533" lon="7.03529">
        <ele>1271</ele>
        <time>2000-01-01T02:21:12.000Z</time>
      </trkpt>
      <trkpt lat="48.03543" lon="7.03487">
        <ele>1274</ele>
        <time>2000-01-01T02:21:22.000Z</time>
      </trkpt>
      <trkpt lat="48.03549" lon="7.03442">
        <ele>1279</ele>
        <time>2000-01-01T02:21:32.000Z</time>
      </trkpt>
      <trkpt lat="48.03554" lon="7.03398">
        <ele>1289</ele>
        <time>2000-01-01T02:21:42.000Z</time>
      </trkpt>
      <trkpt lat="48.0356" lon="7.03354">
        <ele>1288</ele>
        <time>2000-01-01T02:21:52.000Z</time>
      </trkpt>
      <trkpt lat="48.03556" lon="7.03317">
        <ele>1291</ele>
        <time>2000-01-01T02:22:02.000Z</time>
      </trkpt>
      <trkpt lat="48.0355" lon="7.03271">
        <ele>1289</ele>
        <time>2000-01-01T02:22:12.000Z</time>
      </trkpt>
      <trkpt lat="48.03547" lon="7.03233">
        <ele>1300</ele>
        <time>2000-01-01T02:22:22.000Z</time>
      </trkpt>
      <trkpt lat="48.03542" lon="7.03181">
        <ele>1293</ele>
        <time>2000-01-01T02:22:32.000Z</time>
      </trkpt>
      <trkpt lat="48.0354" lon="7.03145">
        <ele>1297</ele>
        <time>2000-01-01T02:22:42.000Z</time>
      </trkpt>
      <trkpt lat="48.03537" lon="7.03103">
        <ele>1296</ele>
        <time>2000-01-01T02:22:52.000Z</time>
      </trkpt>
      <trkpt lat="48.03535" lon="7.03064">
        <ele>1292</ele>
        <time>2000-01-01T02:23:02.000Z</time>
      </trkpt>
      <trkpt lat="48.03538" lon="7.03038">
        <ele>1282.8</ele>
        <time>2000-01-01T02:23:12.000Z</time>
      </trkpt>
      <trkpt lat="48.0354" lon="7.02998">
        <ele>1286</ele>
        <time>2000-01-01T02:23:22.000Z</time>
      </trkpt>
      <trkpt lat="48.03549" lon="7.02957">
        <ele>1278</ele>
        <time>2000-01-01T02:23:32.000Z</time>
      </trkpt>
      <trkpt lat="48.0355" lon="7.02917">
        <ele>1274</ele>
        <time>2000-01-01T02:23:42.000Z</time>
      </trkpt>
      <trkpt lat="48.03549" lon="7.02887">
        <ele>1268</ele>
        <time>2000-01-01T02:23:52.000Z</time>
      </trkpt>
      <trkpt lat="48.03563" lon="7.02861">
        <ele>1273</ele>
        <time>2000-01-01T02:24:02.000Z</time>
      </trkpt>
      <trkpt lat="48.03573" lon="7.02834">
        <ele>1264</ele>
        <time>2000-01-01T02:24:12.000Z</time>
      </trkpt>
      <trkpt lat="48.03596" lon="7.02811">
        <ele>1256</ele>
        <time>2000-01-01T02:24:22.000Z</time>
      </trkpt>
      <trkpt lat="48.03612" lon="7.02771">
        <ele>1244</ele>
        <time>2000-01-01T02:24:32.000Z</time>
      </trkpt>
      <trkpt lat="48.03625" lon="7.02724">
        <ele>1237</ele>
        <time>2000-01-01T02:24:42.000Z</time>
      </trkpt>
      <trkpt lat="48.0363" lon="7.02697">
        <ele>1234</ele>
        <time>2000-01-01T02:24:52.000Z</time>
      </trkpt>
      <trkpt lat="48.03634" lon="7.02655">
        <ele>1226</ele>
        <time>2000-01-01T02:25:02.000Z</time>
      </trkpt>
      <trkpt lat="48.03635" lon="7.02629">
        <ele>1227.5</ele>
        <time>2000-01-01T02:25:12.000Z</time>
      </trkpt>
      <trkpt lat="48.03634" lon="7.02581">
        <ele>1226</ele>
        <time>2000-01-01T02:25:22.000Z</time>
      </trkpt>
      <trkpt lat="48.03645" lon="7.02552">
        <ele>1229</ele>
        <time>2000-01-01T02:25:32.000Z</time>
      </trkpt>
      <trkpt lat="48.03652" lon="7.02531">
        <ele>1237.5</ele>
        <time>2000-01-01T02:25:42.000Z</time>
      </trkpt>
      <trkpt lat="48.0365" lon="7.02524">
        <ele>1233</ele>
        <time>2000-01-01T02:25:52.000Z</time>
      </trkpt>
      <trkpt lat="48.03635" lon="7.02492">
        <ele>1244</ele>
        <time>2000-01-01T02:26:02.000Z</time>
      </trkpt>
      <trkpt lat="48.03627" lon="7.02466">
        <ele>1241</ele>
        <time>2000-01-01T02:26:12.000Z</time>
      </trkpt>
      <trkpt lat="48.03622" lon="7.02457">
        <ele>1254</ele>
        <time>2000-01-01T02:26:22.000Z</time>
      </trkpt>
      <trkpt lat="48.03615" lon="7.02452">
        <ele>1255</ele>
        <time>2000-01-01T02:26:32.000Z</time>
      </trkpt>
      <trkpt lat="48.03606" lon="7.02438">
        <ele>1256</ele>
        <time>2000-01-01T02:26:42.000Z</time>
      </trkpt>
      <trkpt lat="48.03604" lon="7.02433">
        <ele>1257.4</ele>
        <time>2000-01-01T02:26:52.000Z</time>
      </trkpt>
      <trkpt lat="48.036" lon="7.02418">
        <ele>1259</ele>
        <time>2000-01-01T02:27:02.000Z</time>
      </trkpt>
      <trkpt lat="48.036" lon="7.02386">
        <ele>1240</ele>
        <time>2000-01-01T02:27:12.000Z</time>
      </trkpt>
      <trkpt lat="48.03599" lon="7.02379">
        <ele>1260.2</ele>
        <time>2000-01-01T02:27:22.000Z</time>
      </trkpt>
      <trkpt lat="48.03604" lon="7.02364">
        <ele>1264</ele>
        <time>2000-01-01T02:27:32.000Z</time>
      </trkpt>
      <trkpt lat="48.03608" lon="7.02341">
        <ele>1260</ele>
        <time>2000-01-01T02:27:42.000Z</time>
      </trkpt>
      <trkpt lat="48.03611" lon="7.02338">
        <ele>1269.8</ele>
        <time>2000-01-01T02:27:52.000Z</time>
      </trkpt>
      <trkpt lat="48.03619" lon="7.02334">
        <ele>1271.4</ele>
        <time>2000-01-01T02:28:02.000Z</time>
      </trkpt>
      <trkpt lat="48.03625" lon="7.02327">
        <ele>1260</ele>
        <time>2000-01-01T02:28:12.000Z</time>
      </trkpt>
      <trkpt lat="48.03632" lon="7.0231">
        <ele>1273.6</ele>
        <time>2000-01-01T02:28:22.000Z</time>
      </trkpt>
      <trkpt lat="48.03643" lon="7.02256">
        <ele>1278</ele>
        <time>2000-01-01T02:28:32.000Z</time>
      </trkpt>
      <trkpt lat="48.03647" lon="7.02218">
        <ele>1277</ele>
        <time>2000-01-01T02:28:42.000Z</time>
      </trkpt>
      <trkpt lat="48.03656" lon="7.02182">
        <ele>1275</ele>
        <time>2000-01-01T02:28:52.000Z</time>
      </trkpt>
      <trkpt lat="48.03659" lon="7.02164">
        <ele>1291.9</ele>
        <time>2000-01-01T02:29:02.000Z</time>
      </trkpt>
      <trkpt lat="48.03663" lon="7.02152">
        <ele>1288</ele>
        <time>2000-01-01T02:29:12.000Z</time>
      </trkpt>
      <trkpt lat="48.03663" lon="7.02128">
        <ele>1294.1</ele>
        <time>2000-01-01T02:29:22.000Z</time>
      </trkpt>
      <trkpt lat="48.03664" lon="7.02107">
        <ele>1293</ele>
        <time>2000-01-01T02:29:32.000Z</time>
      </trkpt>
      <trkpt lat="48.03664" lon="7.02088">
        <ele>1294.9</ele>
        <time>2000-01-01T02:29:42.000Z</time>
      </trkpt>
      <trkpt lat="48.03666" lon="7.02049">
        <ele>1304</ele>
        <time>2000-01-01T02:29:52.000Z</time>
      </trkpt>
      <trkpt lat="48.03665" lon="7.0204">
        <ele>1296.8</ele>
        <time>2000-01-01T02:30:02.000Z</time>
      </trkpt>
      <trkpt lat="48.03665" lon="7.02027">
        <ele>1298.2</ele>
        <time>2000-01-01T02:30:12.000Z</time>
      </trkpt>
      <trkpt lat="48.03662" lon="7.02006">
        <ele>1307</ele>
        <time>2000-01-01T02:30:22.000Z</time>
      </trkpt>
      <trkpt lat="48.03659" lon="7.01996">
        <ele>1299.9</ele>
        <time>2000-01-01T02:30:32.000Z</time>
      </trkpt>
      <trkpt lat="48.03657" lon="7.01951">
        <ele>1310</ele>
        <time>2000-01-01T02:30:42.000Z</time>
      </trkpt>
      <trkpt lat="48.03654" lon="7.01934">
        <ele>1312.3</ele>
        <time>2000-01-01T02:30:52.000Z</time>
      </trkpt>
      <trkpt lat="48.03651" lon="7.01927">
        <ele>1313.7</ele>
        <time>2000-01-01T02:31:02.000Z</time>
      </trkpt>
      <trkpt lat="48.03645" lon="7.01918">
        <ele>1313</ele>
        <time>2000-01-01T02:31:12.000Z</time>
      </trkpt>
      <trkpt lat="48.03629" lon="7.01904">
        <ele>1298</ele>
        <time>2000-01-01T02:31:22.000Z</time>
      </trkpt>
      <trkpt lat="48.03622" lon="7.01895">
        <ele>1318.5</ele>
        <time>2000-01-01T02:31:32.000Z</time>
      </trkpt>
      <trkpt lat="48.03617" lon="7.01886">
        <ele>1320.1</ele>
        <time>2000-01-01T02:31:42.000Z</time>
      </trkpt>
      <trkpt lat="48.03615" lon="7.01867">
        <ele>1300</ele>
        <time>2000-01-01T02:31:52.000Z</time>
      </trkpt>
      <trkpt lat="48.03625" lon="7.01854">
        <ele>1324</ele>
        <time>2000-01-01T02:32:02.000Z</time>
      </trkpt>
      <trkpt lat="48.03632" lon="7.01846">
        <ele>1307</ele>
        <time>2000-01-01T02:32:12.000Z</time>
      </trkpt>
      <trkpt lat="48.03646" lon="7.01822">
        <ele>1307</ele>
        <time>2000-01-01T02:32:22.000Z</time>
      </trkpt>
      <trkpt lat="48.03654" lon="7.01812">
        <ele>1329.8</ele>
        <time>2000-01-01T02:32:32.000Z</time>
      </trkpt>
      <trkpt lat="48.03666" lon="7.01792">
        <ele>1309</ele>
        <time>2000-01-01T02:32:42.000Z</time>
      </trkpt>
      <trkpt lat="48.03677" lon="7.01771">
        <ele>1337</ele>
        <time>2000-01-01T02:32:52.000Z</time>
      </trkpt>
      <trkpt lat="48.03684" lon="7.01751">
        <ele>1308</ele>
        <time>2000-01-01T02:33:02.000Z</time>
      </trkpt>
      <trkpt lat="48.03691" lon="7.01735">
        <ele>1341.4</ele>
        <time>2000-01-01T02:33:12.000Z</time>
      </trkpt>
      <trkpt lat="48.03697" lon="7.01731">
        <ele>1329</ele>
        <time>2000-01-01T02:33:22.000Z</time>
      </trkpt>
      <trkpt lat="48.03702" lon="7.0173">
        <ele>1344.9</ele>
        <time>2000-01-01T02:33:32.000Z</time>
      </trkpt>
      <trkpt lat="48.0371" lon="7.0172">
        <ele>1347.6</ele>
        <time>2000-01-01T02:33:42.000Z</time>
      </trkpt>
      <trkpt lat="48.03713" lon="7.0171">
        <ele>1353</ele>
        <time>2000-01-01T02:33:52.000Z</time>
      </trkpt>
      <trkpt lat="48.03719" lon="7.01696">
        <ele>1352.5</ele>
        <time>2000-01-01T02:34:02.000Z</time>
      </trkpt>
      <trkpt lat="48.03724" lon="7.01682">
        <ele>1351</ele>
        <time>2000-01-01T02:34:12.000Z</time>
      </trkpt>
      <trkpt lat="48.03725" lon="7.01673">
        <ele>1356.7</ele>
        <time>2000-01-01T02:34:22.000Z</time>
      </trkpt>
      <trkpt lat="48.03724" lon="7.0166">
        <ele>1357.5</ele>
        <time>2000-01-01T02:34:32.000Z</time>
      </trkpt>
      <trkpt lat="48.03724" lon="7.01647">
        <ele>1352</ele>
        <time>2000-01-01T02:34:42.000Z</time>
      </trkpt>
      <trkpt lat="48.03725" lon="7.01632">
        <ele>1358</ele>
        <time>2000-01-01T02:34:52.000Z</time>
      </trkpt>
      <trkpt lat="48.03723" lon="7.01597">
        <ele>1353</ele>
        <time>2000-01-01T02:35:02.000Z</time>
      </trkpt>
      <trkpt lat="48.03721" lon="7.01576">
        <ele>1354.8</ele>
        <time>2000-01-01T02:35:12.000Z</time>
      </trkpt>
      <trkpt lat="48.03726" lon="7.0157">
        <ele>1351</ele>
        <time>2000-01-01T02:35:22.000Z</time>
      </trkpt>
      <trkpt lat="48.03731" lon="7.01547">
        <ele>1356.4</ele>
        <time>2000-01-01T02:35:32.000Z</time>
      </trkpt>
      <trkpt lat="48.03734" lon="7.01543">
        <ele>1350</ele>
        <time>2000-01-01T02:35:42.000Z</time>
      </trkpt>
      <trkpt lat="48.03724" lon="7.01522">
        <ele>1354</ele>
        <time>2000-01-01T02:35:52.000Z</time>
      </trkpt>
      <trkpt lat="48.03719" lon="7.01498">
        <ele>1345</ele>
        <time>2000-01-01T02:36:02.000Z</time>
      </trkpt>
      <trkpt lat="48.03712" lon="7.01477">
        <ele>1347</ele>
        <time>2000-01-01T02:36:12.000Z</time>
      </trkpt>
      <trkpt lat="48.03709" lon="7.01472">
        <ele>1334</ele>
        <time>2000-01-01T02:36:22.000Z</time>
      </trkpt>
      <trkpt lat="48.03702" lon="7.01456">
        <ele>1344</ele>
        <time>2000-01-01T02:36:32.000Z</time>
      </trkpt>
      <trkpt lat="48.037" lon="7.0144">
        <ele>1334</ele>
        <time>2000-01-01T02:36:42.000Z</time>
      </trkpt>
      <trkpt lat="48.03694" lon="7.01421">
        <ele>1340.1</ele>
        <time>2000-01-01T02:36:52.000Z</time>
      </trkpt>
      <trkpt lat="48.03693" lon="7.01415">
        <ele>1334</ele>
        <time>2000-01-01T02:37:02.000Z</time>
      </trkpt>
      <trkpt lat="48.03687" lon="7.01392">
        <ele>1334.7</ele>
        <time>2000-01-01T02:37:12.000Z</time>
      </trkpt>
      <trkpt lat="48.03685" lon="7.01378">
        <ele>1317</ele>
        <time>2000-01-01T02:37:22.000Z</time>
      </trkpt>
      <trkpt lat="48.03681" lon="7.01366">
        <ele>1330.8</ele>
        <time>2000-01-01T02:37:32.000Z</time>
      </trkpt>
      <trkpt lat="48.03674" lon="7.01351">
        <ele>1317</ele>
        <time>2000-01-01T02:37:42.000Z</time>
      </trkpt>
      <trkpt lat="48.03671" lon="7.01338">
        <ele>1326.9</ele>
        <time>2000-01-01T02:37:52.000Z</time>
      </trkpt>
      <trkpt lat="48.0367" lon="7.01331">
        <ele>1326.1</ele>
        <time>2000-01-01T02:38:02.000Z</time>
      </trkpt>
      <trkpt lat="48.03664" lon="7.01309">
        <ele>1314</ele>
        <time>2000-01-01T02:38:12.000Z</time>
      </trkpt>
      <trkpt lat="48.03658" lon="7.01298">
        <ele>1318.9</ele>
        <time>2000-01-01T02:38:22.000Z</time>
      </trkpt>
      <trkpt lat="48.03644" lon="7.01279">
        <ele>1304</ele>
        <time>2000-01-01T02:38:32.000Z</time>
      </trkpt>
      <trkpt lat="48.03624" lon="7.01256">
        <ele>1292</ele>
        <time>2000-01-01T02:38:42.000Z</time>
      </trkpt>
      <trkpt lat="48.03599" lon="7.01232">
        <ele>1286</ele>
        <time>2000-01-01T02:38:52.000Z</time>
      </trkpt>
      <trkpt lat="48.03582" lon="7.01213">
        <ele>1286</ele>
        <time>2000-01-01T02:39:02.000Z</time>
      </trkpt>
      <trkpt lat="48.03555" lon="7.01189">
        <ele>1282</ele>
        <time>2000-01-01T02:39:12.000Z</time>
      </trkpt>
      <trkpt lat="48.03546" lon="7.0118">
        <ele>1288.7</ele>
        <time>2000-01-01T02:39:22.000Z</time>
      </trkpt>
      <trkpt lat="48.0354" lon="7.01168">
        <ele>1282</ele>
        <time>2000-01-01T02:39:32.000Z</time>
      </trkpt>
      <trkpt lat="48.03529" lon="7.01151">
        <ele>1282.7</ele>
        <time>2000-01-01T02:39:42.000Z</time>
      </trkpt>
      <trkpt lat="48.03523" lon="7.0114">
        <ele>1276</ele>
        <time>2000-01-01T02:39:52.000Z</time>
      </trkpt>
      <trkpt lat="48.03518" lon="7.01129">
        <ele>1280.4</ele>
        <time>2000-01-01T02:40:02.000Z</time>
      </trkpt>
      <trkpt lat="48.03512" lon="7.01123">
        <ele>1279.5</ele>
        <time>2000-01-01T02:40:12.000Z</time>
      </trkpt>
      <trkpt lat="48.035" lon="7.01109">
        <ele>1272</ele>
        <time>2000-01-01T02:40:22.000Z</time>
      </trkpt>
      <trkpt lat="48.03487" lon="7.011">
        <ele>1277.4</ele>
        <time>2000-01-01T02:40:32.000Z</time>
      </trkpt>
      <trkpt lat="48.03473" lon="7.01092">
        <ele>1277</ele>
        <time>2000-01-01T02:40:42.000Z</time>
      </trkpt>
      <trkpt lat="48.03455" lon="7.01083">
        <ele>1275</ele>
        <time>2000-01-01T02:40:52.000Z</time>
      </trkpt>
      <trkpt lat="48.03439" lon="7.01077">
        <ele>1278.5</ele>
        <time>2000-01-01T02:41:02.000Z</time>
      </trkpt>
      <trkpt lat="48.0343" lon="7.01068">
        <ele>1281</ele>
        <time>2000-01-01T02:41:12.000Z</time>
      </trkpt>
      <trkpt lat="48.0342" lon="7.01062">
        <ele>1281.9</ele>
        <time>2000-01-01T02:41:22.000Z</time>
      </trkpt>
      <trkpt lat="48.03412" lon="7.01055">
        <ele>1281</ele>
        <time>2000-01-01T02:41:32.000Z</time>
      </trkpt>
      <trkpt lat="48.03394" lon="7.01043">
        <ele>1284</ele>
        <time>2000-01-01T02:41:42.000Z</time>
      </trkpt>
      <trkpt lat="48.03377" lon="7.01037">
        <ele>1290.7</ele>
        <time>2000-01-01T02:41:52.000Z</time>
      </trkpt>
      <trkpt lat="48.03354" lon="7.01038">
        <ele>1285</ele>
        <time>2000-01-01T02:42:02.000Z</time>
      </trkpt>
      <trkpt lat="48.03346" lon="7.01032">
        <ele>1295.9</ele>
        <time>2000-01-01T02:42:12.000Z</time>
      </trkpt>
      <trkpt lat="48.03334" lon="7.01034">
        <ele>1286</ele>
        <time>2000-01-01T02:42:22.000Z</time>
      </trkpt>
      <trkpt lat="48.03327" lon="7.01038">
        <ele>1297.2</ele>
        <time>2000-01-01T02:42:32.000Z</time>
      </trkpt>
      <trkpt lat="48.03319" lon="7.01045">
        <ele>1297.5</ele>
        <time>2000-01-01T02:42:42.000Z</time>
      </trkpt>
      <trkpt lat="48.03294" lon="7.01073">
        <ele>1287</ele>
        <time>2000-01-01T02:42:52.000Z</time>
      </trkpt>
      <trkpt lat="48.03284" lon="7.01087">
        <ele>1297.1</ele>
        <time>2000-01-01T02:43:02.000Z</time>
      </trkpt>
      <trkpt lat="48.03271" lon="7.01114">
        <ele>1285</ele>
        <time>2000-01-01T02:43:12.000Z</time>
      </trkpt>
      <trkpt lat="48.03263" lon="7.01132">
        <ele>1296.9</ele>
        <time>2000-01-01T02:43:22.000Z</time>
      </trkpt>
      <trkpt lat="48.0326" lon="7.01159">
        <ele>1283</ele>
        <time>2000-01-01T02:43:32.000Z</time>
      </trkpt>
      <trkpt lat="48.03255" lon="7.01175">
        <ele>1296</ele>
        <time>2000-01-01T02:43:42.000Z</time>
      </trkpt>
      <trkpt lat="48.03247" lon="7.01194">
        <ele>1281</ele>
        <time>2000-01-01T02:43:52.000Z</time>
      </trkpt>
      <trkpt lat="48.03235" lon="7.01215">
        <ele>1294</ele>
        <time>2000-01-01T02:44:02.000Z</time>
      </trkpt>
      <trkpt lat="48.03229" lon="7.01227">
        <ele>1301.4</ele>
        <time>2000-01-01T02:44:12.000Z</time>
      </trkpt>
      <trkpt lat="48.03225" lon="7.01232">
        <ele>1302.4</ele>
        <time>2000-01-01T02:44:22.000Z</time>
      </trkpt>
      <trkpt lat="48.03222" lon="7.01237">
        <ele>1294</ele>
        <time>2000-01-01T02:44:32.000Z</time>
      </trkpt>
      <trkpt lat="48.03213" lon="7.01242">
        <ele>1303.3</ele>
        <time>2000-01-01T02:44:42.000Z</time>
      </trkpt>
      <trkpt lat="48.03201" lon="7.01238">
        <ele>1300</ele>
        <time>2000-01-01T02:44:52.000Z</time>
      </trkpt>
      <trkpt lat="48.03193" lon="7.0124">
        <ele>1305.2</ele>
        <time>2000-01-01T02:45:02.000Z</time>
      </trkpt>
      <trkpt lat="48.0318" lon="7.01248">
        <ele>1302</ele>
        <time>2000-01-01T02:45:12.000Z</time>
      </trkpt>
      <trkpt lat="48.03173" lon="7.01254">
        <ele>1304.9</ele>
        <time>2000-01-01T02:45:22.000Z</time>
      </trkpt>
      <trkpt lat="48.03159" lon="7.01271">
        <ele>1299</ele>
        <time>2000-01-01T02:45:32.000Z</time>
      </trkpt>
      <trkpt lat="48.03148" lon="7.01286">
        <ele>1304.9</ele>
        <time>2000-01-01T02:45:42.000Z</time>
      </trkpt>
      <trkpt lat="48.03137" lon="7.01296">
        <ele>1299</ele>
        <time>2000-01-01T02:45:52.000Z</time>
      </trkpt>
      <trkpt lat="48.03124" lon="7.013">
        <ele>1302.8</ele>
        <time>2000-01-01T02:46:02.000Z</time>
      </trkpt>
      <trkpt lat="48.03109" lon="7.01299">
        <ele>1299</ele>
        <time>2000-01-01T02:46:12.000Z</time>
      </trkpt>
      <trkpt lat="48.03101" lon="7.0129">
        <ele>1299.9</ele>
        <time>2000-01-01T02:46:22.000Z</time>
      </trkpt>
      <trkpt lat="48.03092" lon="7.01274">
        <ele>1293</ele>
        <time>2000-01-01T02:46:32.000Z</time>
      </trkpt>
      <trkpt lat="48.03083" lon="7.01256">
        <ele>1300.4</ele>
        <time>2000-01-01T02:46:42.000Z</time>
      </trkpt>
      <trkpt lat="48.0307" lon="7.01222">
        <ele>1295</ele>
        <time>2000-01-01T02:46:52.000Z</time>
      </trkpt>
      <trkpt lat="48.03059" lon="7.01206">
        <ele>1300</ele>
        <time>2000-01-01T02:47:02.000Z</time>
      </trkpt>
      <trkpt lat="48.03048" lon="7.01186">
        <ele>1290</ele>
        <time>2000-01-01T02:47:12.000Z</time>
      </trkpt>
      <trkpt lat="48.03038" lon="7.01172">
        <ele>1299.2</ele>
        <time>2000-01-01T02:47:22.000Z</time>
      </trkpt>
      <trkpt lat="48.03017" lon="7.01146">
        <ele>1288</ele>
        <time>2000-01-01T02:47:32.000Z</time>
      </trkpt>
      <trkpt lat="48.03013" lon="7.01142">
        <ele>1298.8</ele>
        <time>2000-01-01T02:47:42.000Z</time>
      </trkpt>
      <trkpt lat="48.02996" lon="7.01132">
        <ele>1288</ele>
        <time>2000-01-01T02:47:52.000Z</time>
      </trkpt>
      <trkpt lat="48.02974" lon="7.01122">
        <ele>1292</ele>
        <time>2000-01-01T02:48:02.000Z</time>
      </trkpt>
      <trkpt lat="48.02952" lon="7.01112">
        <ele>1281</ele>
        <time>2000-01-01T02:48:12.000Z</time>
      </trkpt>
      <trkpt lat="48.02937" lon="7.01106">
        <ele>1292.1</ele>
        <time>2000-01-01T02:48:22.000Z</time>
      </trkpt>
      <trkpt lat="48.02924" lon="7.01102">
        <ele>1274</ele>
        <time>2000-01-01T02:48:32.000Z</time>
      </trkpt>
      <trkpt lat="48.02906" lon="7.01089">
        <ele>1270</ele>
        <time>2000-01-01T02:48:42.000Z</time>
      </trkpt>
      <trkpt lat="48.02902" lon="7.01087">
        <ele>1285.3</ele>
        <time>2000-01-01T02:48:52.000Z</time>
      </trkpt>
      <trkpt lat="48.02893" lon="7.01076">
        <ele>1282.7</ele>
        <time>2000-01-01T02:49:02.000Z</time>
      </trkpt>
      <trkpt lat="48.02892" lon="7.0107">
        <ele>1274</ele>
        <time>2000-01-01T02:49:12.000Z</time>
      </trkpt>
      <trkpt lat="48.02899" lon="7.01049">
        <ele>1285.1</ele>
        <time>2000-01-01T02:49:22.000Z</time>
      </trkpt>
      <trkpt lat="48.02901" lon="7.01037">
        <ele>1277</ele>
        <time>2000-01-01T02:49:32.000Z</time>
      </trkpt>
      <trkpt lat="48.02902" lon="7.01026">
        <ele>1285.7</ele>
        <time>2000-01-01T02:49:42.000Z</time>
      </trkpt>
      <trkpt lat="48.02904" lon="7.0102">
        <ele>1286.4</ele>
        <time>2000-01-01T02:49:52.000Z</time>
      </trkpt>
      <trkpt lat="48.02895" lon="7.0097">
        <ele>1275</ele>
        <time>2000-01-01T02:50:02.000Z</time>
      </trkpt>
      <trkpt lat="48.0289" lon="7.0095">
        <ele>1281.1</ele>
        <time>2000-01-01T02:50:12.000Z</time>
      </trkpt>
      <trkpt lat="48.02884" lon="7.00937">
        <ele>1279</ele>
        <time>2000-01-01T02:50:22.000Z</time>
      </trkpt>
      <trkpt lat="48.0288" lon="7.00922">
        <ele>1279.6</ele>
        <time>2000-01-01T02:50:32.000Z</time>
      </trkpt>
      <trkpt lat="48.02873" lon="7.00904">
        <ele>1272</ele>
        <time>2000-01-01T02:50:42.000Z</time>
      </trkpt>
      <trkpt lat="48.0287" lon="7.00899">
        <ele>1279.9</ele>
        <time>2000-01-01T02:50:52.000Z</time>
      </trkpt>
      <trkpt lat="48.02854" lon="7.00891">
        <ele>1272</ele>
        <time>2000-01-01T02:51:02.000Z</time>
      </trkpt>
      <trkpt lat="48.02846" lon="7.00889">
        <ele>1281.1</ele>
        <time>2000-01-01T02:51:12.000Z</time>
      </trkpt>
      <trkpt lat="48.0284" lon="7.00885">
        <ele>1281.9</ele>
        <time>2000-01-01T02:51:22.000Z</time>
      </trkpt>
      <trkpt lat="48.02828" lon="7.00886">
        <ele>1273</ele>
        <time>2000-01-01T02:51:32.000Z</time>
      </trkpt>
      <trkpt lat="48.02809" lon="7.00886">
        <ele>1270</ele>
        <time>2000-01-01T02:51:42.000Z</time>
      </trkpt>
      <trkpt lat="48.02792" lon="7.00889">
        <ele>1285.4</ele>
        <time>2000-01-01T02:51:52.000Z</time>
      </trkpt>
      <trkpt lat="48.02776" lon="7.0089">
        <ele>1268</ele>
        <time>2000-01-01T02:52:02.000Z</time>
      </trkpt>
      <trkpt lat="48.02769" lon="7.00889">
        <ele>1287</ele>
        <time>2000-01-01T02:52:12.000Z</time>
      </trkpt>
      <trkpt lat="48.02748" lon="7.00877">
        <ele>1279</ele>
        <time>2000-01-01T02:52:22.000Z</time>
      </trkpt>
      <trkpt lat="48.02726" lon="7.00867">
        <ele>1277</ele>
        <time>2000-01-01T02:52:32.000Z</time>
      </trkpt>
      <trkpt lat="48.02714" lon="7.00866">
        <ele>1289.3</ele>
        <time>2000-01-01T02:52:42.000Z</time>
      </trkpt>
      <trkpt lat="48.02691" lon="7.00859">
        <ele>1274</ele>
        <time>2000-01-01T02:52:52.000Z</time>
      </trkpt>
      <trkpt lat="48.02679" lon="7.00862">
        <ele>1290.7</ele>
        <time>2000-01-01T02:53:02.000Z</time>
      </trkpt>
      <trkpt lat="48.02667" lon="7.00861">
        <ele>1270</ele>
        <time>2000-01-01T02:53:12.000Z</time>
      </trkpt>
      <trkpt lat="48.02623" lon="7.00864">
        <ele>1274</ele>
        <time>2000-01-01T02:53:22.000Z</time>
      </trkpt>
      <trkpt lat="48.02584" lon="7.00869">
        <ele>1280</ele>
        <time>2000-01-01T02:53:32.000Z</time>
      </trkpt>
      <trkpt lat="48.02571" lon="7.00866">
        <ele>1283.1</ele>
        <time>2000-01-01T02:53:42.000Z</time>
      </trkpt>
      <trkpt lat="48.02546" lon="7.00843">
        <ele>1294</ele>
        <time>2000-01-01T02:53:52.000Z</time>
      </trkpt>
      <trkpt lat="48.02537" lon="7.00833">
        <ele>1285.7</ele>
        <time>2000-01-01T02:54:02.000Z</time>
      </trkpt>
      <trkpt lat="48.02515" lon="7.00813">
        <ele>1298</ele>
        <time>2000-01-01T02:54:12.000Z</time>
      </trkpt>
      <trkpt lat="48.02501" lon="7.00797">
        <ele>1288</ele>
        <time>2000-01-01T02:54:22.000Z</time>
      </trkpt>
      <trkpt lat="48.02488" lon="7.0078">
        <ele>1285</ele>
        <time>2000-01-01T02:54:32.000Z</time>
      </trkpt>
      <trkpt lat="48.02454" lon="7.00743">
        <ele>1279</ele>
        <time>2000-01-01T02:54:42.000Z</time>
      </trkpt>
      <trkpt lat="48.02442" lon="7.00732">
        <ele>1288.5</ele>
        <time>2000-01-01T02:54:52.000Z</time>
      </trkpt>
      <trkpt lat="48.0242" lon="7.00718">
        <ele>1284</ele>
        <time>2000-01-01T02:55:02.000Z</time>
      </trkpt>
      <trkpt lat="48.02396" lon="7.00705">
        <ele>1290</ele>
        <time>2000-01-01T02:55:12.000Z</time>
      </trkpt>
      <trkpt lat="48.02373" lon="7.0069">
        <ele>1290</ele>
        <time>2000-01-01T02:55:22.000Z</time>
      </trkpt>
      <trkpt lat="48.02355" lon="7.00676">
        <ele>1290</ele>
        <time>2000-01-01T02:55:32.000Z</time>
      </trkpt>
      <trkpt lat="48.02347" lon="7.00675">
        <ele>1285.3</ele>
        <time>2000-01-01T02:55:42.000Z</time>
      </trkpt>
      <trkpt lat="48.02342" lon="7.00677">
        <ele>1284.6</ele>
        <time>2000-01-01T02:55:52.000Z</time>
      </trkpt>
      <trkpt lat="48.02318" lon="7.00682">
        <ele>1286</ele>
        <time>2000-01-01T02:56:02.000Z</time>
      </trkpt>
      <trkpt lat="48.023" lon="7.00684">
        <ele>1279</ele>
        <time>2000-01-01T02:56:12.000Z</time>
      </trkpt>
      <trkpt lat="48.02274" lon="7.00691">
        <ele>1281</ele>
        <time>2000-01-01T02:56:22.000Z</time>
      </trkpt>
      <trkpt lat="48.02264" lon="7.00691">
        <ele>1292.9</ele>
        <time>2000-01-01T02:56:32.000Z</time>
      </trkpt>
      <trkpt lat="48.02255" lon="7.0069">
        <ele>1280</ele>
        <time>2000-01-01T02:56:42.000Z</time>
      </trkpt>
      <trkpt lat="48.02244" lon="7.00691">
        <ele>1296.1</ele>
        <time>2000-01-01T02:56:52.000Z</time>
      </trkpt>
      <trkpt lat="48.0223" lon="7.00683">
        <ele>1287</ele>
        <time>2000-01-01T02:57:02.000Z</time>
      </trkpt>
      <trkpt lat="48.0222" lon="7.00681">
        <ele>1302.8</ele>
        <time>2000-01-01T02:57:12.000Z</time>
      </trkpt>
      <trkpt lat="48.02207" lon="7.00682">
        <ele>1291</ele>
        <time>2000-01-01T02:57:22.000Z</time>
      </trkpt>
      <trkpt lat="48.02193" lon="7.00685">
        <ele>1306.9</ele>
        <time>2000-01-01T02:57:32.000Z</time>
      </trkpt>
      <trkpt lat="48.02181" lon="7.0069">
        <ele>1295</ele>
        <time>2000-01-01T02:57:42.000Z</time>
      </trkpt>
      <trkpt lat="48.02168" lon="7.00697">
        <ele>1309.2</ele>
        <time>2000-01-01T02:57:52.000Z</time>
      </trkpt>
      <trkpt lat="48.02162" lon="7.00701">
        <ele>1293</ele>
        <time>2000-01-01T02:58:02.000Z</time>
      </trkpt>
      <trkpt lat="48.02153" lon="7.00709">
        <ele>1310.1</ele>
        <time>2000-01-01T02:58:12.000Z</time>
      </trkpt>
      <trkpt lat="48.02141" lon="7.00718">
        <ele>1298</ele>
        <time>2000-01-01T02:58:22.000Z</time>
      </trkpt>
      <trkpt lat="48.02134" lon="7.00726">
        <ele>1312.2</ele>
        <time>2000-01-01T02:58:32.000Z</time>
      </trkpt>
      <trkpt lat="48.0212" lon="7.0074">
        <ele>1302</ele>
        <time>2000-01-01T02:58:42.000Z</time>
      </trkpt>
      <trkpt lat="48.02108" lon="7.00754">
        <ele>1313.8</ele>
        <time>2000-01-01T02:58:52.000Z</time>
      </trkpt>
      <trkpt lat="48.02084" lon="7.00776">
        <ele>1296</ele>
        <time>2000-01-01T02:59:02.000Z</time>
      </trkpt>
      <trkpt lat="48.02072" lon="7.00789">
        <ele>1313.8</ele>
        <time>2000-01-01T02:59:12.000Z</time>
      </trkpt>
      <trkpt lat="48.02043" lon="7.0081">
        <ele>1296</ele>
        <time>2000-01-01T02:59:22.000Z</time>
      </trkpt>
      <trkpt lat="48.02018" lon="7.00833">
        <ele>1293</ele>
        <time>2000-01-01T02:59:32.000Z</time>
      </trkpt>
      <trkpt lat="48.02008" lon="7.00845">
        <ele>1310.7</ele>
        <time>2000-01-01T02:59:42.000Z</time>
      </trkpt>
      <trkpt lat="48.0199" lon="7.00863">
        <ele>1289</ele>
        <time>2000-01-01T02:59:52.000Z</time>
      </trkpt>
      <trkpt lat="48.01984" lon="7.0087">
        <ele>1307.1</ele>
        <time>2000-01-01T03:00:02.000Z</time>
      </trkpt>
      <trkpt lat="48.01976" lon="7.00874">
        <ele>1306.3</ele>
        <time>2000-01-01T03:00:12.000Z</time>
      </trkpt>
      <trkpt lat="48.0196" lon="7.00879">
        <ele>1284</ele>
        <time>2000-01-01T03:00:22.000Z</time>
      </trkpt>
      <trkpt lat="48.01954" lon="7.00882">
        <ele>1303.5</ele>
        <time>2000-01-01T03:00:32.000Z</time>
      </trkpt>
      <trkpt lat="48.01938" lon="7.00887">
        <ele>1280</ele>
        <time>2000-01-01T03:00:42.000Z</time>
      </trkpt>
      <trkpt lat="48.01926" lon="7.00893">
        <ele>1298.3</ele>
        <time>2000-01-01T03:00:52.000Z</time>
      </trkpt>
      <trkpt lat="48.0192" lon="7.00895">
        <ele>1280</ele>
        <time>2000-01-01T03:01:02.000Z</time>
      </trkpt>
      <trkpt lat="48.01913" lon="7.00899">
        <ele>1295.6</ele>
        <time>2000-01-01T03:01:12.000Z</time>
      </trkpt>
      <trkpt lat="48.01887" lon="7.0091">
        <ele>1288</ele>
        <time>2000-01-01T03:01:22.000Z</time>
      </trkpt>
      <trkpt lat="48.01877" lon="7.0091">
        <ele>1287.5</ele>
        <time>2000-01-01T03:01:32.000Z</time>
      </trkpt>
      <trkpt lat="48.01867" lon="7.00908">
        <ele>1284</ele>
        <time>2000-01-01T03:01:42.000Z</time>
      </trkpt>
      <trkpt lat="48.01853" lon="7.00902">
        <ele>1281.4</ele>
        <time>2000-01-01T03:01:52.000Z</time>
      </trkpt>
      <trkpt lat="48.01848" lon="7.00901">
        <ele>1270</ele>
        <time>2000-01-01T03:02:02.000Z</time>
      </trkpt>
      <trkpt lat="48.01843" lon="7.00893">
        <ele>1278.4</ele>
        <time>2000-01-01T03:02:12.000Z</time>
      </trkpt>
      <trkpt lat="48.0184" lon="7.00875">
        <ele>1277</ele>
        <time>2000-01-01T03:02:22.000Z</time>
      </trkpt>
      <trkpt lat="48.01839" lon="7.00857">
        <ele>1278</ele>
        <time>2000-01-01T03:02:32.000Z</time>
      </trkpt>
      <trkpt lat="48.01841" lon="7.00838">
        <ele>1274</ele>
        <time>2000-01-01T03:02:42.000Z</time>
      </trkpt>
      <trkpt lat="48.01842" lon="7.00817">
        <ele>1280.9</ele>
        <time>2000-01-01T03:02:52.000Z</time>
      </trkpt>
      <trkpt lat="48.0184" lon="7.00803">
        <ele>1275</ele>
        <time>2000-01-01T03:03:02.000Z</time>
      </trkpt>
      <trkpt lat="48.01839" lon="7.00783">
        <ele>1282.2</ele>
        <time>2000-01-01T03:03:12.000Z</time>
      </trkpt>
      <trkpt lat="48.01829" lon="7.00724">
        <ele>1278</ele>
        <time>2000-01-01T03:03:22.000Z</time>
      </trkpt>
      <trkpt lat="48.01827" lon="7.00709">
        <ele>1275.9</ele>
        <time>2000-01-01T03:03:32.000Z</time>
      </trkpt>
      <trkpt lat="48.01823" lon="7.00691">
        <ele>1278</ele>
        <time>2000-01-01T03:03:42.000Z</time>
      </trkpt>
      <trkpt lat="48.0182" lon="7.00673">
        <ele>1269.4</ele>
        <time>2000-01-01T03:03:52.000Z</time>
      </trkpt>
      <trkpt lat="48.01819" lon="7.0066">
        <ele>1255</ele>
        <time>2000-01-01T03:04:02.000Z</time>
      </trkpt>
      <trkpt lat="48.01818" lon="7.00637">
        <ele>1264.2</ele>
        <time>2000-01-01T03:04:12.000Z</time>
      </trkpt>
      <trkpt lat="48.01818" lon="7.00619">
        <ele>1247</ele>
        <time>2000-01-01T03:04:22.000Z</time>
      </trkpt>
      <trkpt lat="48.01819" lon="7.00604">
        <ele>1260.4</ele>
        <time>2000-01-01T03:04:32.000Z</time>
      </trkpt>
      <trkpt lat="48.01818" lon="7.00585">
        <ele>1242</ele>
        <time>2000-01-01T03:04:42.000Z</time>
      </trkpt>
      <trkpt lat="48.01818" lon="7.00551">
        <ele>1240</ele>
        <time>2000-01-01T03:04:52.000Z</time>
      </trkpt>
      <trkpt lat="48.01815" lon="7.00523">
        <ele>1245</ele>
        <time>2000-01-01T03:05:02.000Z</time>
      </trkpt>
      <trkpt lat="48.01813" lon="7.00515">
        <ele>1246.8</ele>
        <time>2000-01-01T03:05:12.000Z</time>
      </trkpt>
      <trkpt lat="48.01809" lon="7.00483">
        <ele>1239</ele>
        <time>2000-01-01T03:05:22.000Z</time>
      </trkpt>
      <trkpt lat="48.01807" lon="7.00472">
        <ele>1241.6</ele>
        <time>2000-01-01T03:05:32.000Z</time>
      </trkpt>
      <trkpt lat="48.01806" lon="7.00456">
        <ele>1241</ele>
        <time>2000-01-01T03:05:42.000Z</time>
      </trkpt>
      <trkpt lat="48.01807" lon="7.0045">
        <ele>1240.9</ele>
        <time>2000-01-01T03:05:52.000Z</time>
      </trkpt>
      <trkpt lat="48.01811" lon="7.00447">
        <ele>1242.6</ele>
        <time>2000-01-01T03:06:02.000Z</time>
      </trkpt>
      <trkpt lat="48.01815" lon="7.00448">
        <ele>1244.5</ele>
        <time>2000-01-01T03:06:12.000Z</time>
      </trkpt>
      <trkpt lat="48.01815" lon="7.0043">
        <ele>1240</ele>
        <time>2000-01-01T03:06:22.000Z</time>
      </trkpt>
      <trkpt lat="48.01809" lon="7.00411">
        <ele>1240.9</ele>
        <time>2000-01-01T03:06:32.000Z</time>
      </trkpt>
      <trkpt lat="48.01804" lon="7.0039">
        <ele>1222</ele>
        <time>2000-01-01T03:06:42.000Z</time>
      </trkpt>
      <trkpt lat="48.01799" lon="7.00376">
        <ele>1236.8</ele>
        <time>2000-01-01T03:06:52.000Z</time>
      </trkpt>
      <trkpt lat="48.01793" lon="7.00356">
        <ele>1221</ele>
        <time>2000-01-01T03:07:02.000Z</time>
      </trkpt>
      <trkpt lat="48.01787" lon="7.00332">
        <ele>1231.1</ele>
        <time>2000-01-01T03:07:12.000Z</time>
      </trkpt>
      <trkpt lat="48.01784" lon="7.00322">
        <ele>1227</ele>
        <time>2000-01-01T03:07:22.000Z</time>
      </trkpt>
      <trkpt lat="48.01777" lon="7.00305">
        <ele>1227.6</ele>
        <time>2000-01-01T03:07:32.000Z</time>
      </trkpt>
      <trkpt lat="48.01768" lon="7.00278">
        <ele>1224</ele>
        <time>2000-01-01T03:07:42.000Z</time>
      </trkpt>
      <trkpt lat="48.01754" lon="7.00228">
        <ele>1229</ele>
        <time>2000-01-01T03:07:52.000Z</time>
      </trkpt>
      <trkpt lat="48.01751" lon="7.00223">
        <ele>1221.4</ele>
        <time>2000-01-01T03:08:02.000Z</time>
      </trkpt>
      <trkpt lat="48.01748" lon="7.00213">
        <ele>1221</ele>
        <time>2000-01-01T03:08:12.000Z</time>
      </trkpt>
      <trkpt lat="48.01743" lon="7.002">
        <ele>1236</ele>
        <time>2000-01-01T03:08:22.000Z</time>
      </trkpt>
      <trkpt lat="48.0173" lon="7.00181">
        <ele>1231</ele>
        <time>2000-01-01T03:08:32.000Z</time>
      </trkpt>
      <trkpt lat="48.01721" lon="7.00171">
        <ele>1213.9</ele>
        <time>2000-01-01T03:08:42.000Z</time>
      </trkpt>
      <trkpt lat="48.0171" lon="7.00148">
        <ele>1219</ele>
        <time>2000-01-01T03:08:52.000Z</time>
      </trkpt>
      <trkpt lat="48.017" lon="7.00115">
        <ele>1220</ele>
        <time>2000-01-01T03:09:02.000Z</time>
      </trkpt>
      <trkpt lat="48.01689" lon="7.00077">
        <ele>1211</ele>
        <time>2000-01-01T03:09:12.000Z</time>
      </trkpt>
      <trkpt lat="48.01687" lon="7.00072">
        <ele>1213.5</ele>
        <time>2000-01-01T03:09:22.000Z</time>
      </trkpt>
      <trkpt lat="48.01673" lon="7.00044">
        <ele>1210</ele>
        <time>2000-01-01T03:09:32.000Z</time>
      </trkpt>
      <trkpt lat="48.01661" lon="7.00017">
        <ele>1211</ele>
        <time>2000-01-01T03:09:42.000Z</time>
      </trkpt>
      <trkpt lat="48.01655" lon="7.00005">
        <ele>1209.7</ele>
        <time>2000-01-01T03:09:52.000Z</time>
      </trkpt>
      <trkpt lat="48.01649" lon="6.9999">
        <ele>1207</ele>
        <time>2000-01-01T03:10:02.000Z</time>
      </trkpt>
      <trkpt lat="48.01642" lon="6.99977">
        <ele>1207.7</ele>
        <time>2000-01-01T03:10:12.000Z</time>
      </trkpt>
      <trkpt lat="48.01635" lon="6.99957">
        <ele>1202</ele>
        <time>2000-01-01T03:10:22.000Z</time>
      </trkpt>
      <trkpt lat="48.01626" lon="6.99939">
        <ele>1204.9</ele>
        <time>2000-01-01T03:10:32.000Z</time>
      </trkpt>
      <trkpt lat="48.01616" lon="6.99928">
        <ele>1184</ele>
        <time>2000-01-01T03:10:42.000Z</time>
      </trkpt>
      <trkpt lat="48.01606" lon="6.99915">
        <ele>1198.5</ele>
        <time>2000-01-01T03:10:52.000Z</time>
      </trkpt>
      <trkpt lat="48.0159" lon="6.99906">
        <ele>1175</ele>
        <time>2000-01-01T03:11:02.000Z</time>
      </trkpt>
      <trkpt lat="48.0157" lon="6.99899">
        <ele>1168</ele>
        <time>2000-01-01T03:11:12.000Z</time>
      </trkpt>
      <trkpt lat="48.01562" lon="6.99887">
        <ele>1184.7</ele>
        <time>2000-01-01T03:11:22.000Z</time>
      </trkpt>
      <trkpt lat="48.0156" lon="6.99877">
        <ele>1167</ele>
        <time>2000-01-01T03:11:32.000Z</time>
      </trkpt>
      <trkpt lat="48.01553" lon="6.99872">
        <ele>1180.4</ele>
        <time>2000-01-01T03:11:42.000Z</time>
      </trkpt>
      <trkpt lat="48.01541" lon="6.99874">
        <ele>1162</ele>
        <time>2000-01-01T03:11:52.000Z</time>
      </trkpt>
      <trkpt lat="48.01535" lon="6.99861">
        <ele>1174.1</ele>
        <time>2000-01-01T03:12:02.000Z</time>
      </trkpt>
      <trkpt lat="48.01535" lon="6.99842">
        <ele>1159</ele>
        <time>2000-01-01T03:12:12.000Z</time>
      </trkpt>
      <trkpt lat="48.0154" lon="6.99826">
        <ele>1167</ele>
        <time>2000-01-01T03:12:22.000Z</time>
      </trkpt>
      <trkpt lat="48.01551" lon="6.99801">
        <ele>1155</ele>
        <time>2000-01-01T03:12:32.000Z</time>
      </trkpt>
      <trkpt lat="48.01554" lon="6.99791">
        <ele>1160.1</ele>
        <time>2000-01-01T03:12:42.000Z</time>
      </trkpt>
      <trkpt lat="48.01559" lon="6.99772">
        <ele>1152</ele>
        <time>2000-01-01T03:12:52.000Z</time>
      </trkpt>
      <trkpt lat="48.01564" lon="6.99742">
        <ele>1141</ele>
        <time>2000-01-01T03:13:02.000Z</time>
      </trkpt>
      <trkpt lat="48.01571" lon="6.99719">
        <ele>1147.3</ele>
        <time>2000-01-01T03:13:12.000Z</time>
      </trkpt>
      <trkpt lat="48.01583" lon="6.9969">
        <ele>1123</ele>
        <time>2000-01-01T03:13:22.000Z</time>
      </trkpt>
      <trkpt lat="48.01593" lon="6.99662">
        <ele>1123</ele>
        <time>2000-01-01T03:13:32.000Z</time>
      </trkpt>
      <trkpt lat="48.01598" lon="6.99651">
        <ele>1139.2</ele>
        <time>2000-01-01T03:13:42.000Z</time>
      </trkpt>
      <trkpt lat="48.01603" lon="6.99647">
        <ele>1140.2</ele>
        <time>2000-01-01T03:13:52.000Z</time>
      </trkpt>
      <trkpt lat="48.01606" lon="6.9964">
        <ele>1118</ele>
        <time>2000-01-01T03:14:02.000Z</time>
      </trkpt>
      <trkpt lat="48.01616" lon="6.99627">
        <ele>1138.7</ele>
        <time>2000-01-01T03:14:12.000Z</time>
      </trkpt>
      <trkpt lat="48.01618" lon="6.99621">
        <ele>1137.2</ele>
        <time>2000-01-01T03:14:22.000Z</time>
      </trkpt>
      <trkpt lat="48.01629" lon="6.99604">
        <ele>1112</ele>
        <time>2000-01-01T03:14:32.000Z</time>
      </trkpt>
      <trkpt lat="48.01642" lon="6.99586">
        <ele>1133.5</ele>
        <time>2000-01-01T03:14:42.000Z</time>
      </trkpt>
      <trkpt lat="48.01647" lon="6.99578">
        <ele>1110</ele>
        <time>2000-01-01T03:14:52.000Z</time>
      </trkpt>
      <trkpt lat="48.0165" lon="6.99575">
        <ele>1132.5</ele>
        <time>2000-01-01T03:15:02.000Z</time>
      </trkpt>
      <trkpt lat="48.01645" lon="6.99573">
        <ele>1129.5</ele>
        <time>2000-01-01T03:15:12.000Z</time>
      </trkpt>
      <trkpt lat="48.01633" lon="6.99578">
        <ele>1110</ele>
        <time>2000-01-01T03:15:22.000Z</time>
      </trkpt>
      <trkpt lat="48.01623" lon="6.99585">
        <ele>1124.8</ele>
        <time>2000-01-01T03:15:32.000Z</time>
      </trkpt>
      <trkpt lat="48.01619" lon="6.99589">
        <ele>1124.7</ele>
        <time>2000-01-01T03:15:42.000Z</time>
      </trkpt>
      <trkpt lat="48.01613" lon="6.99591">
        <ele>1106</ele>
        <time>2000-01-01T03:15:52.000Z</time>
      </trkpt>
      <trkpt lat="48.01606" lon="6.996">
        <ele>1123.4</ele>
        <time>2000-01-01T03:16:02.000Z</time>
      </trkpt>
      <trkpt lat="48.01601" lon="6.99604">
        <ele>1122.7</ele>
        <time>2000-01-01T03:16:12.000Z</time>
      </trkpt>
      <trkpt lat="48.01589" lon="6.9961">
        <ele>1115</ele>
        <time>2000-01-01T03:16:22.000Z</time>
      </trkpt>
      <trkpt lat="48.01585" lon="6.99613">
        <ele>1118.5</ele>
        <time>2000-01-01T03:16:32.000Z</time>
      </trkpt>
      <trkpt lat="48.0158" lon="6.99614">
        <ele>1116.9</ele>
        <time>2000-01-01T03:16:42.000Z</time>
      </trkpt>
      <trkpt lat="48.01577" lon="6.99617">
        <ele>1116.9</ele>
        <time>2000-01-01T03:16:52.000Z</time>
      </trkpt>
      <trkpt lat="48.01572" lon="6.99619">
        <ele>1115</ele>
        <time>2000-01-01T03:17:02.000Z</time>
      </trkpt>
      <trkpt lat="48.01568" lon="6.99623">
        <ele>1115.4</ele>
        <time>2000-01-01T03:17:12.000Z</time>
      </trkpt>
      <trkpt lat="48.01564" lon="6.99624">
        <ele>1114.1</ele>
        <time>2000-01-01T03:17:22.000Z</time>
      </trkpt>
      <trkpt lat="48.01558" lon="6.99628">
        <ele>1112.7</ele>
        <time>2000-01-01T03:17:32.000Z</time>
      </trkpt>
      <trkpt lat="48.0156" lon="6.99617">
        <ele>1109</ele>
        <time>2000-01-01T03:17:42.000Z</time>
      </trkpt>
      <trkpt lat="48.01565" lon="6.99606">
        <ele>1109.8</ele>
        <time>2000-01-01T03:17:52.000Z</time>
      </trkpt>
      <trkpt lat="48.01572" lon="6.99593">
        <ele>1107</ele>
        <time>2000-01-01T03:18:02.000Z</time>
      </trkpt>
      <trkpt lat="48.01574" lon="6.99586">
        <ele>1107.4</ele>
        <time>2000-01-01T03:18:12.000Z</time>
      </trkpt>
      <trkpt lat="48.01582" lon="6.9957">
        <ele>1103</ele>
        <time>2000-01-01T03:18:22.000Z</time>
      </trkpt>
      <trkpt lat="48.01591" lon="6.99558">
        <ele>1106</ele>
        <time>2000-01-01T03:18:32.000Z</time>
      </trkpt>
      <trkpt lat="48.01604" lon="6.99521">
        <ele>1105</ele>
        <time>2000-01-01T03:18:42.000Z</time>
      </trkpt>
      <trkpt lat="48.01613" lon="6.99502">
        <ele>1099.8</ele>
        <time>2000-01-01T03:18:52.000Z</time>
      </trkpt>
      <trkpt lat="48.01632" lon="6.99474">
        <ele>1091</ele>
        <time>2000-01-01T03:19:02.000Z</time>
      </trkpt>
      <trkpt lat="48.01649" lon="6.99453">
        <ele>1093</ele>
        <time>2000-01-01T03:19:12.000Z</time>
      </trkpt>
      <trkpt lat="48.01658" lon="6.99446">
        <ele>1093.6</ele>
        <time>2000-01-01T03:19:22.000Z</time>
      </trkpt>
      <trkpt lat="48.01662" lon="6.99444">
        <ele>1093.9</ele>
        <time>2000-01-01T03:19:32.000Z</time>
      </trkpt>
      <trkpt lat="48.01666" lon="6.9943">
        <ele>1092</ele>
        <time>2000-01-01T03:19:42.000Z</time>
      </trkpt>
      <trkpt lat="48.0166" lon="6.99425">
        <ele>1087.8</ele>
        <time>2000-01-01T03:19:52.000Z</time>
      </trkpt>
      <trkpt lat="48.01655" lon="6.99426">
        <ele>1086.9</ele>
        <time>2000-01-01T03:20:02.000Z</time>
      </trkpt>
      <trkpt lat="48.0164" lon="6.99442">
        <ele>1093</ele>
        <time>2000-01-01T03:20:12.000Z</time>
      </trkpt>
      <trkpt lat="48.01634" lon="6.99436">
        <ele>1084.8</ele>
        <time>2000-01-01T03:20:22.000Z</time>
      </trkpt>
      <trkpt lat="48.01629" lon="6.99438">
        <ele>1084</ele>
        <time>2000-01-01T03:20:32.000Z</time>
      </trkpt>
      <trkpt lat="48.01618" lon="6.99437">
        <ele>1078</ele>
        <time>2000-01-01T03:20:42.000Z</time>
      </trkpt>
      <trkpt lat="48.01613" lon="6.99438">
        <ele>1079.2</ele>
        <time>2000-01-01T03:20:52.000Z</time>
      </trkpt>
      <trkpt lat="48.01606" lon="6.99441">
        <ele>1078.4</ele>
        <time>2000-01-01T03:21:02.000Z</time>
      </trkpt>
      <trkpt lat="48.01589" lon="6.99443">
        <ele>1077</ele>
        <time>2000-01-01T03:21:12.000Z</time>
      </trkpt>
      <trkpt lat="48.01558" lon="6.9946">
        <ele>1056</ele>
        <time>2000-01-01T03:21:22.000Z</time>
      </trkpt>
      <trkpt lat="48.01541" lon="6.99465">
        <ele>1066.2</ele>
        <time>2000-01-01T03:21:32.000Z</time>
      </trkpt>
      <trkpt lat="48.01531" lon="6.99475">
        <ele>1039</ele>
        <time>2000-01-01T03:21:42.000Z</time>
      </trkpt>
      <trkpt lat="48.01525" lon="6.99494">
        <ele>1066.6</ele>
        <time>2000-01-01T03:21:52.000Z</time>
      </trkpt>
      <trkpt lat="48.01524" lon="6.99504">
        <ele>1055</ele>
        <time>2000-01-01T03:22:02.000Z</time>
      </trkpt>
      <trkpt lat="48.01522" lon="6.99511">
        <ele>1066.8</ele>
        <time>2000-01-01T03:22:12.000Z</time>
      </trkpt>
      <trkpt lat="48.01525" lon="6.99515">
        <ele>1068.8</ele>
        <time>2000-01-01T03:22:22.000Z</time>
      </trkpt>
      <trkpt lat="48.0153" lon="6.99499">
        <ele>1055</ele>
        <time>2000-01-01T03:22:32.000Z</time>
      </trkpt>
      <trkpt lat="48.01526" lon="6.99497">
        <ele>1068.1</ele>
        <time>2000-01-01T03:22:42.000Z</time>
      </trkpt>
      <trkpt lat="48.01518" lon="6.99513">
        <ele>1064.5</ele>
        <time>2000-01-01T03:22:52.000Z</time>
      </trkpt>
      <trkpt lat="48.01514" lon="6.99524">
        <ele>1037</ele>
        <time>2000-01-01T03:23:02.000Z</time>
      </trkpt>
      <trkpt lat="48.01511" lon="6.99528">
        <ele>1061.3</ele>
        <time>2000-01-01T03:23:12.000Z</time>
      </trkpt>
      <trkpt lat="48.01515" lon="6.99538">
        <ele>1063.4</ele>
        <time>2000-01-01T03:23:22.000Z</time>
      </trkpt>
      <trkpt lat="48.01399" lon="6.99654">
        <ele>1000</ele>
        <time>2000-01-01T03:23:32.000Z</time>
      </trkpt>
      <trkpt lat="48.01378" lon="6.99676">
        <ele>998</ele>
        <time>2000-01-01T03:23:42.000Z</time>
      </trkpt>
      <trkpt lat="48.01351" lon="6.99705">
        <ele>1003</ele>
        <time>2000-01-01T03:23:52.000Z</time>
      </trkpt>
      <trkpt lat="48.01347" lon="6.99713">
        <ele>1006.9</ele>
        <time>2000-01-01T03:24:02.000Z</time>
      </trkpt>
      <trkpt lat="48.0133" lon="6.99734">
        <ele>1003</ele>
        <time>2000-01-01T03:24:12.000Z</time>
      </trkpt>
      <trkpt lat="48.01323" lon="6.9974">
        <ele>1004.5</ele>
        <time>2000-01-01T03:24:22.000Z</time>
      </trkpt>
      <trkpt lat="48.01315" lon="6.99745">
        <ele>1003.4</ele>
        <time>2000-01-01T03:24:32.000Z</time>
      </trkpt>
      <trkpt lat="48.01287" lon="6.99765">
        <ele>992</ele>
        <time>2000-01-01T03:24:42.000Z</time>
      </trkpt>
      <trkpt lat="48.01267" lon="6.99794">
        <ele>983</ele>
        <time>2000-01-01T03:24:52.000Z</time>
      </trkpt>
      <trkpt lat="48.01262" lon="6.99804">
        <ele>994.2</ele>
        <time>2000-01-01T03:25:02.000Z</time>
      </trkpt>
      <trkpt lat="48.01255" lon="6.99812">
        <ele>992.8</ele>
        <time>2000-01-01T03:25:12.000Z</time>
      </trkpt>
      <trkpt lat="48.01245" lon="6.99826">
        <ele>1005</ele>
        <time>2000-01-01T03:25:22.000Z</time>
      </trkpt>
      <trkpt lat="48.01223" lon="6.99848">
        <ele>993</ele>
        <time>2000-01-01T03:25:32.000Z</time>
      </trkpt>
      <trkpt lat="48.01212" lon="6.99853">
        <ele>987.7</ele>
        <time>2000-01-01T03:25:42.000Z</time>
      </trkpt>
      <trkpt lat="48.01198" lon="6.99865">
        <ele>984</ele>
        <time>2000-01-01T03:25:52.000Z</time>
      </trkpt>
      <trkpt lat="48.01185" lon="6.99874">
        <ele>985.8</ele>
        <time>2000-01-01T03:26:02.000Z</time>
      </trkpt>
      <trkpt lat="48.01177" lon="6.99877">
        <ele>977</ele>
        <time>2000-01-01T03:26:12.000Z</time>
      </trkpt>
      <trkpt lat="48.0116" lon="6.99872">
        <ele>983.2</ele>
        <time>2000-01-01T03:26:22.000Z</time>
      </trkpt>
      <trkpt lat="48.01148" lon="6.99862">
        <ele>968</ele>
        <time>2000-01-01T03:26:32.000Z</time>
      </trkpt>
      <trkpt lat="48.01133" lon="6.99861">
        <ele>975.8</ele>
        <time>2000-01-01T03:26:42.000Z</time>
      </trkpt>
      <trkpt lat="48.01127" lon="6.99869">
        <ele>959</ele>
        <time>2000-01-01T03:26:52.000Z</time>
      </trkpt>
      <trkpt lat="48.01122" lon="6.99877">
        <ele>974.6</ele>
        <time>2000-01-01T03:27:02.000Z</time>
      </trkpt>
      <trkpt lat="48.01118" lon="6.99886">
        <ele>974.7</ele>
        <time>2000-01-01T03:27:12.000Z</time>
      </trkpt>
      <trkpt lat="48.01109" lon="6.9991">
        <ele>970</ele>
        <time>2000-01-01T03:27:22.000Z</time>
      </trkpt>
      <trkpt lat="48.01106" lon="6.99924">
        <ele>971.4</ele>
        <time>2000-01-01T03:27:32.000Z</time>
      </trkpt>
      <trkpt lat="48.01096" lon="6.99962">
        <ele>966</ele>
        <time>2000-01-01T03:27:42.000Z</time>
      </trkpt>
      <trkpt lat="48.01093" lon="6.99978">
        <ele>962.8</ele>
        <time>2000-01-01T03:27:52.000Z</time>
      </trkpt>
      <trkpt lat="48.01093" lon="6.99989">
        <ele>966</ele>
        <time>2000-01-01T03:28:02.000Z</time>
      </trkpt>
      <trkpt lat="48.01094" lon="7.00009">
        <ele>962.2</ele>
        <time>2000-01-01T03:28:12.000Z</time>
      </trkpt>
      <trkpt lat="48.01094" lon="7.0003">
        <ele>963</ele>
        <time>2000-01-01T03:28:22.000Z</time>
      </trkpt>
      <trkpt lat="48.01093" lon="7.00039">
        <ele>960.3</ele>
        <time>2000-01-01T03:28:32.000Z</time>
      </trkpt>
      <trkpt lat="48.01106" lon="7.00084">
        <ele>966</ele>
        <time>2000-01-01T03:28:42.000Z</time>
      </trkpt>
      <trkpt lat="48.01104" lon="7.0012">
        <ele>967</ele>
        <time>2000-01-01T03:28:52.000Z</time>
      </trkpt>
      <trkpt lat="48.01083" lon="7.00134">
        <ele>952</ele>
        <time>2000-01-01T03:29:02.000Z</time>
      </trkpt>
      <trkpt lat="48.01061" lon="7.00149">
        <ele>938</ele>
        <time>2000-01-01T03:29:12.000Z</time>
      </trkpt>
      <trkpt lat="48.01085" lon="7.002">
        <ele>937</ele>
        <time>2000-01-01T03:29:22.000Z</time>
      </trkpt>
      <trkpt lat="48.01108" lon="7.00212">
        <ele>933</ele>
        <time>2000-01-01T03:29:32.000Z</time>
      </trkpt>
      <trkpt lat="48.01134" lon="7.00226">
        <ele>936</ele>
        <time>2000-01-01T03:29:42.000Z</time>
      </trkpt>
      <trkpt lat="48.01158" lon="7.00226">
        <ele>936</ele>
        <time>2000-01-01T03:29:52.000Z</time>
      </trkpt>
      <trkpt lat="48.01184" lon="7.00226">
        <ele>941</ele>
        <time>2000-01-01T03:30:02.000Z</time>
      </trkpt>
      <trkpt lat="48.01209" lon="7.00228">
        <ele>950</ele>
        <time>2000-01-01T03:30:12.000Z</time>
      </trkpt>
      <trkpt lat="48.01242" lon="7.00232">
        <ele>946</ele>
        <time>2000-01-01T03:30:22.000Z</time>
      </trkpt>
      <trkpt lat="48.01259" lon="7.00258">
        <ele>942</ele>
        <time>2000-01-01T03:30:32.000Z</time>
      </trkpt>
      <trkpt lat="48.01279" lon="7.0029">
        <ele>931</ele>
        <time>2000-01-01T03:30:42.000Z</time>
      </trkpt>
      <trkpt lat="48.013" lon="7.00326">
        <ele>918</ele>
        <time>2000-01-01T03:30:52.000Z</time>
      </trkpt>
      <trkpt lat="48.01317" lon="7.0038">
        <ele>923</ele>
        <time>2000-01-01T03:31:02.000Z</time>
      </trkpt>
      <trkpt lat="48.01312" lon="7.00415">
        <ele>914</ele>
        <time>2000-01-01T03:31:12.000Z</time>
      </trkpt>
      <trkpt lat="48.01307" lon="7.00454">
        <ele>921</ele>
        <time>2000-01-01T03:31:22.000Z</time>
      </trkpt>
      <trkpt lat="48.01304" lon="7.00499">
        <ele>948</ele>
        <time>2000-01-01T03:31:32.000Z</time>
      </trkpt>
      <trkpt lat="48.01304" lon="7.00535">
        <ele>956</ele>
        <time>2000-01-01T03:31:42.000Z</time>
      </trkpt>
      <trkpt lat="48.01304" lon="7.00577">
        <ele>975</ele>
        <time>2000-01-01T03:31:52.000Z</time>
      </trkpt>
      <trkpt lat="48.013" lon="7.00615">
        <ele>962</ele>
        <time>2000-01-01T03:32:02.000Z</time>
      </trkpt>
      <trkpt lat="48.01294" lon="7.00665">
        <ele>974</ele>
        <time>2000-01-01T03:32:12.000Z</time>
      </trkpt>
      <trkpt lat="48.01289" lon="7.00699">
        <ele>990</ele>
        <time>2000-01-01T03:32:22.000Z</time>
      </trkpt>
      <trkpt lat="48.01295" lon="7.00732">
        <ele>993</ele>
        <time>2000-01-01T03:32:32.000Z</time>
      </trkpt>
      <trkpt lat="48.013" lon="7.00766">
        <ele>990</ele>
        <time>2000-01-01T03:32:42.000Z</time>
      </trkpt>
      <trkpt lat="48.01322" lon="7.00805">
        <ele>1027</ele>
        <time>2000-01-01T03:32:52.000Z</time>
      </trkpt>
      <trkpt lat="48.01339" lon="7.00844">
        <ele>1033</ele>
        <time>2000-01-01T03:33:02.000Z</time>
      </trkpt>
      <trkpt lat="48.01347" lon="7.00873">
        <ele>1035</ele>
        <time>2000-01-01T03:33:12.000Z</time>
      </trkpt>
      <trkpt lat="48.01343" lon="7.0094">
        <ele>1069</ele>
        <time>2000-01-01T03:33:22.000Z</time>
      </trkpt>
      <trkpt lat="48.01322" lon="7.00969">
        <ele>1072</ele>
        <time>2000-01-01T03:33:32.000Z</time>
      </trkpt>
      <trkpt lat="48.01309" lon="7.01027">
        <ele>1058</ele>
        <time>2000-01-01T03:33:42.000Z</time>
      </trkpt>
      <trkpt lat="48.01296" lon="7.01043">
        <ele>1045.2</ele>
        <time>2000-01-01T03:33:52.000Z</time>
      </trkpt>
      <trkpt lat="48.01272" lon="7.01082">
        <ele>1042</ele>
        <time>2000-01-01T03:34:02.000Z</time>
      </trkpt>
      <trkpt lat="48.01256" lon="7.01114">
        <ele>1043</ele>
        <time>2000-01-01T03:34:12.000Z</time>
      </trkpt>
      <trkpt lat="48.01231" lon="7.01162">
        <ele>1057</ele>
        <time>2000-01-01T03:34:22.000Z</time>
      </trkpt>
      <trkpt lat="48.01255" lon="7.01156">
        <ele>1052</ele>
        <time>2000-01-01T03:34:32.000Z</time>
      </trkpt>
      <trkpt lat="48.01261" lon="7.01178">
        <ele>1075.8</ele>
        <time>2000-01-01T03:34:42.000Z</time>
      </trkpt>
      <trkpt lat="48.01259" lon="7.01233">
        <ele>1075</ele>
        <time>2000-01-01T03:34:52.000Z</time>
      </trkpt>
      <trkpt lat="48.01246" lon="7.01278">
        <ele>1078</ele>
        <time>2000-01-01T03:35:02.000Z</time>
      </trkpt>
      <trkpt lat="48.01229" lon="7.0132">
        <ele>1077</ele>
        <time>2000-01-01T03:35:12.000Z</time>
      </trkpt>
      <trkpt lat="48.01218" lon="7.01349">
        <ele>1076</ele>
        <time>2000-01-01T03:35:22.000Z</time>
      </trkpt>
      <trkpt lat="48.01211" lon="7.01383">
        <ele>1073</ele>
        <time>2000-01-01T03:35:32.000Z</time>
      </trkpt>
      <trkpt lat="48.01203" lon="7.0142">
        <ele>1063</ele>
        <time>2000-01-01T03:35:42.000Z</time>
      </trkpt>
      <trkpt lat="48.01207" lon="7.01454">
        <ele>1063</ele>
        <time>2000-01-01T03:35:52.000Z</time>
      </trkpt>
      <trkpt lat="48.0121" lon="7.01489">
        <ele>1065</ele>
        <time>2000-01-01T03:36:02.000Z</time>
      </trkpt>
      <trkpt lat="48.01238" lon="7.01537">
        <ele>1068</ele>
        <time>2000-01-01T03:36:12.000Z</time>
      </trkpt>
      <trkpt lat="48.0126" lon="7.01547">
        <ele>1070</ele>
        <time>2000-01-01T03:36:22.000Z</time>
      </trkpt>
      <trkpt lat="48.01285" lon="7.01557">
        <ele>1081</ele>
        <time>2000-01-01T03:36:32.000Z</time>
      </trkpt>
      <trkpt lat="48.0132" lon="7.01569">
        <ele>1083</ele>
        <time>2000-01-01T03:36:42.000Z</time>
      </trkpt>
      <trkpt lat="48.01352" lon="7.01608">
        <ele>1066</ele>
        <time>2000-01-01T03:36:52.000Z</time>
      </trkpt>
      <trkpt lat="48.01393" lon="7.01611">
        <ele>1062</ele>
        <time>2000-01-01T03:37:02.000Z</time>
      </trkpt>
      <trkpt lat="48.01408" lon="7.0165">
        <ele>1054</ele>
        <time>2000-01-01T03:37:12.000Z</time>
      </trkpt>
      <trkpt lat="48.01402" lon="7.01705">
        <ele>1044</ele>
        <time>2000-01-01T03:37:22.000Z</time>
      </trkpt>
      <trkpt lat="48.01397" lon="7.01766">
        <ele>1017</ele>
        <time>2000-01-01T03:37:32.000Z</time>
      </trkpt>
      <trkpt lat="48.01412" lon="7.0182">
        <ele>997</ele>
        <time>2000-01-01T03:37:42.000Z</time>
      </trkpt>
      <trkpt lat="48.01421" lon="7.01859">
        <ele>983</ele>
        <time>2000-01-01T03:37:52.000Z</time>
      </trkpt>
      <trkpt lat="48.01423" lon="7.01917">
        <ele>970</ele>
        <time>2000-01-01T03:38:02.000Z</time>
      </trkpt>
      <trkpt lat="48.01402" lon="7.01946">
        <ele>959</ele>
        <time>2000-01-01T03:38:12.000Z</time>
      </trkpt>
      <trkpt lat="48.01376" lon="7.01962">
        <ele>949</ele>
        <time>2000-01-01T03:38:22.000Z</time>
      </trkpt>
      <trkpt lat="48.01352" lon="7.01991">
        <ele>939</ele>
        <time>2000-01-01T03:38:32.000Z</time>
      </trkpt>
      <trkpt lat="48.01324" lon="7.01997">
        <ele>932</ele>
        <time>2000-01-01T03:38:42.000Z</time>
      </trkpt>
      <trkpt lat="48.01298" lon="7.02007">
        <ele>915</ele>
        <time>2000-01-01T03:38:52.000Z</time>
      </trkpt>
      <trkpt lat="48.0126" lon="7.0202">
        <ele>912</ele>
        <time>2000-01-01T03:39:02.000Z</time>
      </trkpt>
      <trkpt lat="48.01249" lon="7.02085">
        <ele>900</ele>
        <time>2000-01-01T03:39:12.000Z</time>
      </trkpt>
      <trkpt lat="48.01272" lon="7.02095">
        <ele>900</ele>
        <time>2000-01-01T03:39:22.000Z</time>
      </trkpt>
      <trkpt lat="48.01298" lon="7.02107">
        <ele>895</ele>
        <time>2000-01-01T03:39:32.000Z</time>
      </trkpt>
      <trkpt lat="48.0132" lon="7.02123">
        <ele>896</ele>
        <time>2000-01-01T03:39:42.000Z</time>
      </trkpt>
      <trkpt lat="48.01356" lon="7.0213">
        <ele>901</ele>
        <time>2000-01-01T03:39:52.000Z</time>
      </trkpt>
      <trkpt lat="48.01391" lon="7.02117">
        <ele>901</ele>
        <time>2000-01-01T03:40:02.000Z</time>
      </trkpt>
      <trkpt lat="48.01402" lon="7.02175">
        <ele>888</ele>
        <time>2000-01-01T03:40:12.000Z</time>
      </trkpt>
      <trkpt lat="48.01374" lon="7.02184">
        <ele>883</ele>
        <time>2000-01-01T03:40:22.000Z</time>
      </trkpt>
      <trkpt lat="48.01359" lon="7.02215">
        <ele>874</ele>
        <time>2000-01-01T03:40:32.000Z</time>
      </trkpt>
      <trkpt lat="48.01341" lon="7.02255">
        <ele>852</ele>
        <time>2000-01-01T03:40:42.000Z</time>
      </trkpt>
      <trkpt lat="48.01326" lon="7.0229">
        <ele>851</ele>
        <time>2000-01-01T03:40:52.000Z</time>
      </trkpt>
      <trkpt lat="48.013" lon="7.02313">
        <ele>837</ele>
        <time>2000-01-01T03:41:02.000Z</time>
      </trkpt>
      <trkpt lat="48.01264" lon="7.02316">
        <ele>823</ele>
        <time>2000-01-01T03:41:12.000Z</time>
      </trkpt>
      <trkpt lat="48.01236" lon="7.02314">
        <ele>822</ele>
        <time>2000-01-01T03:41:22.000Z</time>
      </trkpt>
      <trkpt lat="48.01214" lon="7.02312">
        <ele>822</ele>
        <time>2000-01-01T03:41:32.000Z</time>
      </trkpt>
      <trkpt lat="48.01191" lon="7.0231">
        <ele>814</ele>
        <time>2000-01-01T03:41:42.000Z</time>
      </trkpt>
      <trkpt lat="48.01167" lon="7.02311">
        <ele>812</ele>
        <time>2000-01-01T03:41:52.000Z</time>
      </trkpt>
      <trkpt lat="48.01141" lon="7.02313">
        <ele>808</ele>
        <time>2000-01-01T03:42:02.000Z</time>
      </trkpt>
      <trkpt lat="48.0113" lon="7.02355">
        <ele>784</ele>
        <time>2000-01-01T03:42:12.000Z</time>
      </trkpt>
      <trkpt lat="48.01087" lon="7.02371">
        <ele>778</ele>
        <time>2000-01-01T03:42:22.000Z</time>
      </trkpt>
      <trkpt lat="48.01057" lon="7.02381">
        <ele>758</ele>
        <time>2000-01-01T03:42:32.000Z</time>
      </trkpt>
      <trkpt lat="48.01042" lon="7.02352">
        <ele>758</ele>
        <time>2000-01-01T03:42:42.000Z</time>
      </trkpt>
      <trkpt lat="48.01016" lon="7.02381">
        <ele>733</ele>
        <time>2000-01-01T03:42:52.000Z</time>
      </trkpt>
      <trkpt lat="48.0098" lon="7.02377">
        <ele>722</ele>
        <time>2000-01-01T03:43:02.000Z</time>
      </trkpt>
      <trkpt lat="48.00943" lon="7.02364">
        <ele>706</ele>
        <time>2000-01-01T03:43:12.000Z</time>
      </trkpt>
      <trkpt lat="48.00939" lon="7.02419">
        <ele>691</ele>
        <time>2000-01-01T03:43:22.000Z</time>
      </trkpt>
      <trkpt lat="48.00949" lon="7.02449">
        <ele>702</ele>
        <time>2000-01-01T03:43:32.000Z</time>
      </trkpt>
      <trkpt lat="48.0096" lon="7.0248">
        <ele>696</ele>
        <time>2000-01-01T03:43:42.000Z</time>
      </trkpt>
      <trkpt lat="48.00924" lon="7.02477">
        <ele>678</ele>
        <time>2000-01-01T03:43:52.000Z</time>
      </trkpt>
      <trkpt lat="48.00904" lon="7.02474">
        <ele>666</ele>
        <time>2000-01-01T03:44:02.000Z</time>
      </trkpt>
      <trkpt lat="48.00891" lon="7.02513">
        <ele>667</ele>
        <time>2000-01-01T03:44:12.000Z</time>
      </trkpt>
      <trkpt lat="48.00872" lon="7.02538">
        <ele>650</ele>
        <time>2000-01-01T03:44:22.000Z</time>
      </trkpt>
      <trkpt lat="48.00859" lon="7.02577">
        <ele>651</ele>
        <time>2000-01-01T03:44:32.000Z</time>
      </trkpt>
      <trkpt lat="48.00827" lon="7.02561">
        <ele>636</ele>
        <time>2000-01-01T03:44:42.000Z</time>
      </trkpt>
      <trkpt lat="48.00805" lon="7.02612">
        <ele>615</ele>
        <time>2000-01-01T03:44:52.000Z</time>
      </trkpt>
      <trkpt lat="48.00779" lon="7.02628">
        <ele>600</ele>
        <time>2000-01-01T03:45:02.000Z</time>
      </trkpt>
      <trkpt lat="48.00738" lon="7.02648">
        <ele>587</ele>
        <time>2000-01-01T03:45:12.000Z</time>
      </trkpt>
      <trkpt lat="48.00706" lon="7.02657">
        <ele>578</ele>
        <time>2000-01-01T03:45:22.000Z</time>
      </trkpt>
      <trkpt lat="48.00685" lon="7.02677">
        <ele>576</ele>
        <time>2000-01-01T03:45:32.000Z</time>
      </trkpt>
      <trkpt lat="48.00659" lon="7.02699">
        <ele>567</ele>
        <time>2000-01-01T03:45:42.000Z</time>
      </trkpt>
      <trkpt lat="48.00635" lon="7.0269">
        <ele>562</ele>
        <time>2000-01-01T03:45:52.000Z</time>
      </trkpt>
      <trkpt lat="48.00616" lon="7.02712">
        <ele>560</ele>
        <time>2000-01-01T03:46:02.000Z</time>
      </trkpt>
      <trkpt lat="48.00592" lon="7.02725">
        <ele>559</ele>
        <time>2000-01-01T03:46:12.000Z</time>
      </trkpt>
      <trkpt lat="48.00573" lon="7.02754">
        <ele>558</ele>
        <time>2000-01-01T03:46:22.000Z</time>
      </trkpt>
      <trkpt lat="48.00553" lon="7.02792">
        <ele>551</ele>
        <time>2000-01-01T03:46:32.000Z</time>
      </trkpt>
      <trkpt lat="48.0054" lon="7.02824">
        <ele>544</ele>
        <time>2000-01-01T03:46:42.000Z</time>
      </trkpt>
      <trkpt lat="48.00523" lon="7.02863">
        <ele>544</ele>
        <time>2000-01-01T03:46:52.000Z</time>
      </trkpt>
      <trkpt lat="48.00506" lon="7.02905">
        <ele>543</ele>
        <time>2000-01-01T03:47:02.000Z</time>
      </trkpt>
      <trkpt lat="48.00481" lon="7.02912">
        <ele>540</ele>
        <time>2000-01-01T03:47:12.000Z</time>
      </trkpt>
      <trkpt lat="48.00457" lon="7.02934">
        <ele>543</ele>
        <time>2000-01-01T03:47:22.000Z</time>
      </trkpt>
      <trkpt lat="48.00429" lon="7.02982">
        <ele>536</ele>
        <time>2000-01-01T03:47:32.000Z</time>
      </trkpt>
      <trkpt lat="48.0041" lon="7.03035">
        <ele>531</ele>
        <time>2000-01-01T03:47:42.000Z</time>
      </trkpt>
      <trkpt lat="48.00401" lon="7.03041">
        <ele>537</ele>
        <time>2000-01-01T03:47:52.000Z</time>
      </trkpt>
      <trkpt lat="48.00391" lon="7.03044">
        <ele>531</ele>
        <time>2000-01-01T03:48:02.000Z</time>
      </trkpt>
      <trkpt lat="48.0038" lon="7.03062">
        <ele>536.4</ele>
        <time>2000-01-01T03:48:12.000Z</time>
      </trkpt>
      <trkpt lat="48.00353" lon="7.03093">
        <ele>530</ele>
        <time>2000-01-01T03:48:22.000Z</time>
      </trkpt>
      <trkpt lat="48.00335" lon="7.03086">
        <ele>527</ele>
        <time>2000-01-01T03:48:32.000Z</time>
      </trkpt>
      <trkpt lat="48.00313" lon="7.03083">
        <ele>525</ele>
        <time>2000-01-01T03:48:42.000Z</time>
      </trkpt>
      <trkpt lat="48.00297" lon="7.03087">
        <ele>537.4</ele>
        <time>2000-01-01T03:48:52.000Z</time>
      </trkpt>
      <trkpt lat="48.00282" lon="7.03107">
        <ele>527</ele>
        <time>2000-01-01T03:49:02.000Z</time>
      </trkpt>
      <trkpt lat="48.00267" lon="7.0315">
        <ele>530</ele>
        <time>2000-01-01T03:49:12.000Z</time>
      </trkpt>
      <trkpt lat="48.00249" lon="7.03156">
        <ele>530</ele>
        <time>2000-01-01T03:49:22.000Z</time>
      </trkpt>
      <trkpt lat="48.00225" lon="7.03168">
        <ele>534</ele>
        <time>2000-01-01T03:49:32.000Z</time>
      </trkpt>
      <trkpt lat="48.00206" lon="7.03176">
        <ele>542</ele>
        <time>2000-01-01T03:49:42.000Z</time>
      </trkpt>
      <trkpt lat="48.00182" lon="7.03176">
        <ele>545</ele>
        <time>2000-01-01T03:49:52.000Z</time>
      </trkpt>
      <trkpt lat="48.00168" lon="7.03182">
        <ele>547</ele>
        <time>2000-01-01T03:50:02.000Z</time>
      </trkpt>
      <trkpt lat="48.0017" lon="7.03214">
        <ele>557</ele>
        <time>2000-01-01T03:50:12.000Z</time>
      </trkpt>
      <trkpt lat="48.00177" lon="7.03253">
        <ele>564</ele>
        <time>2000-01-01T03:50:22.000Z</time>
      </trkpt>
      <trkpt lat="48.0019" lon="7.03309">
        <ele>570</ele>
        <time>2000-01-01T03:50:32.000Z</time>
      </trkpt>
      <trkpt lat="48.00194" lon="7.03342">
        <ele>554</ele>
        <time>2000-01-01T03:50:42.000Z</time>
      </trkpt>
      <trkpt lat="48.00187" lon="7.03356">
        <ele>562</ele>
        <time>2000-01-01T03:50:52.000Z</time>
      </trkpt>
      <trkpt lat="48.00175" lon="7.03322">
        <ele>574</ele>
        <time>2000-01-01T03:51:02.000Z</time>
      </trkpt>
      <trkpt lat="48.00168" lon="7.03295">
        <ele>570</ele>
        <time>2000-01-01T03:51:12.000Z</time>
      </trkpt>
      <trkpt lat="48.00155" lon="7.03272">
        <ele>574</ele>
        <time>2000-01-01T03:51:22.000Z</time>
      </trkpt>
      <trkpt lat="48.00147" lon="7.03247">
        <ele>570</ele>
        <time>2000-01-01T03:51:32.000Z</time>
      </trkpt>
      <trkpt lat="48.00126" lon="7.03226">
        <ele>578</ele>
        <time>2000-01-01T03:51:42.000Z</time>
      </trkpt>
      <trkpt lat="48.00113" lon="7.03208">
        <ele>571.7</ele>
        <time>2000-01-01T03:51:52.000Z</time>
      </trkpt>
      <trkpt lat="48.00099" lon="7.0319">
        <ele>577</ele>
        <time>2000-01-01T03:52:02.000Z</time>
      </trkpt>
      <trkpt lat="48.00084" lon="7.03173">
        <ele>577</ele>
        <time>2000-01-01T03:52:12.000Z</time>
      </trkpt>
      <trkpt lat="48.00065" lon="7.03149">
        <ele>586</ele>
        <time>2000-01-01T03:52:22.000Z</time>
      </trkpt>
      <trkpt lat="48.00042" lon="7.03119">
        <ele>597</ele>
        <time>2000-01-01T03:52:32.000Z</time>
      </trkpt>
      <trkpt lat="48.00033" lon="7.03102">
        <ele>578.4</ele>
        <time>2000-01-01T03:52:42.000Z</time>
      </trkpt>
      <trkpt lat="48.00018" lon="7.03076">
        <ele>616</ele>
        <time>2000-01-01T03:52:52.000Z</time>
      </trkpt>
      <trkpt lat="48.00013" lon="7.03039">
        <ele>597</ele>
        <time>2000-01-01T03:53:02.000Z</time>
      </trkpt>
      <trkpt lat="48.00004" lon="7.03018">
        <ele>584.9</ele>
        <time>2000-01-01T03:53:12.000Z</time>
      </trkpt>
      <trkpt lat="47.99999" lon="7.02986">
        <ele>589</ele>
        <time>2000-01-01T03:53:22.000Z</time>
      </trkpt>
      <trkpt lat="47.99992" lon="7.02968">
        <ele>588</ele>
        <time>2000-01-01T03:53:32.000Z</time>
      </trkpt>
      <trkpt lat="47.99997" lon="7.03028">
        <ele>597</ele>
        <time>2000-01-01T03:53:42.000Z</time>
      </trkpt>
      <trkpt lat="47.99998" lon="7.03057">
        <ele>611</ele>
        <time>2000-01-01T03:53:52.000Z</time>
      </trkpt>
      <trkpt lat="47.99998" lon="7.03092">
        <ele>616</ele>
        <time>2000-01-01T03:54:02.000Z</time>
      </trkpt>
      <trkpt lat="47.99999" lon="7.03132">
        <ele>626</ele>
        <time>2000-01-01T03:54:12.000Z</time>
      </trkpt>
      <trkpt lat="48.00014" lon="7.03194">
        <ele>638</ele>
        <time>2000-01-01T03:54:22.000Z</time>
      </trkpt>
      <trkpt lat="48.00026" lon="7.03222">
        <ele>624</ele>
        <time>2000-01-01T03:54:32.000Z</time>
      </trkpt>
      <trkpt lat="48.00038" lon="7.03252">
        <ele>631</ele>
        <time>2000-01-01T03:54:42.000Z</time>
      </trkpt>
      <trkpt lat="48.00064" lon="7.03281">
        <ele>625</ele>
        <time>2000-01-01T03:54:52.000Z</time>
      </trkpt>
      <trkpt lat="48.00089" lon="7.03319">
        <ele>612</ele>
        <time>2000-01-01T03:55:02.000Z</time>
      </trkpt>
      <trkpt lat="48.0011" lon="7.03364">
        <ele>610</ele>
        <time>2000-01-01T03:55:12.000Z</time>
      </trkpt>
      <trkpt lat="48.00118" lon="7.03399">
        <ele>612</ele>
        <time>2000-01-01T03:55:22.000Z</time>
      </trkpt>
      <trkpt lat="48.00128" lon="7.03441">
        <ele>619</ele>
        <time>2000-01-01T03:55:32.000Z</time>
      </trkpt>
      <trkpt lat="48.00142" lon="7.03489">
        <ele>611</ele>
        <time>2000-01-01T03:55:42.000Z</time>
      </trkpt>
      <trkpt lat="48.00149" lon="7.03523">
        <ele>620</ele>
        <time>2000-01-01T03:55:52.000Z</time>
      </trkpt>
      <trkpt lat="48.00157" lon="7.03562">
        <ele>632</ele>
        <time>2000-01-01T03:56:02.000Z</time>
      </trkpt>
      <trkpt lat="48.00165" lon="7.03596">
        <ele>618</ele>
        <time>2000-01-01T03:56:12.000Z</time>
      </trkpt>
      <trkpt lat="48.0017" lon="7.03636">
        <ele>617</ele>
        <time>2000-01-01T03:56:22.000Z</time>
      </trkpt>
      <trkpt lat="48.00179" lon="7.03699">
        <ele>612</ele>
        <time>2000-01-01T03:56:32.000Z</time>
      </trkpt>
      <trkpt lat="48.00179" lon="7.03738">
        <ele>612</ele>
        <time>2000-01-01T03:56:42.000Z</time>
      </trkpt>
      <trkpt lat="48.00179" lon="7.03793">
        <ele>620</ele>
        <time>2000-01-01T03:56:52.000Z</time>
      </trkpt>
      <trkpt lat="48.00185" lon="7.03831">
        <ele>622</ele>
        <time>2000-01-01T03:57:02.000Z</time>
      </trkpt>
      <trkpt lat="48.00194" lon="7.03883">
        <ele>609</ele>
        <time>2000-01-01T03:57:12.000Z</time>
      </trkpt>
      <trkpt lat="48.00201" lon="7.03916">
        <ele>606</ele>
        <time>2000-01-01T03:57:22.000Z</time>
      </trkpt>
      <trkpt lat="48.00208" lon="7.03948">
        <ele>603</ele>
        <time>2000-01-01T03:57:32.000Z</time>
      </trkpt>
      <trkpt lat="48.00234" lon="7.03991">
        <ele>591</ele>
        <time>2000-01-01T03:57:42.000Z</time>
      </trkpt>
      <trkpt lat="48.00257" lon="7.04042">
        <ele>579</ele>
        <time>2000-01-01T03:57:52.000Z</time>
      </trkpt>
      <trkpt lat="48.00261" lon="7.04079">
        <ele>584</ele>
        <time>2000-01-01T03:58:02.000Z</time>
      </trkpt>
      <trkpt lat="48.00265" lon="7.04124">
        <ele>584</ele>
        <time>2000-01-01T03:58:12.000Z</time>
      </trkpt>
      <trkpt lat="48.00277" lon="7.04171">
        <ele>587</ele>
        <time>2000-01-01T03:58:22.000Z</time>
      </trkpt>
      <trkpt lat="48.00297" lon="7.04222">
        <ele>585</ele>
        <time>2000-01-01T03:58:32.000Z</time>
      </trkpt>
      <trkpt lat="48.00313" lon="7.04249">
        <ele>577</ele>
        <time>2000-01-01T03:58:42.000Z</time>
      </trkpt>
      <trkpt lat="48.00332" lon="7.04282">
        <ele>571</ele>
        <time>2000-01-01T03:58:52.000Z</time>
      </trkpt>
      <trkpt lat="48.00351" lon="7.04313">
        <ele>565</ele>
        <time>2000-01-01T03:59:02.000Z</time>
      </trkpt>
      <trkpt lat="48.00377" lon="7.04364">
        <ele>568</ele>
        <time>2000-01-01T03:59:12.000Z</time>
      </trkpt>
      <trkpt lat="48.00393" lon="7.04394">
        <ele>564</ele>
        <time>2000-01-01T03:59:22.000Z</time>
      </trkpt>
      <trkpt lat="48.00411" lon="7.04427">
        <ele>559</ele>
        <time>2000-01-01T03:59:32.000Z</time>
      </trkpt>
      <trkpt lat="48.00426" lon="7.04454">
        <ele>562</ele>
        <time>2000-01-01T03:59:42.000Z</time>
      </trkpt>
      <trkpt lat="48.00443" lon="7.04484">
        <ele>560</ele>
        <time>2000-01-01T03:59:52.000Z</time>
      </trkpt>
      <trkpt lat="48.00475" lon="7.04523">
        <ele>556</ele>
        <time>2000-01-01T04:00:02.000Z</time>
      </trkpt>
      <trkpt lat="48.00509" lon="7.04536">
        <ele>542</ele>
        <time>2000-01-01T04:00:12.000Z</time>
      </trkpt>
      <trkpt lat="48.00547" lon="7.0454">
        <ele>528</ele>
        <time>2000-01-01T04:00:22.000Z</time>
      </trkpt>
      <trkpt lat="48.00587" lon="7.04549">
        <ele>514</ele>
        <time>2000-01-01T04:00:32.000Z</time>
      </trkpt>
      <trkpt lat="48.00619" lon="7.04549">
        <ele>512</ele>
        <time>2000-01-01T04:00:42.000Z</time>
      </trkpt>
      <trkpt lat="48.00647" lon="7.04553">
        <ele>511</ele>
        <time>2000-01-01T04:00:52.000Z</time>
      </trkpt>
      <trkpt lat="48.00621" lon="7.04592">
        <ele>519</ele>
        <time>2000-01-01T04:01:02.000Z</time>
      </trkpt>
      <trkpt lat="48.00607" lon="7.04604">
        <ele>522.5</ele>
        <time>2000-01-01T04:01:12.000Z</time>
      </trkpt>
      <trkpt lat="48.00616" lon="7.04622">
        <ele>522</ele>
        <time>2000-01-01T04:01:22.000Z</time>
      </trkpt>
      <trkpt lat="48.00607" lon="7.04643">
        <ele>523</ele>
        <time>2000-01-01T04:01:32.000Z</time>
      </trkpt>
      <trkpt lat="48.00584" lon="7.04673">
        <ele>532</ele>
        <time>2000-01-01T04:01:42.000Z</time>
      </trkpt>
      <trkpt lat="48.00581" lon="7.0472">
        <ele>528</ele>
        <time>2000-01-01T04:01:52.000Z</time>
      </trkpt>
      <trkpt lat="48.00561" lon="7.04729">
        <ele>531</ele>
        <time>2000-01-01T04:02:02.000Z</time>
      </trkpt>
      <trkpt lat="48.0057" lon="7.04768">
        <ele>541</ele>
        <time>2000-01-01T04:02:12.000Z</time>
      </trkpt>
      <trkpt lat="48.00596" lon="7.04823">
        <ele>544</ele>
        <time>2000-01-01T04:02:22.000Z</time>
      </trkpt>
      <trkpt lat="48.00605" lon="7.04859">
        <ele>536</ele>
        <time>2000-01-01T04:02:32.000Z</time>
      </trkpt>
      <trkpt lat="48.00619" lon="7.04905">
        <ele>538</ele>
        <time>2000-01-01T04:02:42.000Z</time>
      </trkpt>
      <trkpt lat="48.00647" lon="7.04956">
        <ele>527</ele>
        <time>2000-01-01T04:02:52.000Z</time>
      </trkpt>
      <trkpt lat="48.00656" lon="7.04991">
        <ele>529</ele>
        <time>2000-01-01T04:03:02.000Z</time>
      </trkpt>
      <trkpt lat="48.00667" lon="7.05034">
        <ele>524</ele>
        <time>2000-01-01T04:03:12.000Z</time>
      </trkpt>
      <trkpt lat="48.00685" lon="7.05089">
        <ele>531</ele>
        <time>2000-01-01T04:03:22.000Z</time>
      </trkpt>
      <trkpt lat="48.00713" lon="7.05124">
        <ele>520</ele>
        <time>2000-01-01T04:03:32.000Z</time>
      </trkpt>
      <trkpt lat="48.00724" lon="7.05159">
        <ele>522</ele>
        <time>2000-01-01T04:03:42.000Z</time>
      </trkpt>
      <trkpt lat="48.00739" lon="7.05205">
        <ele>518</ele>
        <time>2000-01-01T04:03:52.000Z</time>
      </trkpt>
      <trkpt lat="48.00753" lon="7.05238">
        <ele>510</ele>
        <time>2000-01-01T04:04:02.000Z</time>
      </trkpt>
      <trkpt lat="48.00771" lon="7.05283">
        <ele>511</ele>
        <time>2000-01-01T04:04:12.000Z</time>
      </trkpt>
      <trkpt lat="48.00785" lon="7.05312">
        <ele>514</ele>
        <time>2000-01-01T04:04:22.000Z</time>
      </trkpt>
      <trkpt lat="48.00802" lon="7.05347">
        <ele>509</ele>
        <time>2000-01-01T04:04:32.000Z</time>
      </trkpt>
      <trkpt lat="48.00829" lon="7.05376">
        <ele>507</ele>
        <time>2000-01-01T04:04:42.000Z</time>
      </trkpt>
      <trkpt lat="48.00855" lon="7.05406">
        <ele>506</ele>
        <time>2000-01-01T04:04:52.000Z</time>
      </trkpt>
      <trkpt lat="48.00876" lon="7.05428">
        <ele>510</ele>
        <time>2000-01-01T04:05:02.000Z</time>
      </trkpt>
      <trkpt lat="48.00903" lon="7.05458">
        <ele>504</ele>
        <time>2000-01-01T04:05:12.000Z</time>
      </trkpt>
      <trkpt lat="48.009" lon="7.05489">
        <ele>502</ele>
        <time>2000-01-01T04:05:22.000Z</time>
      </trkpt>
      <trkpt lat="48.00901" lon="7.05524">
        <ele>511</ele>
        <time>2000-01-01T04:05:32.000Z</time>
      </trkpt>
      <trkpt lat="48.00903" lon="7.05561">
        <ele>516</ele>
        <time>2000-01-01T04:05:42.000Z</time>
      </trkpt>
      <trkpt lat="48.00913" lon="7.05594">
        <ele>513</ele>
        <time>2000-01-01T04:05:52.000Z</time>
      </trkpt>
      <trkpt lat="48.00926" lon="7.0563">
        <ele>519</ele>
        <time>2000-01-01T04:06:02.000Z</time>
      </trkpt>
      <trkpt lat="48.00938" lon="7.05662">
        <ele>545</ele>
        <time>2000-01-01T04:06:12.000Z</time>
      </trkpt>
      <trkpt lat="48.00952" lon="7.05699">
        <ele>529</ele>
        <time>2000-01-01T04:06:22.000Z</time>
      </trkpt>
      <trkpt lat="48.00964" lon="7.05729">
        <ele>522</ele>
        <time>2000-01-01T04:06:32.000Z</time>
      </trkpt>
      <trkpt lat="48.00977" lon="7.05763">
        <ele>532</ele>
        <time>2000-01-01T04:06:42.000Z</time>
      </trkpt>
      <trkpt lat="48.00988" lon="7.05794">
        <ele>543</ele>
        <time>2000-01-01T04:06:52.000Z</time>
      </trkpt>
      <trkpt lat="48.01001" lon="7.0583">
        <ele>534</ele>
        <time>2000-01-01T04:07:02.000Z</time>
      </trkpt>
      <trkpt lat="48.01012" lon="7.05862">
        <ele>538</ele>
        <time>2000-01-01T04:07:12.000Z</time>
      </trkpt>
      <trkpt lat="48.01022" lon="7.05895">
        <ele>537</ele>
        <time>2000-01-01T04:07:22.000Z</time>
      </trkpt>
      <trkpt lat="48.01035" lon="7.05935">
        <ele>538</ele>
        <time>2000-01-01T04:07:32.000Z</time>
      </trkpt>
      <trkpt lat="48.01041" lon="7.05974">
        <ele>552</ele>
        <time>2000-01-01T04:07:42.000Z</time>
      </trkpt>
      <trkpt lat="48.01047" lon="7.06018">
        <ele>557</ele>
        <time>2000-01-01T04:07:52.000Z</time>
      </trkpt>
      <trkpt lat="48.01051" lon="7.06056">
        <ele>554</ele>
        <time>2000-01-01T04:08:02.000Z</time>
      </trkpt>
      <trkpt lat="48.01058" lon="7.06106">
        <ele>568</ele>
        <time>2000-01-01T04:08:12.000Z</time>
      </trkpt>
      <trkpt lat="48.01058" lon="7.06158">
        <ele>577</ele>
        <time>2000-01-01T04:08:22.000Z</time>
      </trkpt>
      <trkpt lat="48.01061" lon="7.06214">
        <ele>579</ele>
        <time>2000-01-01T04:08:32.000Z</time>
      </trkpt>
      <trkpt lat="48.01049" lon="7.0627">
        <ele>597</ele>
        <time>2000-01-01T04:08:42.000Z</time>
      </trkpt>
      <trkpt lat="48.01035" lon="7.06291">
        <ele>590</ele>
        <time>2000-01-01T04:08:52.000Z</time>
      </trkpt>
      <trkpt lat="48.01006" lon="7.06291">
        <ele>590</ele>
        <time>2000-01-01T04:09:02.000Z</time>
      </trkpt>
      <trkpt lat="48.00982" lon="7.06276">
        <ele>592</ele>
        <time>2000-01-01T04:09:12.000Z</time>
      </trkpt>
      <trkpt lat="48.00952" lon="7.06257">
        <ele>597</ele>
        <time>2000-01-01T04:09:22.000Z</time>
      </trkpt>
      <trkpt lat="48.0093" lon="7.06246">
        <ele>598</ele>
        <time>2000-01-01T04:09:32.000Z</time>
      </trkpt>
      <trkpt lat="48.00906" lon="7.06235">
        <ele>607</ele>
        <time>2000-01-01T04:09:42.000Z</time>
      </trkpt>
      <trkpt lat="48.00877" lon="7.06232">
        <ele>615</ele>
        <time>2000-01-01T04:09:52.000Z</time>
      </trkpt>
      <trkpt lat="48.00852" lon="7.0623">
        <ele>615</ele>
        <time>2000-01-01T04:10:02.000Z</time>
      </trkpt>
      <trkpt lat="48.00822" lon="7.06227">
        <ele>621</ele>
        <time>2000-01-01T04:10:12.000Z</time>
      </trkpt>
      <trkpt lat="48.00785" lon="7.06227">
        <ele>620</ele>
        <time>2000-01-01T04:10:22.000Z</time>
      </trkpt>
      <trkpt lat="48.00742" lon="7.0621">
        <ele>638</ele>
        <time>2000-01-01T04:10:32.000Z</time>
      </trkpt>
      <trkpt lat="48.00713" lon="7.06213">
        <ele>635</ele>
        <time>2000-01-01T04:10:42.000Z</time>
      </trkpt>
      <trkpt lat="48.00689" lon="7.06215">
        <ele>644</ele>
        <time>2000-01-01T04:10:52.000Z</time>
      </trkpt>
      <trkpt lat="48.00662" lon="7.06218">
        <ele>644</ele>
        <time>2000-01-01T04:11:02.000Z</time>
      </trkpt>
      <trkpt lat="48.00627" lon="7.06245">
        <ele>643</ele>
        <time>2000-01-01T04:11:12.000Z</time>
      </trkpt>
      <trkpt lat="48.0061" lon="7.06288">
        <ele>642</ele>
        <time>2000-01-01T04:11:22.000Z</time>
      </trkpt>
      <trkpt lat="48.00611" lon="7.06326">
        <ele>639</ele>
        <time>2000-01-01T04:11:32.000Z</time>
      </trkpt>
      <trkpt lat="48.00613" lon="7.06374">
        <ele>641</ele>
        <time>2000-01-01T04:11:42.000Z</time>
      </trkpt>
      <trkpt lat="48.00625" lon="7.06404">
        <ele>643</ele>
        <time>2000-01-01T04:11:52.000Z</time>
      </trkpt>
      <trkpt lat="48.00639" lon="7.06438">
        <ele>648</ele>
        <time>2000-01-01T04:12:02.000Z</time>
      </trkpt>
      <trkpt lat="48.0064" lon="7.06472">
        <ele>651</ele>
        <time>2000-01-01T04:12:12.000Z</time>
      </trkpt>
      <trkpt lat="48.00641" lon="7.06507">
        <ele>650</ele>
        <time>2000-01-01T04:12:22.000Z</time>
      </trkpt>
      <trkpt lat="48.00636" lon="7.06537">
        <ele>647</ele>
        <time>2000-01-01T04:12:32.000Z</time>
      </trkpt>
      <trkpt lat="48.00601" lon="7.06546">
        <ele>651</ele>
        <time>2000-01-01T04:12:42.000Z</time>
      </trkpt>
      <trkpt lat="48.00593" lon="7.06559">
        <ele>649.8</ele>
        <time>2000-01-01T04:12:52.000Z</time>
      </trkpt>
      <trkpt lat="48.00578" lon="7.06588">
        <ele>654</ele>
        <time>2000-01-01T04:13:02.000Z</time>
      </trkpt>
      <trkpt lat="48.00567" lon="7.06607">
        <ele>640.9</ele>
        <time>2000-01-01T04:13:12.000Z</time>
      </trkpt>
      <trkpt lat="48.00562" lon="7.06626">
        <ele>638</ele>
        <time>2000-01-01T04:13:22.000Z</time>
      </trkpt>
      <trkpt lat="48.0057" lon="7.06648">
        <ele>630.9</ele>
        <time>2000-01-01T04:13:32.000Z</time>
      </trkpt>
      <trkpt lat="48.00572" lon="7.06671">
        <ele>625</ele>
        <time>2000-01-01T04:13:42.000Z</time>
      </trkpt>
      <trkpt lat="48.00562" lon="7.06671">
        <ele>623.4</ele>
        <time>2000-01-01T04:13:52.000Z</time>
      </trkpt>
      <trkpt lat="48.00533" lon="7.06684">
        <ele>621</ele>
        <time>2000-01-01T04:14:02.000Z</time>
      </trkpt>
      <trkpt lat="48.00509" lon="7.06693">
        <ele>615</ele>
        <time>2000-01-01T04:14:12.000Z</time>
      </trkpt>
      <trkpt lat="48.0048" lon="7.06705">
        <ele>616</ele>
        <time>2000-01-01T04:14:22.000Z</time>
      </trkpt>
      <trkpt lat="48.0046" lon="7.06709">
        <ele>614</ele>
        <time>2000-01-01T04:14:32.000Z</time>
      </trkpt>
      <trkpt lat="48.00436" lon="7.06735">
        <ele>611</ele>
        <time>2000-01-01T04:14:42.000Z</time>
      </trkpt>
      <trkpt lat="48.00417" lon="7.06763">
        <ele>604</ele>
        <time>2000-01-01T04:14:52.000Z</time>
      </trkpt>
      <trkpt lat="48.00392" lon="7.06776">
        <ele>598</ele>
        <time>2000-01-01T04:15:02.000Z</time>
      </trkpt>
      <trkpt lat="48.00368" lon="7.06782">
        <ele>597</ele>
        <time>2000-01-01T04:15:12.000Z</time>
      </trkpt>
      <trkpt lat="48.00348" lon="7.06784">
        <ele>597</ele>
        <time>2000-01-01T04:15:22.000Z</time>
      </trkpt>
      <trkpt lat="48.00323" lon="7.06791">
        <ele>597</ele>
        <time>2000-01-01T04:15:32.000Z</time>
      </trkpt>
      <trkpt lat="48.00304" lon="7.06793">
        <ele>600</ele>
        <time>2000-01-01T04:15:42.000Z</time>
      </trkpt>
      <trkpt lat="48.00265" lon="7.06793">
        <ele>604</ele>
        <time>2000-01-01T04:15:52.000Z</time>
      </trkpt>
      <trkpt lat="48.00249" lon="7.06795">
        <ele>596.1</ele>
        <time>2000-01-01T04:16:02.000Z</time>
      </trkpt>
      <trkpt lat="48.00245" lon="7.06853">
        <ele>589</ele>
        <time>2000-01-01T04:16:12.000Z</time>
      </trkpt>
      <trkpt lat="48.00236" lon="7.069">
        <ele>585</ele>
        <time>2000-01-01T04:16:22.000Z</time>
      </trkpt>
      <trkpt lat="48.00226" lon="7.06919">
        <ele>580.6</ele>
        <time>2000-01-01T04:16:32.000Z</time>
      </trkpt>
      <trkpt lat="48.00213" lon="7.06926">
        <ele>581</ele>
        <time>2000-01-01T04:16:42.000Z</time>
      </trkpt>
      <trkpt lat="48.00198" lon="7.06913">
        <ele>577</ele>
        <time>2000-01-01T04:16:52.000Z</time>
      </trkpt>
      <trkpt lat="48.00202" lon="7.06915">
        <ele>578</ele>
        <time>2000-01-01T04:17:02.000Z</time>
      </trkpt>
      <trkpt lat="48.00192" lon="7.06896">
        <ele>579.1</ele>
        <time>2000-01-01T04:17:12.000Z</time>
      </trkpt>
      <trkpt lat="48.00179" lon="7.06906">
        <ele>580</ele>
        <time>2000-01-01T04:17:22.000Z</time>
      </trkpt>
      <trkpt lat="48.00166" lon="7.0693">
        <ele>576</ele>
        <time>2000-01-01T04:17:32.000Z</time>
      </trkpt>
      <trkpt lat="48.00149" lon="7.06954">
        <ele>579</ele>
        <time>2000-01-01T04:17:42.000Z</time>
      </trkpt>
      <trkpt lat="48.0014" lon="7.06979">
        <ele>576</ele>
        <time>2000-01-01T04:17:52.000Z</time>
      </trkpt>
      <trkpt lat="48.00137" lon="7.07024">
        <ele>573</ele>
        <time>2000-01-01T04:18:02.000Z</time>
      </trkpt>
      <trkpt lat="48.00136" lon="7.07061">
        <ele>570</ele>
        <time>2000-01-01T04:18:12.000Z</time>
      </trkpt>
      <trkpt lat="48.00135" lon="7.07106">
        <ele>565</ele>
        <time>2000-01-01T04:18:22.000Z</time>
      </trkpt>
      <trkpt lat="48.00129" lon="7.07145">
        <ele>567</ele>
        <time>2000-01-01T04:18:32.000Z</time>
      </trkpt>
      <trkpt lat="48.00116" lon="7.07175">
        <ele>564</ele>
        <time>2000-01-01T04:18:42.000Z</time>
      </trkpt>
      <trkpt lat="48.001" lon="7.07211">
        <ele>558</ele>
        <time>2000-01-01T04:18:52.000Z</time>
      </trkpt>
      <trkpt lat="48.0008" lon="7.07218">
        <ele>558</ele>
        <time>2000-01-01T04:19:02.000Z</time>
      </trkpt>
      <trkpt lat="48.00058" lon="7.07228">
        <ele>558</ele>
        <time>2000-01-01T04:19:12.000Z</time>
      </trkpt>
      <trkpt lat="48.00037" lon="7.07248">
        <ele>552</ele>
        <time>2000-01-01T04:19:22.000Z</time>
      </trkpt>
      <trkpt lat="48.0001" lon="7.07263">
        <ele>551</ele>
        <time>2000-01-01T04:19:32.000Z</time>
      </trkpt>
      <trkpt lat="47.99991" lon="7.07269">
        <ele>551</ele>
        <time>2000-01-01T04:19:42.000Z</time>
      </trkpt>
      <trkpt lat="47.99969" lon="7.07263">
        <ele>551</ele>
        <time>2000-01-01T04:19:52.000Z</time>
      </trkpt>
      <trkpt lat="47.99951" lon="7.07261">
        <ele>553.1</ele>
        <time>2000-01-01T04:20:02.000Z</time>
      </trkpt>
      <trkpt lat="47.99929" lon="7.0725">
        <ele>552</ele>
        <time>2000-01-01T04:20:12.000Z</time>
      </trkpt>
      <trkpt lat="47.99911" lon="7.07256">
        <ele>552</ele>
        <time>2000-01-01T04:20:22.000Z</time>
      </trkpt>
      <trkpt lat="47.999" lon="7.07256">
        <ele>556.5</ele>
        <time>2000-01-01T04:20:32.000Z</time>
      </trkpt>
      <trkpt lat="47.9989" lon="7.07269">
        <ele>550</ele>
        <time>2000-01-01T04:20:42.000Z</time>
      </trkpt>
      <trkpt lat="47.99878" lon="7.07286">
        <ele>555.4</ele>
        <time>2000-01-01T04:20:52.000Z</time>
      </trkpt>
      <trkpt lat="47.99869" lon="7.07314">
        <ele>552</ele>
        <time>2000-01-01T04:21:02.000Z</time>
      </trkpt>
      <trkpt lat="47.99867" lon="7.07325">
        <ele>552.8</ele>
        <time>2000-01-01T04:21:12.000Z</time>
      </trkpt>
      <trkpt lat="47.99833" lon="7.07295">
        <ele>559</ele>
        <time>2000-01-01T04:21:22.000Z</time>
      </trkpt>
      <trkpt lat="47.99826" lon="7.07308">
        <ele>552.4</ele>
        <time>2000-01-01T04:21:32.000Z</time>
      </trkpt>
      <trkpt lat="47.99817" lon="7.07331">
        <ele>554</ele>
        <time>2000-01-01T04:21:42.000Z</time>
      </trkpt>
      <trkpt lat="47.99809" lon="7.07346">
        <ele>543.3</ele>
        <time>2000-01-01T04:21:52.000Z</time>
      </trkpt>
      <trkpt lat="47.998" lon="7.0737">
        <ele>543</ele>
        <time>2000-01-01T04:22:02.000Z</time>
      </trkpt>
      <trkpt lat="47.9979" lon="7.07391">
        <ele>540.6</ele>
        <time>2000-01-01T04:22:12.000Z</time>
      </trkpt>
      <trkpt lat="47.99787" lon="7.07413">
        <ele>541</ele>
        <time>2000-01-01T04:22:22.000Z</time>
      </trkpt>
      <trkpt lat="47.99787" lon="7.07436">
        <ele>541.7</ele>
        <time>2000-01-01T04:22:32.000Z</time>
      </trkpt>
      <trkpt lat="47.9979" lon="7.07471">
        <ele>543</ele>
        <time>2000-01-01T04:22:42.000Z</time>
      </trkpt>
      <trkpt lat="47.99791" lon="7.07507">
        <ele>544</ele>
        <time>2000-01-01T04:22:52.000Z</time>
      </trkpt>
      <trkpt lat="47.99791" lon="7.0755">
        <ele>543</ele>
        <time>2000-01-01T04:23:02.000Z</time>
      </trkpt>
      <trkpt lat="47.99798" lon="7.07569">
        <ele>550.1</ele>
        <time>2000-01-01T04:23:12.000Z</time>
      </trkpt>
      <trkpt lat="47.99842" lon="7.0758">
        <ele>543</ele>
        <time>2000-01-01T04:23:22.000Z</time>
      </trkpt>
      <trkpt lat="47.99873" lon="7.07591">
        <ele>546</ele>
        <time>2000-01-01T04:23:32.000Z</time>
      </trkpt>
      <trkpt lat="47.99898" lon="7.07597">
        <ele>548</ele>
        <time>2000-01-01T04:23:42.000Z</time>
      </trkpt>
      <trkpt lat="47.99931" lon="7.07606">
        <ele>551</ele>
        <time>2000-01-01T04:23:52.000Z</time>
      </trkpt>
      <trkpt lat="47.99964" lon="7.07623">
        <ele>546</ele>
        <time>2000-01-01T04:24:02.000Z</time>
      </trkpt>
      <trkpt lat="47.99985" lon="7.07638">
        <ele>552</ele>
        <time>2000-01-01T04:24:12.000Z</time>
      </trkpt>
      <trkpt lat="48.00014" lon="7.0763">
        <ele>546</ele>
        <time>2000-01-01T04:24:22.000Z</time>
      </trkpt>
      <trkpt lat="48.00048" lon="7.07627">
        <ele>541</ele>
        <time>2000-01-01T04:24:32.000Z</time>
      </trkpt>
      <trkpt lat="48.00084" lon="7.07636">
        <ele>546</ele>
        <time>2000-01-01T04:24:42.000Z</time>
      </trkpt>
      <trkpt lat="48.00115" lon="7.07651">
        <ele>545</ele>
        <time>2000-01-01T04:24:52.000Z</time>
      </trkpt>
      <trkpt lat="48.00147" lon="7.07667">
        <ele>561</ele>
        <time>2000-01-01T04:25:02.000Z</time>
      </trkpt>
      <trkpt lat="48.00171" lon="7.07679">
        <ele>565</ele>
        <time>2000-01-01T04:25:12.000Z</time>
      </trkpt>
      <trkpt lat="48.00201" lon="7.07694">
        <ele>569</ele>
        <time>2000-01-01T04:25:22.000Z</time>
      </trkpt>
      <trkpt lat="48.00233" lon="7.07703">
        <ele>572</ele>
        <time>2000-01-01T04:25:32.000Z</time>
      </trkpt>
      <trkpt lat="48.00266" lon="7.07711">
        <ele>576</ele>
        <time>2000-01-01T04:25:42.000Z</time>
      </trkpt>
      <trkpt lat="48.00291" lon="7.07718">
        <ele>574</ele>
        <time>2000-01-01T04:25:52.000Z</time>
      </trkpt>
      <trkpt lat="48.00321" lon="7.07726">
        <ele>560</ele>
        <time>2000-01-01T04:26:02.000Z</time>
      </trkpt>
      <trkpt lat="48.00345" lon="7.07737">
        <ele>560</ele>
        <time>2000-01-01T04:26:12.000Z</time>
      </trkpt>
      <trkpt lat="48.00374" lon="7.0775">
        <ele>566</ele>
        <time>2000-01-01T04:26:22.000Z</time>
      </trkpt>
      <trkpt lat="48.00395" lon="7.07777">
        <ele>573</ele>
        <time>2000-01-01T04:26:32.000Z</time>
      </trkpt>
      <trkpt lat="48.00426" lon="7.07821">
        <ele>574</ele>
        <time>2000-01-01T04:26:42.000Z</time>
      </trkpt>
      <trkpt lat="48.00438" lon="7.07857">
        <ele>587</ele>
        <time>2000-01-01T04:26:52.000Z</time>
      </trkpt>
      <trkpt lat="48.00431" lon="7.07908">
        <ele>600</ele>
        <time>2000-01-01T04:27:02.000Z</time>
      </trkpt>
      <trkpt lat="48.00421" lon="7.07947">
        <ele>606</ele>
        <time>2000-01-01T04:27:12.000Z</time>
      </trkpt>
      <trkpt lat="48.00399" lon="7.07994">
        <ele>631</ele>
        <time>2000-01-01T04:27:22.000Z</time>
      </trkpt>
      <trkpt lat="48.00386" lon="7.08048">
        <ele>630</ele>
        <time>2000-01-01T04:27:32.000Z</time>
      </trkpt>
      <trkpt lat="48.00385" lon="7.0808">
        <ele>638</ele>
        <time>2000-01-01T04:27:42.000Z</time>
      </trkpt>
      <trkpt lat="48.00418" lon="7.08099">
        <ele>624</ele>
        <time>2000-01-01T04:27:52.000Z</time>
      </trkpt>
      <trkpt lat="48.00451" lon="7.08132">
        <ele>631</ele>
        <time>2000-01-01T04:28:02.000Z</time>
      </trkpt>
      <trkpt lat="48.00482" lon="7.08166">
        <ele>636</ele>
        <time>2000-01-01T04:28:12.000Z</time>
      </trkpt>
      <trkpt lat="48.00521" lon="7.08196">
        <ele>646</ele>
        <time>2000-01-01T04:28:22.000Z</time>
      </trkpt>
      <trkpt lat="48.00544" lon="7.08245">
        <ele>655</ele>
        <time>2000-01-01T04:28:32.000Z</time>
      </trkpt>
      <trkpt lat="48.00579" lon="7.08267">
        <ele>646</ele>
        <time>2000-01-01T04:28:42.000Z</time>
      </trkpt>
      <trkpt lat="48.00591" lon="7.08297">
        <ele>657</ele>
        <time>2000-01-01T04:28:52.000Z</time>
      </trkpt>
      <trkpt lat="48.00617" lon="7.08302">
        <ele>662</ele>
        <time>2000-01-01T04:29:02.000Z</time>
      </trkpt>
      <trkpt lat="48.00651" lon="7.0831">
        <ele>663</ele>
        <time>2000-01-01T04:29:12.000Z</time>
      </trkpt>
      <trkpt lat="48.00669" lon="7.08301">
        <ele>656</ele>
        <time>2000-01-01T04:29:22.000Z</time>
      </trkpt>
      <trkpt lat="48.00704" lon="7.08282">
        <ele>650</ele>
        <time>2000-01-01T04:29:32.000Z</time>
      </trkpt>
      <trkpt lat="48.00722" lon="7.08249">
        <ele>653</ele>
        <time>2000-01-01T04:29:42.000Z</time>
      </trkpt>
      <trkpt lat="48.00738" lon="7.08221">
        <ele>647</ele>
        <time>2000-01-01T04:29:52.000Z</time>
      </trkpt>
      <trkpt lat="48.00757" lon="7.08188">
        <ele>646</ele>
        <time>2000-01-01T04:30:02.000Z</time>
      </trkpt>
      <trkpt lat="48.00777" lon="7.08155">
        <ele>644</ele>
        <time>2000-01-01T04:30:12.000Z</time>
      </trkpt>
      <trkpt lat="48.00771" lon="7.08104">
        <ele>643</ele>
        <time>2000-01-01T04:30:22.000Z</time>
      </trkpt>
      <trkpt lat="48.00771" lon="7.08062">
        <ele>643</ele>
        <time>2000-01-01T04:30:32.000Z</time>
      </trkpt>
      <trkpt lat="48.00771" lon="7.08028">
        <ele>644</ele>
        <time>2000-01-01T04:30:42.000Z</time>
      </trkpt>
      <trkpt lat="48.00771" lon="7.07994">
        <ele>644</ele>
        <time>2000-01-01T04:30:52.000Z</time>
      </trkpt>
      <trkpt lat="48.00775" lon="7.07958">
        <ele>640</ele>
        <time>2000-01-01T04:31:02.000Z</time>
      </trkpt>
      <trkpt lat="48.0078" lon="7.07915">
        <ele>633</ele>
        <time>2000-01-01T04:31:12.000Z</time>
      </trkpt>
      <trkpt lat="48.00784" lon="7.07872">
        <ele>624</ele>
        <time>2000-01-01T04:31:22.000Z</time>
      </trkpt>
      <trkpt lat="48.00801" lon="7.0784">
        <ele>627</ele>
        <time>2000-01-01T04:31:32.000Z</time>
      </trkpt>
      <trkpt lat="48.00814" lon="7.07821">
        <ele>627</ele>
        <time>2000-01-01T04:31:42.000Z</time>
      </trkpt>
      <trkpt lat="48.00849" lon="7.07824">
        <ele>628</ele>
        <time>2000-01-01T04:31:52.000Z</time>
      </trkpt>
      <trkpt lat="48.0087" lon="7.0784">
        <ele>623</ele>
        <time>2000-01-01T04:32:02.000Z</time>
      </trkpt>
      <trkpt lat="48.00894" lon="7.07858">
        <ele>622</ele>
        <time>2000-01-01T04:32:12.000Z</time>
      </trkpt>
      <trkpt lat="48.00914" lon="7.07874">
        <ele>618</ele>
        <time>2000-01-01T04:32:22.000Z</time>
      </trkpt>
      <trkpt lat="48.00938" lon="7.07887">
        <ele>627</ele>
        <time>2000-01-01T04:32:32.000Z</time>
      </trkpt>
      <trkpt lat="48.0097" lon="7.07906">
        <ele>628</ele>
        <time>2000-01-01T04:32:42.000Z</time>
      </trkpt>
      <trkpt lat="48.01014" lon="7.07916">
        <ele>640</ele>
        <time>2000-01-01T04:32:52.000Z</time>
      </trkpt>
      <trkpt lat="48.01053" lon="7.07929">
        <ele>641</ele>
        <time>2000-01-01T04:33:02.000Z</time>
      </trkpt>
      <trkpt lat="48.0109" lon="7.07951">
        <ele>654</ele>
        <time>2000-01-01T04:33:12.000Z</time>
      </trkpt>
      <trkpt lat="48.0111" lon="7.07962">
        <ele>661</ele>
        <time>2000-01-01T04:33:22.000Z</time>
      </trkpt>
      <trkpt lat="48.01142" lon="7.07983">
        <ele>649</ele>
        <time>2000-01-01T04:33:32.000Z</time>
      </trkpt>
      <trkpt lat="48.01165" lon="7.08">
        <ele>641</ele>
        <time>2000-01-01T04:33:42.000Z</time>
      </trkpt>
      <trkpt lat="48.01202" lon="7.08032">
        <ele>633</ele>
        <time>2000-01-01T04:33:52.000Z</time>
      </trkpt>
      <trkpt lat="48.01228" lon="7.08073">
        <ele>633</ele>
        <time>2000-01-01T04:34:02.000Z</time>
      </trkpt>
      <trkpt lat="48.01244" lon="7.08105">
        <ele>622</ele>
        <time>2000-01-01T04:34:12.000Z</time>
      </trkpt>
      <trkpt lat="48.01265" lon="7.08084">
        <ele>620</ele>
        <time>2000-01-01T04:34:22.000Z</time>
      </trkpt>
      <trkpt lat="48.01297" lon="7.08099">
        <ele>617</ele>
        <time>2000-01-01T04:34:32.000Z</time>
      </trkpt>
      <trkpt lat="48.01323" lon="7.0814">
        <ele>610</ele>
        <time>2000-01-01T04:34:42.000Z</time>
      </trkpt>
      <trkpt lat="48.01337" lon="7.08183">
        <ele>609</ele>
        <time>2000-01-01T04:34:52.000Z</time>
      </trkpt>
      <trkpt lat="48.0135" lon="7.08191">
        <ele>605.9</ele>
        <time>2000-01-01T04:35:02.000Z</time>
      </trkpt>
      <trkpt lat="48.01392" lon="7.08204">
        <ele>605</ele>
        <time>2000-01-01T04:35:12.000Z</time>
      </trkpt>
      <trkpt lat="48.01423" lon="7.0823">
        <ele>611</ele>
        <time>2000-01-01T04:35:22.000Z</time>
      </trkpt>
      <trkpt lat="48.01458" lon="7.08245">
        <ele>609</ele>
        <time>2000-01-01T04:35:32.000Z</time>
      </trkpt>
      <trkpt lat="48.01497" lon="7.08249">
        <ele>609</ele>
        <time>2000-01-01T04:35:42.000Z</time>
      </trkpt>
      <trkpt lat="48.01507" lon="7.08269">
        <ele>593.4</ele>
        <time>2000-01-01T04:35:52.000Z</time>
      </trkpt>
      <trkpt lat="48.01511" lon="7.08301">
        <ele>596</ele>
        <time>2000-01-01T04:36:02.000Z</time>
      </trkpt>
      <trkpt lat="48.01508" lon="7.08322">
        <ele>589.7</ele>
        <time>2000-01-01T04:36:12.000Z</time>
      </trkpt>
      <trkpt lat="48.01555" lon="7.08354">
        <ele>594</ele>
        <time>2000-01-01T04:36:22.000Z</time>
      </trkpt>
      <trkpt lat="48.0158" lon="7.08359">
        <ele>589</ele>
        <time>2000-01-01T04:36:32.000Z</time>
      </trkpt>
      <trkpt lat="48.01613" lon="7.08365">
        <ele>595</ele>
        <time>2000-01-01T04:36:42.000Z</time>
      </trkpt>
      <trkpt lat="48.01639" lon="7.08372">
        <ele>599</ele>
        <time>2000-01-01T04:36:52.000Z</time>
      </trkpt>
      <trkpt lat="48.01675" lon="7.08382">
        <ele>592</ele>
        <time>2000-01-01T04:37:02.000Z</time>
      </trkpt>
      <trkpt lat="48.01699" lon="7.08393">
        <ele>586</ele>
        <time>2000-01-01T04:37:12.000Z</time>
      </trkpt>
      <trkpt lat="48.01729" lon="7.08406">
        <ele>580</ele>
        <time>2000-01-01T04:37:22.000Z</time>
      </trkpt>
      <trkpt lat="48.01753" lon="7.08408">
        <ele>567</ele>
        <time>2000-01-01T04:37:32.000Z</time>
      </trkpt>
      <trkpt lat="48.01779" lon="7.0841">
        <ele>558</ele>
        <time>2000-01-01T04:37:42.000Z</time>
      </trkpt>
      <trkpt lat="48.01818" lon="7.08423">
        <ele>551</ele>
        <time>2000-01-01T04:37:52.000Z</time>
      </trkpt>
      <trkpt lat="48.01858" lon="7.08425">
        <ele>536</ele>
        <time>2000-01-01T04:38:02.000Z</time>
      </trkpt>
      <trkpt lat="48.01867" lon="7.08466">
        <ele>545</ele>
        <time>2000-01-01T04:38:12.000Z</time>
      </trkpt>
      <trkpt lat="48.01871" lon="7.0853">
        <ele>534</ele>
        <time>2000-01-01T04:38:22.000Z</time>
      </trkpt>
      <trkpt lat="48.01876" lon="7.08587">
        <ele>519</ele>
        <time>2000-01-01T04:38:32.000Z</time>
      </trkpt>
      <trkpt lat="48.01865" lon="7.08614">
        <ele>518</ele>
        <time>2000-01-01T04:38:42.000Z</time>
      </trkpt>
      <trkpt lat="48.01872" lon="7.08637">
        <ele>512.4</ele>
        <time>2000-01-01T04:38:52.000Z</time>
      </trkpt>
      <trkpt lat="48.01944" lon="7.08693">
        <ele>515</ele>
        <time>2000-01-01T04:39:02.000Z</time>
      </trkpt>
      <trkpt lat="48.01964" lon="7.0871">
        <ele>513</ele>
        <time>2000-01-01T04:39:12.000Z</time>
      </trkpt>
      <trkpt lat="48.01987" lon="7.0873">
        <ele>513</ele>
        <time>2000-01-01T04:39:22.000Z</time>
      </trkpt>
      <trkpt lat="48.0201" lon="7.08753">
        <ele>516</ele>
        <time>2000-01-01T04:39:32.000Z</time>
      </trkpt>
      <trkpt lat="48.02046" lon="7.08789">
        <ele>508</ele>
        <time>2000-01-01T04:39:42.000Z</time>
      </trkpt>
      <trkpt lat="48.02062" lon="7.08816">
        <ele>499</ele>
        <time>2000-01-01T04:39:52.000Z</time>
      </trkpt>
      <trkpt lat="48.02081" lon="7.08849">
        <ele>491</ele>
        <time>2000-01-01T04:40:02.000Z</time>
      </trkpt>
      <trkpt lat="48.02097" lon="7.08874">
        <ele>488</ele>
        <time>2000-01-01T04:40:12.000Z</time>
      </trkpt>
      <trkpt lat="48.02113" lon="7.08901">
        <ele>480</ele>
        <time>2000-01-01T04:40:22.000Z</time>
      </trkpt>
      <trkpt lat="48.02126" lon="7.08931">
        <ele>480</ele>
        <time>2000-01-01T04:40:32.000Z</time>
      </trkpt>
      <trkpt lat="48.02139" lon="7.08963">
        <ele>472</ele>
        <time>2000-01-01T04:40:42.000Z</time>
      </trkpt>
      <trkpt lat="48.02164" lon="7.08994">
        <ele>459</ele>
        <time>2000-01-01T04:40:52.000Z</time>
      </trkpt>
      <trkpt lat="48.02188" lon="7.09002">
        <ele>459</ele>
        <time>2000-01-01T04:41:02.000Z</time>
      </trkpt>
      <trkpt lat="48.0222" lon="7.09013">
        <ele>457</ele>
        <time>2000-01-01T04:41:12.000Z</time>
      </trkpt>
      <trkpt lat="48.02235" lon="7.0904">
        <ele>455</ele>
        <time>2000-01-01T04:41:22.000Z</time>
      </trkpt>
      <trkpt lat="48.02251" lon="7.0907">
        <ele>450</ele>
        <time>2000-01-01T04:41:32.000Z</time>
      </trkpt>
      <trkpt lat="48.02273" lon="7.09083">
        <ele>448</ele>
        <time>2000-01-01T04:41:42.000Z</time>
      </trkpt>
      <trkpt lat="48.02298" lon="7.09098">
        <ele>448</ele>
        <time>2000-01-01T04:41:52.000Z</time>
      </trkpt>
      <trkpt lat="48.02314" lon="7.0906">
        <ele>451</ele>
        <time>2000-01-01T04:42:02.000Z</time>
      </trkpt>
      <trkpt lat="48.02315" lon="7.09046">
        <ele>449.4</ele>
        <time>2000-01-01T04:42:12.000Z</time>
      </trkpt>
      <trkpt lat="48.02325" lon="7.0904">
        <ele>451</ele>
        <time>2000-01-01T04:42:22.000Z</time>
      </trkpt>
      <trkpt lat="48.02324" lon="7.09003">
        <ele>453</ele>
        <time>2000-01-01T04:42:32.000Z</time>
      </trkpt>
      <trkpt lat="48.02322" lon="7.08959">
        <ele>452</ele>
        <time>2000-01-01T04:42:42.000Z</time>
      </trkpt>
      <trkpt lat="48.02325" lon="7.08893">
        <ele>450</ele>
        <time>2000-01-01T04:42:52.000Z</time>
      </trkpt>
      <trkpt lat="48.02336" lon="7.08849">
        <ele>455</ele>
        <time>2000-01-01T04:43:02.000Z</time>
      </trkpt>
      <trkpt lat="48.02332" lon="7.08796">
        <ele>458</ele>
        <time>2000-01-01T04:43:12.000Z</time>
      </trkpt>
      <trkpt lat="48.02325" lon="7.08762">
        <ele>459</ele>
        <time>2000-01-01T04:43:22.000Z</time>
      </trkpt>
      <trkpt lat="48.02317" lon="7.08721">
        <ele>459</ele>
        <time>2000-01-01T04:43:32.000Z</time>
      </trkpt>
      <trkpt lat="48.02305" lon="7.08664">
        <ele>460</ele>
        <time>2000-01-01T04:43:42.000Z</time>
      </trkpt>
      <trkpt lat="48.02281" lon="7.08624">
        <ele>459</ele>
        <time>2000-01-01T04:43:52.000Z</time>
      </trkpt>
      <trkpt lat="48.02254" lon="7.08613">
        <ele>461</ele>
        <time>2000-01-01T04:44:02.000Z</time>
      </trkpt>
      <trkpt lat="48.02233" lon="7.08615">
        <ele>472</ele>
        <time>2000-01-01T04:44:12.000Z</time>
      </trkpt>
      <trkpt lat="48.02219" lon="7.08587">
        <ele>467</ele>
        <time>2000-01-01T04:44:22.000Z</time>
      </trkpt>
      <trkpt lat="48.02205" lon="7.08557">
        <ele>474</ele>
        <time>2000-01-01T04:44:32.000Z</time>
      </trkpt>
      <trkpt lat="48.02184" lon="7.08525">
        <ele>478</ele>
        <time>2000-01-01T04:44:42.000Z</time>
      </trkpt>
      <trkpt lat="48.02167" lon="7.08513">
        <ele>476</ele>
        <time>2000-01-01T04:44:52.000Z</time>
      </trkpt>
      <trkpt lat="48.02168" lon="7.08518">
        <ele>476</ele>
        <time>2000-01-01T04:45:02.000Z</time>
      </trkpt>
    </trkseg>
  </trk>
</gpx>